DZH2024 PHOG-DAAG
Flight info
| Callsign | DZH2024 |
|---|---|
| Flight time | 15h 1m |
| Altitude | 30000 |
| Route | ONOHI2 BARBY V11 SWEEP DCT BOARD/N0497F310 DCT 34N150W 44N140W/N0484F330 54N130W DCT YYE/N0480F350 DCT BAMPS DCT BOTER J477 CB DCT YYH DCT SATAX/M083F370 DCT ABIBA DCT 71N050W 69N040W 66N030W 61N020W/N0476F390 54N010W 44N000E DCT EBROX DCT ARGOR DCT MITOS/N0479F400 N851 IZA/N0481F410 N856 SADAF UG30 ALR |
| Aircraft | B772/H-SDE2E3FGHIJ5LORVWXY/LB1D1 |
Departure
| Time | 2026-04-26 04:47 |
|---|---|
| Airport | Kahului International Airport (PHOG) |
Arrival
| Time | 2026-04-26 19:48 |
|---|---|
| Airport | Houari Boumediene Airport (DAAG) |
| Time | Latitude | Longitude | Altitude | Speed | Heading |
|---|---|---|---|---|---|
| 2026-04-26 04:06 | 20.89622 | -156.43421 | 49 ft | 0 kts | 304° |
| 2026-04-26 04:35 | 20.89608 | -156.43400 | 47 ft | 4 kts | 304° |
| 2026-04-26 04:36 | 20.89592 | -156.43376 | 45 ft | 4 kts | 301° |
| 2026-04-26 04:36 | 20.89580 | -156.43351 | 43 ft | 4 kts | 291° |
| 2026-04-26 04:36 | 20.89573 | -156.43324 | 43 ft | 4 kts | 270° |
| 2026-04-26 04:36 | 20.89579 | -156.43299 | 46 ft | 3 kts | 221° |
| 2026-04-26 04:37 | 20.89582 | -156.43296 | 46 ft | 0 kts | 215° |
| 2026-04-26 04:40 | 20.89577 | -156.43300 | 49 ft | 4 kts | 215° |
| 2026-04-26 04:40 | 20.89536 | -156.43331 | 49 ft | 9 kts | 215° |
| 2026-04-26 04:40 | 20.89484 | -156.43369 | 49 ft | 9 kts | 215° |
| 2026-04-26 04:40 | 20.89443 | -156.43400 | 48 ft | 6 kts | 214° |
| 2026-04-26 04:41 | 20.89406 | -156.43427 | 49 ft | 6 kts | 214° |
| 2026-04-26 04:41 | 20.89370 | -156.43454 | 49 ft | 6 kts | 214° |
| 2026-04-26 04:41 | 20.89333 | -156.43481 | 47 ft | 6 kts | 215° |
| 2026-04-26 04:41 | 20.89297 | -156.43509 | 49 ft | 6 kts | 215° |
| 2026-04-26 04:42 | 20.89261 | -156.43536 | 49 ft | 6 kts | 215° |
| 2026-04-26 04:42 | 20.89224 | -156.43563 | 48 ft | 6 kts | 215° |
| 2026-04-26 04:42 | 20.89188 | -156.43590 | 47 ft | 6 kts | 215° |
| 2026-04-26 04:42 | 20.89152 | -156.43618 | 49 ft | 6 kts | 215° |
| 2026-04-26 04:43 | 20.89116 | -156.43645 | 49 ft | 6 kts | 215° |
| 2026-04-26 04:43 | 20.89080 | -156.43672 | 49 ft | 6 kts | 215° |
| 2026-04-26 04:43 | 20.89043 | -156.43699 | 49 ft | 6 kts | 215° |
| 2026-04-26 04:43 | 20.89001 | -156.43708 | 49 ft | 6 kts | 165° |
| 2026-04-26 04:44 | 20.88968 | -156.43676 | 49 ft | 6 kts | 134° |
| 2026-04-26 04:44 | 20.88939 | -156.43646 | 48 ft | 1 kts | 129° |
| 2026-04-26 04:44 | 20.88938 | -156.43640 | 48 ft | 1 kts | 108° |
| 2026-04-26 04:44 | 20.88939 | -156.43632 | 48 ft | 1 kts | 82° |
| 2026-04-26 04:45 | 20.88942 | -156.43625 | 49 ft | 1 kts | 64° |
| 2026-04-26 04:45 | 20.88954 | -156.43610 | 49 ft | 3 kts | 47° |
| 2026-04-26 04:45 | 20.88965 | -156.43600 | 49 ft | 1 kts | 40° |
| 2026-04-26 04:45 | 20.88965 | -156.43599 | 49 ft | 0 kts | 40° |
| 2026-04-26 04:46 | 20.89011 | -156.43563 | 49 ft | 25 kts | 34° |
| 2026-04-26 04:46 | 20.89358 | -156.43304 | 49 ft | 96 kts | 34° |
| 2026-04-26 04:46 | 20.90083 | -156.42763 | 48 ft | 156 kts | 34° |
| 2026-04-26 04:47 | 20.91054 | -156.42038 | 499 ft | 169 kts | 35° |
| 2026-04-26 04:47 | 20.91985 | -156.41336 | 1263 ft | 170 kts | 31° |
| 2026-04-26 04:47 | 20.93023 | -156.40647 | 1816 ft | 179 kts | 32° |
| 2026-04-26 04:47 | 20.94077 | -156.39881 | 2156 ft | 189 kts | 39° |
| 2026-04-26 04:48 | 20.95530 | -156.37289 | 2115 ft | 235 kts | 85° |
| 2026-04-26 04:48 | 20.95290 | -156.35561 | 2558 ft | 239 kts | 110° |
| 2026-04-26 04:48 | 20.94502 | -156.34013 | 3121 ft | 234 kts | 120° |
| 2026-04-26 04:49 | 20.93593 | -156.32545 | 3528 ft | 242 kts | 120° |
| 2026-04-26 04:49 | 20.92656 | -156.31033 | 4024 ft | 246 kts | 122° |
| 2026-04-26 04:49 | 20.91712 | -156.29507 | 4475 ft | 253 kts | 122° |
| 2026-04-26 04:49 | 20.90733 | -156.27928 | 4975 ft | 255 kts | 122° |
| 2026-04-26 04:50 | 20.89760 | -156.26354 | 5580 ft | 254 kts | 122° |
| 2026-04-26 04:50 | 20.88789 | -156.24758 | 6017 ft | 260 kts | 121° |
| 2026-04-26 04:50 | 20.87965 | -156.23045 | 6334 ft | 263 kts | 104° |
| 2026-04-26 04:50 | 20.87726 | -156.21099 | 6728 ft | 264 kts | 91° |
| 2026-04-26 04:51 | 20.87686 | -156.19125 | 7198 ft | 267 kts | 91° |
| 2026-04-26 04:51 | 20.87618 | -156.17138 | 7683 ft | 269 kts | 94° |
| 2026-04-26 04:51 | 20.87494 | -156.15156 | 8120 ft | 272 kts | 94° |
| 2026-04-26 04:51 | 20.87380 | -156.13129 | 8562 ft | 274 kts | 93° |
| 2026-04-26 04:52 | 20.87349 | -156.11081 | 8909 ft | 279 kts | 83° |
| 2026-04-26 04:52 | 20.87958 | -156.09106 | 9223 ft | 284 kts | 57° |
| 2026-04-26 04:52 | 20.89341 | -156.07609 | 9669 ft | 285 kts | 33° |
| 2026-04-26 04:52 | 20.91030 | -156.06526 | 10091 ft | 285 kts | 34° |
| 2026-04-26 04:53 | 20.92648 | -156.05238 | 10275 ft | 297 kts | 41° |
| 2026-04-26 04:53 | 20.94223 | -156.03729 | 10405 ft | 311 kts | 43° |
| 2026-04-26 04:53 | 20.95288 | -156.02662 | 10477 ft | 321 kts | 44° |
| 2026-04-26 04:53 | 20.97605 | -156.00561 | 10650 ft | 341 kts | 35° |
| 2026-04-26 04:54 | 20.99657 | -155.99182 | 10756 ft | 355 kts | 29° |
| 2026-04-26 04:54 | 21.01890 | -155.97956 | 10940 ft | 370 kts | 26° |
| 2026-04-26 04:54 | 21.04237 | -155.96762 | 11340 ft | 376 kts | 26° |
| 2026-04-26 04:54 | 21.06628 | -155.95568 | 11776 ft | 382 kts | 26° |
| 2026-04-26 04:55 | 21.09047 | -155.94357 | 12297 ft | 385 kts | 26° |
| 2026-04-26 04:55 | 21.10654 | -155.93549 | 12703 ft | 385 kts | 26° |
| 2026-04-26 04:55 | 21.13877 | -155.91916 | 13333 ft | 391 kts | 26° |
| 2026-04-26 04:55 | 21.16343 | -155.90659 | 13795 ft | 394 kts | 26° |
| 2026-04-26 04:56 | 21.18815 | -155.89393 | 14312 ft | 394 kts | 26° |
| 2026-04-26 04:56 | 21.21296 | -155.88119 | 14727 ft | 396 kts | 26° |
| 2026-04-26 04:56 | 21.23784 | -155.86837 | 15166 ft | 398 kts | 26° |
| 2026-04-26 04:56 | 21.25434 | -155.85985 | 15480 ft | 398 kts | 26° |
| 2026-04-26 04:57 | 21.27942 | -155.84689 | 15891 ft | 401 kts | 27° |
| 2026-04-26 04:57 | 21.30453 | -155.83391 | 16362 ft | 401 kts | 27° |
| 2026-04-26 04:57 | 21.32969 | -155.82089 | 16849 ft | 401 kts | 27° |
| 2026-04-26 04:57 | 21.35487 | -155.80788 | 17328 ft | 402 kts | 27° |
| 2026-04-26 04:58 | 21.38838 | -155.79056 | 17791 ft | 406 kts | 27° |
| 2026-04-26 04:58 | 21.41395 | -155.77733 | 18149 ft | 409 kts | 26° |
| 2026-04-26 04:58 | 21.43094 | -155.76852 | 18422 ft | 410 kts | 27° |
| 2026-04-26 04:58 | 21.45676 | -155.75514 | 18671 ft | 414 kts | 27° |
| 2026-04-26 04:59 | 21.48283 | -155.74163 | 18916 ft | 418 kts | 26° |
| 2026-04-26 04:59 | 21.50906 | -155.72805 | 19284 ft | 419 kts | 26° |
| 2026-04-26 04:59 | 21.53534 | -155.71442 | 19622 ft | 420 kts | 26° |
| 2026-04-26 04:59 | 21.56175 | -155.70070 | 19899 ft | 423 kts | 26° |
| 2026-04-26 05:00 | 21.58820 | -155.68695 | 20242 ft | 424 kts | 26° |
| 2026-04-26 05:00 | 21.61475 | -155.67316 | 20598 ft | 424 kts | 26° |
| 2026-04-26 05:00 | 21.64150 | -155.65926 | 20847 ft | 427 kts | 26° |
| 2026-04-26 05:00 | 21.66801 | -155.64549 | 21134 ft | 430 kts | 26° |
| 2026-04-26 05:01 | 21.69491 | -155.63153 | 21458 ft | 431 kts | 26° |
| 2026-04-26 05:01 | 21.72197 | -155.61747 | 21770 ft | 433 kts | 26° |
| 2026-04-26 05:01 | 21.74917 | -155.60331 | 22036 ft | 435 kts | 26° |
| 2026-04-26 05:01 | 21.77651 | -155.58908 | 22294 ft | 438 kts | 26° |
| 2026-04-26 05:02 | 21.80392 | -155.57480 | 22613 ft | 439 kts | 26° |
| 2026-04-26 05:02 | 21.83142 | -155.56047 | 22904 ft | 440 kts | 26° |
| 2026-04-26 05:02 | 21.85908 | -155.54606 | 23194 ft | 442 kts | 26° |
| 2026-04-26 05:02 | 21.88682 | -155.53159 | 23479 ft | 443 kts | 26° |
| 2026-04-26 05:03 | 21.91425 | -155.51728 | 23743 ft | 445 kts | 26° |
| 2026-04-26 05:03 | 21.94213 | -155.50272 | 23979 ft | 447 kts | 26° |
| 2026-04-26 05:03 | 21.97014 | -155.48810 | 24226 ft | 448 kts | 26° |
| 2026-04-26 05:03 | 21.99822 | -155.47343 | 24462 ft | 450 kts | 26° |
| 2026-04-26 05:04 | 22.02626 | -155.45876 | 24685 ft | 451 kts | 26° |
| 2026-04-26 05:04 | 22.05452 | -155.44397 | 24947 ft | 452 kts | 26° |
| 2026-04-26 05:04 | 22.08285 | -155.42914 | 25185 ft | 453 kts | 26° |
| 2026-04-26 05:04 | 22.11129 | -155.41425 | 25390 ft | 456 kts | 26° |
| 2026-04-26 05:05 | 22.13945 | -155.39953 | 25680 ft | 455 kts | 26° |
| 2026-04-26 05:05 | 22.16796 | -155.38461 | 25928 ft | 456 kts | 26° |
| 2026-04-26 05:05 | 22.19660 | -155.36962 | 26116 ft | 459 kts | 26° |
| 2026-04-26 05:05 | 22.22534 | -155.35455 | 26337 ft | 460 kts | 26° |
| 2026-04-26 05:06 | 22.25418 | -155.33940 | 26572 ft | 462 kts | 26° |
| 2026-04-26 05:06 | 22.28311 | -155.32422 | 26814 ft | 462 kts | 26° |
| 2026-04-26 05:06 | 22.31206 | -155.30901 | 27047 ft | 464 kts | 26° |
| 2026-04-26 05:06 | 22.34112 | -155.29375 | 27263 ft | 465 kts | 26° |
| 2026-04-26 05:07 | 22.37026 | -155.27843 | 27446 ft | 467 kts | 26° |
| 2026-04-26 05:07 | 22.39918 | -155.26323 | 27676 ft | 468 kts | 26° |
| 2026-04-26 05:07 | 22.42844 | -155.24783 | 27916 ft | 469 kts | 26° |
| 2026-04-26 05:07 | 22.45787 | -155.23235 | 28110 ft | 471 kts | 26° |
| 2026-04-26 05:08 | 22.48738 | -155.21682 | 28299 ft | 472 kts | 26° |
| 2026-04-26 05:08 | 22.51693 | -155.20127 | 28489 ft | 473 kts | 26° |
| 2026-04-26 05:08 | 22.54660 | -155.18563 | 28675 ft | 475 kts | 26° |
| 2026-04-26 05:08 | 22.57631 | -155.16996 | 28868 ft | 476 kts | 26° |
| 2026-04-26 05:09 | 22.60609 | -155.15426 | 29043 ft | 477 kts | 26° |
| 2026-04-26 05:09 | 22.63591 | -155.13852 | 29223 ft | 478 kts | 26° |
| 2026-04-26 05:09 | 22.66541 | -155.12294 | 29387 ft | 479 kts | 25° |
| 2026-04-26 05:09 | 22.69541 | -155.10709 | 29508 ft | 481 kts | 25° |
| 2026-04-26 05:10 | 22.72549 | -155.09117 | 29673 ft | 482 kts | 25° |
| 2026-04-26 05:10 | 22.75556 | -155.07527 | 29880 ft | 481 kts | 25° |
| 2026-04-26 05:10 | 22.78565 | -155.05934 | 30026 ft | 482 kts | 25° |
| 2026-04-26 05:10 | 22.81584 | -155.04337 | 30078 ft | 482 kts | 25° |
| 2026-04-26 05:11 | 22.87597 | -155.01154 | 30086 ft | 480 kts | 25° |
| 2026-04-26 05:11 | 22.93480 | -154.98033 | 30093 ft | 483 kts | 25° |
| 2026-04-26 05:12 | 22.99538 | -154.94817 | 30106 ft | 486 kts | 25° |
| 2026-04-26 05:12 | 23.05634 | -154.91581 | 30109 ft | 490 kts | 26° |
| 2026-04-26 05:13 | 23.11774 | -154.88318 | 30104 ft | 493 kts | 25° |
| 2026-04-26 05:13 | 23.17900 | -154.85055 | 30102 ft | 494 kts | 26° |
| 2026-04-26 05:14 | 23.24082 | -154.81761 | 30104 ft | 495 kts | 25° |
| 2026-04-26 05:14 | 23.30275 | -154.78455 | 30105 ft | 497 kts | 26° |
| 2026-04-26 05:15 | 23.36488 | -154.75135 | 30107 ft | 498 kts | 26° |
| 2026-04-26 05:15 | 23.42670 | -154.71830 | 30106 ft | 499 kts | 26° |
| 2026-04-26 05:16 | 23.48900 | -154.68497 | 30112 ft | 499 kts | 26° |
| 2026-04-26 05:16 | 23.55137 | -154.65154 | 30110 ft | 500 kts | 26° |
| 2026-04-26 05:17 | 23.61381 | -154.61806 | 30109 ft | 500 kts | 25° |
| 2026-04-26 05:17 | 23.67620 | -154.58458 | 30112 ft | 500 kts | 26° |
| 2026-04-26 05:18 | 23.73814 | -154.55128 | 30113 ft | 499 kts | 25° |
| 2026-04-26 05:18 | 23.80046 | -154.51776 | 30116 ft | 499 kts | 26° |
| 2026-04-26 05:19 | 23.86263 | -154.48428 | 30116 ft | 498 kts | 26° |
| 2026-04-26 05:19 | 23.92468 | -154.45083 | 30117 ft | 497 kts | 25° |
| 2026-04-26 05:20 | 23.98665 | -154.41737 | 30121 ft | 497 kts | 26° |
| 2026-04-26 05:20 | 24.04812 | -154.38418 | 30121 ft | 496 kts | 25° |
| 2026-04-26 05:21 | 24.10995 | -154.35075 | 30127 ft | 496 kts | 25° |
| 2026-04-26 05:21 | 24.17183 | -154.31727 | 30127 ft | 496 kts | 26° |
| 2026-04-26 05:22 | 24.23376 | -154.28372 | 30130 ft | 497 kts | 25° |
| 2026-04-26 05:22 | 24.29543 | -154.25058 | 30135 ft | 496 kts | 23° |
| 2026-04-26 05:23 | 24.35974 | -154.22361 | 30133 ft | 495 kts | 19° |
| 2026-04-26 05:23 | 24.42454 | -154.19826 | 30135 ft | 494 kts | 19° |
| 2026-04-26 05:24 | 24.48911 | -154.17283 | 30134 ft | 493 kts | 19° |
| 2026-04-26 05:24 | 24.55322 | -154.14734 | 30140 ft | 493 kts | 19° |
| 2026-04-26 05:25 | 24.61772 | -154.12155 | 30139 ft | 494 kts | 19° |
| 2026-04-26 05:25 | 24.68226 | -154.09571 | 30145 ft | 494 kts | 19° |
| 2026-04-26 05:26 | 24.74689 | -154.06982 | 30144 ft | 494 kts | 19° |
| 2026-04-26 05:26 | 24.81107 | -154.04408 | 30154 ft | 495 kts | 19° |
| 2026-04-26 05:27 | 24.87577 | -154.01811 | 30151 ft | 495 kts | 19° |
| 2026-04-26 05:27 | 24.93965 | -153.99243 | 30154 ft | 495 kts | 19° |
| 2026-04-26 05:28 | 25.00436 | -153.96639 | 30149 ft | 495 kts | 19° |
| 2026-04-26 05:28 | 25.06905 | -153.94035 | 30158 ft | 495 kts | 19° |
| 2026-04-26 05:29 | 25.13331 | -153.91443 | 30158 ft | 495 kts | 19° |
| 2026-04-26 05:29 | 25.19791 | -153.88834 | 30160 ft | 494 kts | 19° |
| 2026-04-26 05:30 | 25.26256 | -153.86222 | 30169 ft | 494 kts | 19° |
| 2026-04-26 05:30 | 25.32714 | -153.83610 | 30166 ft | 494 kts | 19° |
| 2026-04-26 05:31 | 25.39174 | -153.80993 | 30166 ft | 495 kts | 19° |
| 2026-04-26 05:31 | 25.45597 | -153.78389 | 30162 ft | 495 kts | 19° |
| 2026-04-26 05:32 | 25.52068 | -153.75761 | 30175 ft | 495 kts | 18° |
| 2026-04-26 05:32 | 25.58536 | -153.73132 | 30180 ft | 495 kts | 19° |
| 2026-04-26 05:33 | 25.65013 | -153.70498 | 30170 ft | 496 kts | 19° |
| 2026-04-26 05:33 | 25.71440 | -153.67880 | 30171 ft | 496 kts | 19° |
| 2026-04-26 05:34 | 25.77910 | -153.65242 | 30176 ft | 495 kts | 19° |
| 2026-04-26 05:34 | 25.84373 | -153.62601 | 30175 ft | 495 kts | 19° |
| 2026-04-26 05:35 | 25.90835 | -153.59958 | 30184 ft | 494 kts | 19° |
| 2026-04-26 05:35 | 25.97286 | -153.57319 | 30180 ft | 494 kts | 19° |
| 2026-04-26 05:36 | 26.03687 | -153.54697 | 30180 ft | 495 kts | 19° |
| 2026-04-26 05:36 | 26.10151 | -153.52044 | 30187 ft | 495 kts | 19° |
| 2026-04-26 05:37 | 26.16613 | -153.49388 | 30184 ft | 496 kts | 19° |
| 2026-04-26 05:37 | 26.23083 | -153.46729 | 30194 ft | 495 kts | 19° |
| 2026-04-26 05:38 | 26.29498 | -153.44088 | 30191 ft | 495 kts | 19° |
| 2026-04-26 05:38 | 26.35956 | -153.41428 | 30195 ft | 494 kts | 19° |
| 2026-04-26 05:39 | 26.42405 | -153.38765 | 30198 ft | 494 kts | 19° |
| 2026-04-26 05:39 | 26.48849 | -153.36102 | 30203 ft | 493 kts | 19° |
| 2026-04-26 05:40 | 26.55282 | -153.33441 | 30202 ft | 493 kts | 19° |
| 2026-04-26 05:40 | 26.61666 | -153.30797 | 30207 ft | 492 kts | 20° |
| 2026-04-26 05:41 | 26.68080 | -153.28138 | 30210 ft | 491 kts | 20° |
| 2026-04-26 05:41 | 26.74491 | -153.25476 | 30208 ft | 492 kts | 20° |
| 2026-04-26 05:42 | 26.80908 | -153.22807 | 30211 ft | 492 kts | 19° |
| 2026-04-26 05:42 | 26.87278 | -153.20158 | 30209 ft | 492 kts | 19° |
| 2026-04-26 05:43 | 26.93682 | -153.17489 | 30215 ft | 491 kts | 19° |
| 2026-04-26 05:43 | 27.00071 | -153.14824 | 30220 ft | 491 kts | 20° |
| 2026-04-26 05:44 | 27.06478 | -153.12148 | 30227 ft | 491 kts | 19° |
| 2026-04-26 05:44 | 27.12839 | -153.09486 | 30220 ft | 492 kts | 19° |
| 2026-04-26 05:45 | 27.19257 | -153.06801 | 30223 ft | 493 kts | 19° |
| 2026-04-26 05:45 | 27.25691 | -153.04104 | 30223 ft | 494 kts | 19° |
| 2026-04-26 05:46 | 27.32148 | -153.01393 | 30224 ft | 496 kts | 19° |
| 2026-04-26 05:46 | 27.38533 | -152.98709 | 30231 ft | 497 kts | 19° |
| 2026-04-26 05:47 | 27.44976 | -152.95999 | 30230 ft | 498 kts | 19° |
| 2026-04-26 05:47 | 27.51480 | -152.93259 | 30235 ft | 499 kts | 19° |
| 2026-04-26 05:48 | 27.57985 | -152.90514 | 30237 ft | 500 kts | 18° |
| 2026-04-26 05:48 | 27.64496 | -152.87764 | 30233 ft | 500 kts | 19° |
| 2026-04-26 05:49 | 27.74262 | -152.83632 | 30236 ft | 500 kts | 19° |
| 2026-04-26 05:50 | 27.80730 | -152.80891 | 30244 ft | 499 kts | 18° |
| 2026-04-26 05:50 | 27.87235 | -152.78133 | 30241 ft | 499 kts | 18° |
| 2026-04-26 05:51 | 27.93735 | -152.75370 | 30243 ft | 499 kts | 18° |
| 2026-04-26 05:51 | 28.00228 | -152.72609 | 30244 ft | 499 kts | 18° |
| 2026-04-26 05:52 | 28.06685 | -152.69859 | 30252 ft | 499 kts | 18° |
| 2026-04-26 05:52 | 28.13186 | -152.67086 | 30248 ft | 499 kts | 18° |
| 2026-04-26 05:53 | 28.19679 | -152.64314 | 30250 ft | 499 kts | 18° |
| 2026-04-26 05:53 | 28.26169 | -152.61539 | 30249 ft | 499 kts | 18° |
| 2026-04-26 05:54 | 28.32614 | -152.58780 | 30254 ft | 498 kts | 18° |
| 2026-04-26 05:54 | 28.39102 | -152.55999 | 30249 ft | 498 kts | 18° |
| 2026-04-26 05:55 | 28.45592 | -152.53214 | 30251 ft | 498 kts | 18° |
| 2026-04-26 05:55 | 28.52079 | -152.50425 | 30256 ft | 499 kts | 18° |
| 2026-04-26 05:56 | 28.58530 | -152.47648 | 30266 ft | 499 kts | 18° |
| 2026-04-26 05:56 | 28.65031 | -152.44847 | 30263 ft | 499 kts | 18° |
| 2026-04-26 05:57 | 28.71524 | -152.42045 | 30265 ft | 499 kts | 18° |
| 2026-04-26 05:57 | 28.78014 | -152.39239 | 30263 ft | 499 kts | 18° |
| 2026-04-26 05:58 | 28.84491 | -152.36437 | 30264 ft | 497 kts | 18° |
| 2026-04-26 05:58 | 28.90905 | -152.33658 | 30259 ft | 495 kts | 18° |
| 2026-04-26 05:59 | 28.97340 | -152.30866 | 30267 ft | 494 kts | 18° |
| 2026-04-26 05:59 | 29.03743 | -152.28085 | 30285 ft | 492 kts | 19° |
| 2026-04-26 06:00 | 29.10084 | -152.25327 | 30259 ft | 490 kts | 19° |
| 2026-04-26 06:00 | 29.16440 | -152.22562 | 30282 ft | 488 kts | 19° |
| 2026-04-26 06:01 | 29.22773 | -152.19799 | 30279 ft | 487 kts | 19° |
| 2026-04-26 06:01 | 29.29098 | -152.17036 | 30278 ft | 486 kts | 19° |
| 2026-04-26 06:02 | 29.35417 | -152.14272 | 30278 ft | 486 kts | 19° |
| 2026-04-26 06:02 | 29.41694 | -152.11524 | 30281 ft | 486 kts | 19° |
| 2026-04-26 06:03 | 29.48016 | -152.08752 | 30284 ft | 487 kts | 19° |
| 2026-04-26 06:03 | 29.54351 | -152.05971 | 30285 ft | 487 kts | 19° |
| 2026-04-26 06:04 | 29.60683 | -152.03186 | 30282 ft | 488 kts | 19° |
| 2026-04-26 06:04 | 29.67020 | -152.00397 | 30283 ft | 488 kts | 19° |
| 2026-04-26 06:05 | 29.73236 | -151.97657 | 30294 ft | 488 kts | 19° |
| 2026-04-26 06:05 | 29.79565 | -151.94862 | 30287 ft | 487 kts | 19° |
| 2026-04-26 06:06 | 29.85889 | -151.92067 | 30299 ft | 486 kts | 19° |
| 2026-04-26 06:06 | 29.92205 | -151.89273 | 30291 ft | 486 kts | 19° |
| 2026-04-26 06:07 | 29.98471 | -151.86496 | 30305 ft | 485 kts | 19° |
| 2026-04-26 06:07 | 30.04762 | -151.83703 | 30294 ft | 485 kts | 19° |
| 2026-04-26 06:08 | 30.11051 | -151.80909 | 30295 ft | 484 kts | 19° |
| 2026-04-26 06:08 | 30.17332 | -151.78114 | 30297 ft | 484 kts | 19° |
| 2026-04-26 06:09 | 30.23562 | -151.75337 | 30286 ft | 482 kts | 20° |
| 2026-04-26 06:09 | 30.29820 | -151.72545 | 30296 ft | 481 kts | 20° |
| 2026-04-26 06:10 | 30.36057 | -151.69757 | 30302 ft | 480 kts | 20° |
| 2026-04-26 06:10 | 30.42242 | -151.66990 | 30312 ft | 479 kts | 20° |
| 2026-04-26 06:11 | 30.48452 | -151.64209 | 30295 ft | 478 kts | 20° |
| 2026-04-26 06:11 | 30.54645 | -151.61430 | 30299 ft | 477 kts | 20° |
| 2026-04-26 06:12 | 30.60826 | -151.58652 | 30308 ft | 476 kts | 20° |
| 2026-04-26 06:12 | 30.67004 | -151.55872 | 30311 ft | 476 kts | 20° |
| 2026-04-26 06:13 | 30.73133 | -151.53111 | 30312 ft | 476 kts | 20° |
| 2026-04-26 06:13 | 30.79301 | -151.50329 | 30312 ft | 476 kts | 20° |
| 2026-04-26 06:14 | 30.85473 | -151.47541 | 30310 ft | 476 kts | 20° |
| 2026-04-26 06:14 | 30.91652 | -151.44746 | 30296 ft | 476 kts | 20° |
| 2026-04-26 06:15 | 30.97777 | -151.41970 | 30310 ft | 476 kts | 20° |
| 2026-04-26 06:15 | 31.03944 | -151.39173 | 30313 ft | 476 kts | 20° |
| 2026-04-26 06:16 | 31.10117 | -151.36369 | 30310 ft | 476 kts | 20° |
| 2026-04-26 06:16 | 31.16281 | -151.33563 | 30321 ft | 476 kts | 20° |
| 2026-04-26 06:17 | 31.22407 | -151.30774 | 30310 ft | 476 kts | 20° |
| 2026-04-26 06:17 | 31.28573 | -151.27961 | 30319 ft | 476 kts | 20° |
| 2026-04-26 06:18 | 31.34738 | -151.25145 | 30326 ft | 476 kts | 20° |
| 2026-04-26 06:18 | 31.40902 | -151.22325 | 30325 ft | 476 kts | 20° |
| 2026-04-26 06:19 | 31.47066 | -151.19501 | 30328 ft | 475 kts | 20° |
| 2026-04-26 06:19 | 31.53180 | -151.16696 | 30319 ft | 475 kts | 20° |
| 2026-04-26 06:20 | 31.59326 | -151.13872 | 30323 ft | 475 kts | 20° |
| 2026-04-26 06:20 | 31.65475 | -151.11043 | 30324 ft | 474 kts | 20° |
| 2026-04-26 06:21 | 31.71575 | -151.08233 | 30320 ft | 474 kts | 20° |
| 2026-04-26 06:21 | 31.77710 | -151.05402 | 30328 ft | 474 kts | 20° |
| 2026-04-26 06:22 | 31.83840 | -151.02570 | 30333 ft | 473 kts | 20° |
| 2026-04-26 06:22 | 31.89889 | -150.99771 | 30329 ft | 473 kts | 20° |
| 2026-04-26 06:23 | 31.95973 | -150.96952 | 30327 ft | 473 kts | 20° |
| 2026-04-26 06:23 | 32.02083 | -150.94117 | 30335 ft | 472 kts | 20° |
| 2026-04-26 06:24 | 32.08194 | -150.91277 | 30334 ft | 472 kts | 20° |
| 2026-04-26 06:24 | 32.14299 | -150.88435 | 30335 ft | 472 kts | 20° |
| 2026-04-26 06:25 | 32.20406 | -150.85589 | 30344 ft | 472 kts | 20° |
| 2026-04-26 06:25 | 32.26472 | -150.82760 | 30337 ft | 472 kts | 20° |
| 2026-04-26 06:26 | 32.32577 | -150.79907 | 30339 ft | 472 kts | 20° |
| 2026-04-26 06:26 | 32.38685 | -150.77047 | 30339 ft | 472 kts | 20° |
| 2026-04-26 06:27 | 32.44803 | -150.74180 | 30344 ft | 473 kts | 20° |
| 2026-04-26 06:27 | 32.50877 | -150.71328 | 30336 ft | 473 kts | 20° |
| 2026-04-26 06:28 | 32.56991 | -150.68454 | 30340 ft | 473 kts | 20° |
| 2026-04-26 06:28 | 32.63104 | -150.65576 | 30339 ft | 473 kts | 20° |
| 2026-04-26 06:29 | 32.69222 | -150.62691 | 30337 ft | 473 kts | 20° |
| 2026-04-26 06:29 | 32.75292 | -150.59824 | 30338 ft | 473 kts | 20° |
| 2026-04-26 06:30 | 32.81401 | -150.56935 | 30343 ft | 473 kts | 20° |
| 2026-04-26 06:30 | 32.87510 | -150.54043 | 30341 ft | 473 kts | 20° |
| 2026-04-26 06:31 | 32.93617 | -150.51148 | 30342 ft | 473 kts | 20° |
| 2026-04-26 06:31 | 32.99690 | -150.48263 | 30343 ft | 473 kts | 20° |
| 2026-04-26 06:32 | 33.05789 | -150.45361 | 30361 ft | 473 kts | 20° |
| 2026-04-26 06:32 | 33.11893 | -150.42452 | 30347 ft | 472 kts | 20° |
| 2026-04-26 06:33 | 33.17991 | -150.39543 | 30341 ft | 472 kts | 20° |
| 2026-04-26 06:33 | 33.24088 | -150.36630 | 30353 ft | 471 kts | 19° |
| 2026-04-26 06:34 | 33.30136 | -150.33736 | 30347 ft | 471 kts | 19° |
| 2026-04-26 06:34 | 33.36220 | -150.30820 | 30347 ft | 471 kts | 19° |
| 2026-04-26 06:35 | 33.42303 | -150.27901 | 30346 ft | 471 kts | 19° |
| 2026-04-26 06:35 | 33.48382 | -150.24979 | 30347 ft | 471 kts | 19° |
| 2026-04-26 06:36 | 33.54420 | -150.22072 | 30342 ft | 471 kts | 19° |
| 2026-04-26 06:36 | 33.60496 | -150.19144 | 30346 ft | 471 kts | 19° |
| 2026-04-26 06:37 | 33.66572 | -150.16209 | 30348 ft | 471 kts | 19° |
| 2026-04-26 06:37 | 33.72654 | -150.13269 | 30346 ft | 471 kts | 19° |
| 2026-04-26 06:38 | 33.78685 | -150.10348 | 30339 ft | 470 kts | 19° |
| 2026-04-26 06:38 | 33.84753 | -150.07407 | 30354 ft | 470 kts | 19° |
| 2026-04-26 06:39 | 33.90818 | -150.04463 | 30349 ft | 470 kts | 19° |
| 2026-04-26 06:39 | 33.96884 | -150.01506 | 30350 ft | 470 kts | 20° |
| 2026-04-26 06:40 | 34.02612 | -149.97893 | 30350 ft | 475 kts | 30° |
| 2026-04-26 06:40 | 34.08010 | -149.93347 | 30348 ft | 476 kts | 31° |
| 2026-04-26 06:41 | 34.13420 | -149.88734 | 30351 ft | 476 kts | 31° |
| 2026-04-26 06:41 | 34.18842 | -149.84139 | 30355 ft | 476 kts | 31° |
| 2026-04-26 06:42 | 34.24270 | -149.79557 | 30353 ft | 476 kts | 31° |
| 2026-04-26 06:42 | 34.29663 | -149.75003 | 30352 ft | 476 kts | 31° |
| 2026-04-26 06:43 | 34.35091 | -149.70411 | 30351 ft | 476 kts | 31° |
| 2026-04-26 06:43 | 34.40512 | -149.65817 | 30363 ft | 476 kts | 31° |
| 2026-04-26 06:44 | 34.45928 | -149.61219 | 30351 ft | 476 kts | 31° |
| 2026-04-26 06:44 | 34.51307 | -149.56644 | 30359 ft | 475 kts | 31° |
| 2026-04-26 06:45 | 34.56718 | -149.52037 | 30354 ft | 475 kts | 31° |
| 2026-04-26 06:45 | 34.62126 | -149.47422 | 30357 ft | 475 kts | 31° |
| 2026-04-26 06:46 | 34.67488 | -149.42840 | 30356 ft | 474 kts | 31° |
| 2026-04-26 06:46 | 34.72881 | -149.38224 | 30356 ft | 474 kts | 31° |
| 2026-04-26 06:47 | 34.78264 | -149.33608 | 30356 ft | 474 kts | 31° |
| 2026-04-26 06:47 | 34.83652 | -149.28983 | 30364 ft | 474 kts | 31° |
| 2026-04-26 06:48 | 34.88995 | -149.24389 | 30357 ft | 473 kts | 31° |
| 2026-04-26 06:48 | 34.94373 | -149.19757 | 30367 ft | 473 kts | 31° |
| 2026-04-26 06:49 | 34.99743 | -149.15123 | 30359 ft | 473 kts | 31° |
| 2026-04-26 06:49 | 35.05110 | -149.10484 | 30359 ft | 473 kts | 31° |
| 2026-04-26 06:50 | 35.10472 | -149.05842 | 30357 ft | 473 kts | 31° |
| 2026-04-26 06:50 | 35.15797 | -149.01224 | 30369 ft | 473 kts | 31° |
| 2026-04-26 06:51 | 35.21087 | -148.96631 | 30360 ft | 472 kts | 31° |
| 2026-04-26 06:51 | 35.29119 | -148.89641 | 30359 ft | 472 kts | 31° |
| 2026-04-26 06:52 | 35.34465 | -148.84976 | 30358 ft | 472 kts | 31° |
| 2026-04-26 06:52 | 35.39773 | -148.80341 | 30359 ft | 472 kts | 31° |
| 2026-04-26 06:53 | 35.45111 | -148.75671 | 30357 ft | 471 kts | 31° |
| 2026-04-26 06:53 | 35.50442 | -148.70998 | 30365 ft | 471 kts | 31° |
| 2026-04-26 06:54 | 35.55775 | -148.66317 | 30357 ft | 471 kts | 31° |
| 2026-04-26 06:54 | 35.61061 | -148.61669 | 30356 ft | 470 kts | 31° |
| 2026-04-26 06:55 | 35.66379 | -148.56985 | 30359 ft | 470 kts | 30° |
| 2026-04-26 06:55 | 35.71699 | -148.52291 | 30348 ft | 470 kts | 31° |
| 2026-04-26 06:56 | 35.77012 | -148.47596 | 30381 ft | 470 kts | 31° |
| 2026-04-26 06:56 | 35.82284 | -148.42928 | 30362 ft | 470 kts | 30° |
| 2026-04-26 06:57 | 35.87588 | -148.38224 | 30356 ft | 470 kts | 30° |
| 2026-04-26 06:57 | 35.92890 | -148.33514 | 30359 ft | 469 kts | 30° |
| 2026-04-26 06:58 | 35.98182 | -148.28806 | 30365 ft | 469 kts | 30° |
| 2026-04-26 06:58 | 36.03464 | -148.24099 | 30360 ft | 469 kts | 30° |
| 2026-04-26 06:59 | 36.08714 | -148.19412 | 30385 ft | 468 kts | 30° |
| 2026-04-26 06:59 | 36.13996 | -148.14689 | 30360 ft | 469 kts | 30° |
| 2026-04-26 07:00 | 36.19274 | -148.09961 | 30361 ft | 468 kts | 30° |
| 2026-04-26 07:00 | 36.24553 | -148.05223 | 30363 ft | 468 kts | 30° |
| 2026-04-26 07:01 | 36.29791 | -148.00516 | 30362 ft | 468 kts | 30° |
| 2026-04-26 07:01 | 36.34993 | -147.95830 | 30360 ft | 468 kts | 30° |
| 2026-04-26 07:02 | 36.40262 | -147.91079 | 30375 ft | 468 kts | 30° |
| 2026-04-26 07:02 | 36.45533 | -147.86318 | 30358 ft | 469 kts | 30° |
| 2026-04-26 07:03 | 36.50805 | -147.81546 | 30362 ft | 469 kts | 30° |
| 2026-04-26 07:03 | 36.56032 | -147.76807 | 30358 ft | 469 kts | 30° |
| 2026-04-26 07:04 | 36.61300 | -147.72023 | 30359 ft | 469 kts | 30° |
| 2026-04-26 07:04 | 36.66564 | -147.67234 | 30364 ft | 469 kts | 30° |
| 2026-04-26 07:05 | 36.71833 | -147.62434 | 30367 ft | 469 kts | 30° |
| 2026-04-26 07:05 | 36.77063 | -147.57659 | 30348 ft | 469 kts | 30° |
| 2026-04-26 07:06 | 36.82327 | -147.52845 | 30358 ft | 469 kts | 30° |
| 2026-04-26 07:06 | 36.87586 | -147.48028 | 30365 ft | 469 kts | 30° |
| 2026-04-26 07:07 | 36.92841 | -147.43205 | 30360 ft | 469 kts | 30° |
| 2026-04-26 07:07 | 36.98095 | -147.38377 | 30365 ft | 469 kts | 30° |
| 2026-04-26 07:08 | 37.03307 | -147.33576 | 30362 ft | 469 kts | 30° |
| 2026-04-26 07:08 | 37.08557 | -147.28732 | 30358 ft | 469 kts | 30° |
| 2026-04-26 07:09 | 37.13805 | -147.23883 | 30361 ft | 469 kts | 30° |
| 2026-04-26 07:09 | 37.19055 | -147.19025 | 30357 ft | 469 kts | 30° |
| 2026-04-26 07:11 | 37.32122 | -147.06891 | 30362 ft | 469 kts | 31° |
| 2026-04-26 07:11 | 37.37362 | -147.02011 | 30357 ft | 469 kts | 31° |
| 2026-04-26 07:12 | 37.42530 | -146.97188 | 30356 ft | 469 kts | 31° |
| 2026-04-26 07:12 | 37.47727 | -146.92330 | 30362 ft | 469 kts | 31° |
| 2026-04-26 07:13 | 37.52955 | -146.87433 | 30354 ft | 468 kts | 31° |
| 2026-04-26 07:13 | 37.58185 | -146.82528 | 30369 ft | 468 kts | 31° |
| 2026-04-26 07:14 | 37.63410 | -146.77618 | 30362 ft | 469 kts | 31° |
| 2026-04-26 07:14 | 37.68602 | -146.72729 | 30360 ft | 469 kts | 31° |
| 2026-04-26 07:15 | 37.73827 | -146.67802 | 30364 ft | 469 kts | 31° |
| 2026-04-26 07:15 | 37.79053 | -146.62864 | 30362 ft | 469 kts | 31° |
| 2026-04-26 07:16 | 37.84283 | -146.57913 | 30356 ft | 469 kts | 31° |
| 2026-04-26 07:16 | 37.89474 | -146.52990 | 30366 ft | 469 kts | 31° |
| 2026-04-26 07:17 | 37.94693 | -146.48031 | 30362 ft | 469 kts | 31° |
| 2026-04-26 07:17 | 37.99907 | -146.43069 | 30357 ft | 469 kts | 31° |
| 2026-04-26 07:18 | 38.05107 | -146.38111 | 30364 ft | 468 kts | 31° |
| 2026-04-26 07:18 | 38.10306 | -146.33145 | 30359 ft | 468 kts | 31° |
| 2026-04-26 07:19 | 38.15466 | -146.28207 | 30358 ft | 467 kts | 30° |
| 2026-04-26 07:19 | 38.20648 | -146.23240 | 30367 ft | 466 kts | 30° |
| 2026-04-26 07:20 | 38.25812 | -146.18279 | 30361 ft | 465 kts | 30° |
| 2026-04-26 07:20 | 38.30966 | -146.13318 | 30356 ft | 464 kts | 30° |
| 2026-04-26 07:21 | 38.36069 | -146.08400 | 30379 ft | 463 kts | 30° |
| 2026-04-26 07:21 | 38.41197 | -146.03449 | 30362 ft | 462 kts | 30° |
| 2026-04-26 07:22 | 38.46236 | -145.98576 | 30361 ft | 462 kts | 30° |
| 2026-04-26 07:22 | 38.51354 | -145.93614 | 30363 ft | 462 kts | 30° |
| 2026-04-26 07:23 | 38.56442 | -145.88675 | 30362 ft | 462 kts | 30° |
| 2026-04-26 07:23 | 38.61561 | -145.83697 | 30362 ft | 462 kts | 30° |
| 2026-04-26 07:24 | 38.66677 | -145.78710 | 30367 ft | 463 kts | 30° |
| 2026-04-26 07:24 | 38.71801 | -145.73708 | 30370 ft | 463 kts | 31° |
| 2026-04-26 07:25 | 38.76880 | -145.68739 | 30368 ft | 462 kts | 31° |
| 2026-04-26 07:25 | 38.81986 | -145.63733 | 30362 ft | 462 kts | 31° |
| 2026-04-26 07:26 | 38.87074 | -145.58736 | 30364 ft | 461 kts | 31° |
| 2026-04-26 07:26 | 38.92177 | -145.53717 | 30360 ft | 461 kts | 31° |
| 2026-04-26 07:27 | 38.97204 | -145.48761 | 30353 ft | 453 kts | 31° |
| 2026-04-26 07:27 | 39.02166 | -145.43858 | 30361 ft | 450 kts | 31° |
| 2026-04-26 07:28 | 39.07131 | -145.38952 | 30362 ft | 450 kts | 31° |
| 2026-04-26 07:28 | 39.12088 | -145.34044 | 30361 ft | 450 kts | 31° |
| 2026-04-26 07:29 | 39.17010 | -145.29160 | 30362 ft | 450 kts | 31° |
| 2026-04-26 07:29 | 39.21964 | -145.24231 | 30384 ft | 450 kts | 30° |
| 2026-04-26 07:30 | 39.26914 | -145.19300 | 30364 ft | 449 kts | 31° |
| 2026-04-26 07:30 | 39.31862 | -145.14363 | 30363 ft | 449 kts | 30° |
| 2026-04-26 07:31 | 39.36794 | -145.09432 | 30383 ft | 448 kts | 30° |
| 2026-04-26 07:31 | 39.41690 | -145.04528 | 30367 ft | 448 kts | 31° |
| 2026-04-26 07:32 | 39.46552 | -144.99648 | 30366 ft | 448 kts | 30° |
| 2026-04-26 07:32 | 39.51477 | -144.94696 | 30363 ft | 448 kts | 31° |
| 2026-04-26 07:33 | 39.56358 | -144.89781 | 30358 ft | 448 kts | 31° |
| 2026-04-26 07:33 | 39.61277 | -144.84816 | 30362 ft | 448 kts | 31° |
| 2026-04-26 07:34 | 39.66191 | -144.79849 | 30369 ft | 449 kts | 31° |
| 2026-04-26 07:34 | 39.71113 | -144.74866 | 30363 ft | 449 kts | 31° |
| 2026-04-26 07:35 | 39.76005 | -144.69901 | 30362 ft | 449 kts | 31° |
| 2026-04-26 07:35 | 39.80934 | -144.64890 | 30366 ft | 451 kts | 31° |
| 2026-04-26 07:36 | 39.85880 | -144.59854 | 30368 ft | 452 kts | 31° |
| 2026-04-26 07:36 | 39.90826 | -144.54807 | 30365 ft | 452 kts | 31° |
| 2026-04-26 07:37 | 39.95780 | -144.49744 | 30351 ft | 453 kts | 31° |
| 2026-04-26 07:37 | 40.00684 | -144.44718 | 30365 ft | 452 kts | 31° |
| 2026-04-26 07:38 | 40.05626 | -144.39643 | 30362 ft | 451 kts | 31° |
| 2026-04-26 07:38 | 40.10559 | -144.34571 | 30365 ft | 452 kts | 31° |
| 2026-04-26 07:39 | 40.15490 | -144.29491 | 30359 ft | 451 kts | 31° |
| 2026-04-26 07:39 | 40.20418 | -144.24406 | 30372 ft | 451 kts | 31° |
| 2026-04-26 07:40 | 40.25311 | -144.19348 | 30373 ft | 451 kts | 31° |
| 2026-04-26 07:40 | 40.30232 | -144.14248 | 30363 ft | 451 kts | 31° |
| 2026-04-26 07:41 | 40.35149 | -144.09143 | 30398 ft | 451 kts | 31° |
| 2026-04-26 07:41 | 40.40038 | -144.04061 | 30373 ft | 451 kts | 31° |
| 2026-04-26 07:42 | 40.44890 | -143.99004 | 30367 ft | 451 kts | 31° |
| 2026-04-26 07:42 | 40.49802 | -143.93877 | 30400 ft | 451 kts | 31° |
| 2026-04-26 07:43 | 40.54713 | -143.88740 | 30369 ft | 451 kts | 31° |
| 2026-04-26 07:43 | 40.59627 | -143.83589 | 30365 ft | 451 kts | 31° |
| 2026-04-26 07:44 | 40.64501 | -143.78471 | 30405 ft | 451 kts | 31° |
| 2026-04-26 07:44 | 40.69411 | -143.73307 | 30374 ft | 452 kts | 31° |
| 2026-04-26 07:45 | 40.74321 | -143.68131 | 30363 ft | 452 kts | 31° |
| 2026-04-26 07:45 | 40.78403 | -143.63822 | 30367 ft | 452 kts | 31° |
| 2026-04-26 07:46 | 40.84110 | -143.57782 | 30371 ft | 453 kts | 32° |
| 2026-04-26 07:46 | 40.89015 | -143.52580 | 30356 ft | 452 kts | 31° |
| 2026-04-26 07:47 | 40.93078 | -143.48264 | 30366 ft | 451 kts | 31° |
| 2026-04-26 07:47 | 40.97958 | -143.43070 | 30371 ft | 449 kts | 31° |
| 2026-04-26 07:48 | 41.02814 | -143.37894 | 30366 ft | 449 kts | 31° |
| 2026-04-26 07:48 | 41.07668 | -143.32709 | 30365 ft | 448 kts | 31° |
| 2026-04-26 07:49 | 41.12491 | -143.27549 | 30374 ft | 449 kts | 32° |
| 2026-04-26 07:49 | 41.17348 | -143.22340 | 30368 ft | 449 kts | 31° |
| 2026-04-26 07:50 | 41.24642 | -143.14499 | 30383 ft | 450 kts | 32° |
| 2026-04-26 07:50 | 41.29516 | -143.09247 | 30375 ft | 451 kts | 32° |
| 2026-04-26 07:51 | 41.34360 | -143.04017 | 30369 ft | 452 kts | 32° |
| 2026-04-26 07:51 | 41.39188 | -142.98793 | 30396 ft | 454 kts | 32° |
| 2026-04-26 07:52 | 41.44094 | -142.93475 | 30376 ft | 455 kts | 32° |
| 2026-04-26 07:52 | 41.49009 | -142.88134 | 30369 ft | 456 kts | 32° |
| 2026-04-26 07:53 | 41.53899 | -142.82811 | 30397 ft | 457 kts | 33° |
| 2026-04-26 07:53 | 41.58843 | -142.77421 | 30373 ft | 459 kts | 32° |
| 2026-04-26 07:54 | 41.63793 | -142.72009 | 30372 ft | 460 kts | 33° |
| 2026-04-26 07:54 | 41.68756 | -142.66573 | 30394 ft | 462 kts | 33° |
| 2026-04-26 07:55 | 41.73695 | -142.61154 | 30380 ft | 463 kts | 33° |
| 2026-04-26 07:55 | 41.78688 | -142.55662 | 30373 ft | 465 kts | 33° |
| 2026-04-26 07:56 | 41.83682 | -142.50156 | 30372 ft | 465 kts | 33° |
| 2026-04-26 07:56 | 41.88677 | -142.44645 | 30370 ft | 465 kts | 33° |
| 2026-04-26 07:57 | 41.93626 | -142.39160 | 30370 ft | 464 kts | 33° |
| 2026-04-26 07:57 | 41.98600 | -142.33643 | 30392 ft | 464 kts | 34° |
| 2026-04-26 07:58 | 42.03575 | -142.28119 | 30375 ft | 465 kts | 34° |
| 2026-04-26 07:58 | 42.08566 | -142.22562 | 30373 ft | 466 kts | 34° |
| 2026-04-26 07:59 | 42.13535 | -142.17017 | 30397 ft | 468 kts | 35° |
| 2026-04-26 07:59 | 42.18566 | -142.11393 | 30375 ft | 471 kts | 35° |
| 2026-04-26 08:00 | 42.23620 | -142.05727 | 30372 ft | 474 kts | 35° |
| 2026-04-26 08:00 | 42.28693 | -142.00029 | 30392 ft | 476 kts | 36° |
| 2026-04-26 08:01 | 42.33696 | -141.94401 | 30378 ft | 479 kts | 36° |
| 2026-04-26 08:01 | 42.38829 | -141.88611 | 30375 ft | 481 kts | 36° |
| 2026-04-26 08:02 | 42.43973 | -141.82794 | 30370 ft | 483 kts | 36° |
| 2026-04-26 08:02 | 42.49124 | -141.76957 | 30373 ft | 483 kts | 36° |
| 2026-04-26 08:03 | 42.54274 | -141.71106 | 30370 ft | 483 kts | 36° |
| 2026-04-26 08:03 | 42.59380 | -141.65295 | 30385 ft | 482 kts | 37° |
| 2026-04-26 08:04 | 42.64524 | -141.59428 | 30371 ft | 484 kts | 37° |
| 2026-04-26 08:04 | 42.69677 | -141.53538 | 30375 ft | 485 kts | 37° |
| 2026-04-26 08:05 | 42.74847 | -141.47616 | 30383 ft | 486 kts | 38° |
| 2026-04-26 08:05 | 42.80036 | -141.41659 | 30374 ft | 490 kts | 38° |
| 2026-04-26 08:06 | 42.85217 | -141.35694 | 30374 ft | 492 kts | 38° |
| 2026-04-26 08:06 | 42.90451 | -141.29656 | 30376 ft | 494 kts | 39° |
| 2026-04-26 08:07 | 42.95709 | -141.23578 | 30369 ft | 497 kts | 39° |
| 2026-04-26 08:07 | 43.00982 | -141.17463 | 30370 ft | 499 kts | 39° |
| 2026-04-26 08:08 | 43.06242 | -141.11353 | 30364 ft | 500 kts | 40° |
| 2026-04-26 08:08 | 43.11553 | -141.05171 | 30376 ft | 502 kts | 40° |
| 2026-04-26 08:09 | 43.16807 | -140.99038 | 30374 ft | 503 kts | 40° |
| 2026-04-26 08:09 | 43.22142 | -140.92797 | 30364 ft | 505 kts | 41° |
| 2026-04-26 08:10 | 43.27452 | -140.86569 | 30375 ft | 507 kts | 41° |
| 2026-04-26 08:10 | 43.32816 | -140.80269 | 30374 ft | 508 kts | 41° |
| 2026-04-26 08:11 | 43.38183 | -140.73942 | 30368 ft | 509 kts | 42° |
| 2026-04-26 08:11 | 43.43554 | -140.67595 | 30372 ft | 509 kts | 42° |
| 2026-04-26 08:12 | 43.48925 | -140.61235 | 30368 ft | 510 kts | 42° |
| 2026-04-26 08:12 | 43.54265 | -140.54903 | 30360 ft | 510 kts | 43° |
| 2026-04-26 08:13 | 43.59643 | -140.48505 | 30367 ft | 511 kts | 43° |
| 2026-04-26 08:13 | 43.65017 | -140.42092 | 30369 ft | 511 kts | 43° |
| 2026-04-26 08:14 | 43.70396 | -140.35663 | 30363 ft | 512 kts | 43° |
| 2026-04-26 08:14 | 43.75740 | -140.29258 | 30368 ft | 512 kts | 43° |
| 2026-04-26 08:15 | 43.81126 | -140.22785 | 30374 ft | 513 kts | 43° |
| 2026-04-26 08:15 | 43.86512 | -140.16300 | 30361 ft | 513 kts | 43° |
| 2026-04-26 08:16 | 43.91904 | -140.09797 | 30370 ft | 513 kts | 43° |
| 2026-04-26 08:16 | 43.97251 | -140.03327 | 30366 ft | 513 kts | 43° |
| 2026-04-26 08:17 | 44.02909 | -139.97503 | 30363 ft | 516 kts | 32° |
| 2026-04-26 08:17 | 44.09160 | -139.92587 | 30368 ft | 517 kts | 31° |
| 2026-04-26 08:18 | 44.15441 | -139.87707 | 30371 ft | 517 kts | 31° |
| 2026-04-26 08:18 | 44.21700 | -139.82780 | 30361 ft | 517 kts | 32° |
| 2026-04-26 08:19 | 44.27901 | -139.77845 | 30366 ft | 517 kts | 32° |
| 2026-04-26 08:19 | 44.34139 | -139.72857 | 30363 ft | 517 kts | 32° |
| 2026-04-26 08:20 | 44.40375 | -139.67859 | 30358 ft | 517 kts | 32° |
| 2026-04-26 08:20 | 44.46614 | -139.62852 | 30368 ft | 517 kts | 32° |
| 2026-04-26 08:21 | 44.52848 | -139.57836 | 30368 ft | 517 kts | 32° |
| 2026-04-26 08:21 | 44.59042 | -139.52841 | 30365 ft | 517 kts | 32° |
| 2026-04-26 08:22 | 44.65274 | -139.47803 | 30370 ft | 517 kts | 32° |
| 2026-04-26 08:22 | 44.71503 | -139.42754 | 30363 ft | 517 kts | 32° |
| 2026-04-26 08:23 | 44.77730 | -139.37693 | 30356 ft | 517 kts | 32° |
| 2026-04-26 08:23 | 44.83956 | -139.32620 | 30364 ft | 517 kts | 32° |
| 2026-04-26 08:24 | 44.90133 | -139.27575 | 30366 ft | 516 kts | 32° |
| 2026-04-26 08:24 | 44.96345 | -139.22489 | 30362 ft | 516 kts | 32° |
| 2026-04-26 08:25 | 45.02544 | -139.17399 | 30357 ft | 516 kts | 32° |
| 2026-04-26 08:25 | 45.08753 | -139.12288 | 30354 ft | 517 kts | 32° |
| 2026-04-26 08:26 | 45.14923 | -139.07199 | 30359 ft | 517 kts | 32° |
| 2026-04-26 08:26 | 45.21139 | -139.02056 | 30346 ft | 517 kts | 32° |
| 2026-04-26 08:27 | 45.27272 | -138.96970 | 30357 ft | 517 kts | 32° |
| 2026-04-26 08:27 | 45.33444 | -138.91838 | 30351 ft | 518 kts | 32° |
| 2026-04-26 08:28 | 45.39658 | -138.86659 | 30353 ft | 518 kts | 32° |
| 2026-04-26 08:28 | 45.45872 | -138.81468 | 30348 ft | 518 kts | 32° |
| 2026-04-26 08:29 | 45.52090 | -138.76256 | 30349 ft | 518 kts | 32° |
| 2026-04-26 08:29 | 45.58304 | -138.71038 | 30367 ft | 518 kts | 32° |
| 2026-04-26 08:30 | 45.64471 | -138.65844 | 30357 ft | 519 kts | 32° |
| 2026-04-26 08:30 | 45.70693 | -138.60589 | 30349 ft | 519 kts | 32° |
| 2026-04-26 08:31 | 45.76906 | -138.55328 | 30353 ft | 519 kts | 32° |
| 2026-04-26 08:31 | 45.83120 | -138.50055 | 30350 ft | 519 kts | 32° |
| 2026-04-26 08:32 | 45.89292 | -138.44803 | 30347 ft | 519 kts | 32° |
| 2026-04-26 08:32 | 45.95506 | -138.39500 | 30346 ft | 519 kts | 32° |
| 2026-04-26 08:33 | 46.01701 | -138.34200 | 30346 ft | 519 kts | 32° |
| 2026-04-26 08:33 | 46.07864 | -138.28914 | 30335 ft | 519 kts | 32° |
| 2026-04-26 08:34 | 46.14062 | -138.23584 | 30337 ft | 519 kts | 32° |
| 2026-04-26 08:34 | 46.20260 | -138.18237 | 30343 ft | 519 kts | 32° |
| 2026-04-26 08:35 | 46.26467 | -138.12871 | 30334 ft | 520 kts | 32° |
| 2026-04-26 08:35 | 46.32632 | -138.07528 | 30339 ft | 520 kts | 32° |
| 2026-04-26 08:36 | 46.38834 | -138.02136 | 30333 ft | 520 kts | 33° |
| 2026-04-26 08:36 | 46.44955 | -137.96803 | 30323 ft | 520 kts | 32° |
| 2026-04-26 08:37 | 46.51152 | -137.91387 | 30328 ft | 520 kts | 33° |
| 2026-04-26 08:37 | 46.57353 | -137.85953 | 30329 ft | 520 kts | 33° |
| 2026-04-26 08:38 | 46.63504 | -137.80547 | 30322 ft | 520 kts | 33° |
| 2026-04-26 08:38 | 46.69691 | -137.75096 | 30323 ft | 520 kts | 33° |
| 2026-04-26 08:39 | 46.75876 | -137.69634 | 30325 ft | 520 kts | 33° |
| 2026-04-26 08:39 | 46.82064 | -137.64154 | 30323 ft | 521 kts | 33° |
| 2026-04-26 08:40 | 46.88212 | -137.58693 | 30324 ft | 520 kts | 33° |
| 2026-04-26 08:40 | 46.94398 | -137.53184 | 30322 ft | 521 kts | 33° |
| 2026-04-26 08:41 | 47.00570 | -137.47672 | 30320 ft | 521 kts | 33° |
| 2026-04-26 08:41 | 47.06754 | -137.42133 | 30313 ft | 520 kts | 33° |
| 2026-04-26 08:42 | 47.12887 | -137.36625 | 30320 ft | 520 kts | 33° |
| 2026-04-26 08:42 | 47.19055 | -137.31072 | 30312 ft | 520 kts | 33° |
| 2026-04-26 08:43 | 47.25216 | -137.25509 | 30299 ft | 520 kts | 33° |
| 2026-04-26 08:43 | 47.31370 | -137.19937 | 30307 ft | 519 kts | 33° |
| 2026-04-26 08:44 | 47.37522 | -137.14352 | 30309 ft | 520 kts | 33° |
| 2026-04-26 08:44 | 47.43637 | -137.08785 | 30302 ft | 520 kts | 33° |
| 2026-04-26 08:45 | 47.49792 | -137.03166 | 30302 ft | 520 kts | 33° |
| 2026-04-26 08:45 | 47.55861 | -136.97611 | 30298 ft | 520 kts | 33° |
| 2026-04-26 08:46 | 47.62009 | -136.91967 | 30297 ft | 520 kts | 33° |
| 2026-04-26 08:46 | 47.68112 | -136.86346 | 30300 ft | 520 kts | 33° |
| 2026-04-26 08:47 | 47.74250 | -136.80678 | 30300 ft | 520 kts | 33° |
| 2026-04-26 08:47 | 47.80389 | -136.74993 | 30301 ft | 519 kts | 33° |
| 2026-04-26 08:48 | 47.86518 | -136.69304 | 30301 ft | 519 kts | 33° |
| 2026-04-26 08:48 | 47.92647 | -136.63600 | 30304 ft | 519 kts | 33° |
| 2026-04-26 08:49 | 47.98737 | -136.57915 | 30294 ft | 520 kts | 33° |
| 2026-04-26 08:49 | 48.04857 | -136.52184 | 30299 ft | 520 kts | 33° |
| 2026-04-26 08:50 | 48.10988 | -136.46425 | 30294 ft | 521 kts | 33° |
| 2026-04-26 08:50 | 48.17119 | -136.40652 | 30289 ft | 521 kts | 33° |
| 2026-04-26 08:51 | 48.26272 | -136.32003 | 30286 ft | 521 kts | 34° |
| 2026-04-26 08:52 | 48.32398 | -136.26193 | 30284 ft | 520 kts | 33° |
| 2026-04-26 08:52 | 48.38519 | -136.20372 | 30286 ft | 520 kts | 34° |
| 2026-04-26 08:53 | 48.44587 | -136.14583 | 30283 ft | 520 kts | 34° |
| 2026-04-26 08:53 | 48.50696 | -136.08739 | 30278 ft | 520 kts | 34° |
| 2026-04-26 08:54 | 48.56811 | -136.02871 | 30285 ft | 521 kts | 34° |
| 2026-04-26 08:54 | 48.62847 | -135.97062 | 30269 ft | 521 kts | 34° |
| 2026-04-26 08:55 | 48.68922 | -135.91200 | 30275 ft | 521 kts | 34° |
| 2026-04-26 08:55 | 48.75036 | -135.85284 | 30268 ft | 522 kts | 34° |
| 2026-04-26 08:56 | 48.81155 | -135.79345 | 30274 ft | 522 kts | 34° |
| 2026-04-26 08:56 | 48.87267 | -135.73395 | 30260 ft | 522 kts | 34° |
| 2026-04-26 08:57 | 48.93332 | -135.67473 | 30265 ft | 522 kts | 34° |
| 2026-04-26 08:57 | 48.99444 | -135.61486 | 30265 ft | 522 kts | 34° |
| 2026-04-26 08:58 | 49.05535 | -135.55506 | 30264 ft | 522 kts | 34° |
| 2026-04-26 08:58 | 49.11642 | -135.49492 | 30254 ft | 522 kts | 34° |
| 2026-04-26 08:59 | 49.17705 | -135.43502 | 30252 ft | 523 kts | 34° |
| 2026-04-26 08:59 | 49.23807 | -135.37453 | 30251 ft | 523 kts | 34° |
| 2026-04-26 09:00 | 49.29915 | -135.31384 | 30242 ft | 523 kts | 34° |
| 2026-04-26 09:00 | 49.36012 | -135.25303 | 30258 ft | 523 kts | 34° |
| 2026-04-26 09:01 | 49.42111 | -135.19202 | 30239 ft | 524 kts | 34° |
| 2026-04-26 09:01 | 49.48176 | -135.13125 | 30232 ft | 524 kts | 35° |
| 2026-04-26 09:02 | 49.54278 | -135.06988 | 30239 ft | 524 kts | 35° |
| 2026-04-26 09:02 | 49.60382 | -135.00826 | 30227 ft | 524 kts | 35° |
| 2026-04-26 09:03 | 49.66403 | -134.94734 | 30230 ft | 525 kts | 35° |
| 2026-04-26 09:03 | 49.72457 | -134.88587 | 30219 ft | 524 kts | 34° |
| 2026-04-26 09:04 | 49.78540 | -134.82397 | 30235 ft | 524 kts | 35° |
| 2026-04-26 09:04 | 49.84627 | -134.76179 | 30226 ft | 524 kts | 35° |
| 2026-04-26 09:05 | 49.90707 | -134.69949 | 30226 ft | 524 kts | 35° |
| 2026-04-26 09:05 | 49.96749 | -134.63742 | 30212 ft | 524 kts | 35° |
| 2026-04-26 09:06 | 50.02816 | -134.57488 | 30215 ft | 525 kts | 35° |
| 2026-04-26 09:06 | 50.08895 | -134.51203 | 30205 ft | 525 kts | 35° |
| 2026-04-26 09:07 | 50.14971 | -134.44899 | 30220 ft | 524 kts | 36° |
| 2026-04-26 09:07 | 50.20997 | -134.38632 | 30203 ft | 524 kts | 36° |
| 2026-04-26 09:08 | 50.27056 | -134.32313 | 30201 ft | 523 kts | 36° |
| 2026-04-26 09:08 | 50.33100 | -134.25982 | 30200 ft | 523 kts | 36° |
| 2026-04-26 09:09 | 50.39135 | -134.19649 | 30208 ft | 522 kts | 36° |
| 2026-04-26 09:09 | 50.45133 | -134.13334 | 30189 ft | 523 kts | 36° |
| 2026-04-26 09:10 | 50.51176 | -134.06943 | 30188 ft | 524 kts | 36° |
| 2026-04-26 09:10 | 50.57221 | -134.00534 | 30203 ft | 524 kts | 36° |
| 2026-04-26 09:11 | 50.63186 | -133.94195 | 30172 ft | 524 kts | 36° |
| 2026-04-26 09:11 | 50.69181 | -133.87802 | 30176 ft | 523 kts | 36° |
| 2026-04-26 09:12 | 50.75206 | -133.81354 | 30182 ft | 523 kts | 36° |
| 2026-04-26 09:12 | 50.81221 | -133.74891 | 30178 ft | 522 kts | 36° |
| 2026-04-26 09:13 | 50.87226 | -133.68434 | 30155 ft | 522 kts | 36° |
| 2026-04-26 09:13 | 50.93218 | -133.61963 | 30155 ft | 521 kts | 37° |
| 2026-04-26 09:14 | 50.99164 | -133.55520 | 30158 ft | 521 kts | 37° |
| 2026-04-26 09:14 | 51.05131 | -133.49035 | 30157 ft | 521 kts | 36° |
| 2026-04-26 09:15 | 51.11115 | -133.42504 | 30156 ft | 522 kts | 36° |
| 2026-04-26 09:15 | 51.17105 | -133.35942 | 30159 ft | 523 kts | 36° |
| 2026-04-26 09:16 | 51.23074 | -133.29399 | 30151 ft | 525 kts | 36° |
| 2026-04-26 09:16 | 51.29083 | -133.22785 | 30146 ft | 525 kts | 36° |
| 2026-04-26 09:17 | 51.35084 | -133.16152 | 30145 ft | 524 kts | 37° |
| 2026-04-26 09:17 | 51.41073 | -133.09511 | 30129 ft | 521 kts | 37° |
| 2026-04-26 09:18 | 51.46956 | -133.02978 | 30132 ft | 516 kts | 36° |
| 2026-04-26 09:18 | 51.52779 | -132.96488 | 30130 ft | 517 kts | 36° |
| 2026-04-26 09:19 | 51.58691 | -132.89876 | 30121 ft | 518 kts | 36° |
| 2026-04-26 09:19 | 51.64608 | -132.83226 | 30123 ft | 518 kts | 36° |
| 2026-04-26 09:20 | 51.70512 | -132.76578 | 30116 ft | 517 kts | 37° |
| 2026-04-26 09:20 | 51.76375 | -132.69953 | 30113 ft | 519 kts | 36° |
| 2026-04-26 09:21 | 51.82293 | -132.63250 | 30104 ft | 520 kts | 37° |
| 2026-04-26 09:21 | 51.88209 | -132.56516 | 30109 ft | 520 kts | 36° |
| 2026-04-26 09:22 | 51.94125 | -132.49770 | 30111 ft | 520 kts | 36° |
| 2026-04-26 09:22 | 51.99995 | -132.43050 | 30090 ft | 520 kts | 36° |
| 2026-04-26 09:23 | 52.05894 | -132.36271 | 30089 ft | 521 kts | 37° |
| 2026-04-26 09:23 | 52.11808 | -132.29458 | 30087 ft | 521 kts | 36° |
| 2026-04-26 09:24 | 52.17723 | -132.22620 | 30091 ft | 521 kts | 36° |
| 2026-04-26 09:24 | 52.23588 | -132.15817 | 30068 ft | 520 kts | 36° |
| 2026-04-26 09:25 | 52.29473 | -132.08969 | 30063 ft | 519 kts | 36° |
| 2026-04-26 09:25 | 52.35337 | -132.02124 | 30063 ft | 517 kts | 37° |
| 2026-04-26 09:26 | 52.41113 | -131.95359 | 30065 ft | 518 kts | 37° |
| 2026-04-26 09:26 | 52.46979 | -131.88468 | 30071 ft | 518 kts | 36° |
| 2026-04-26 09:27 | 52.52760 | -131.81643 | 30065 ft | 513 kts | 36° |
| 2026-04-26 09:27 | 52.58539 | -131.74804 | 30062 ft | 511 kts | 36° |
| 2026-04-26 09:28 | 52.64293 | -131.67973 | 30074 ft | 509 kts | 37° |
| 2026-04-26 09:28 | 52.70035 | -131.61136 | 30078 ft | 509 kts | 36° |
| 2026-04-26 09:29 | 52.75771 | -131.54283 | 30069 ft | 509 kts | 36° |
| 2026-04-26 09:29 | 52.81471 | -131.47448 | 30067 ft | 510 kts | 36° |
| 2026-04-26 09:30 | 52.87214 | -131.40536 | 30071 ft | 511 kts | 36° |
| 2026-04-26 09:30 | 52.92960 | -131.33602 | 30074 ft | 512 kts | 36° |
| 2026-04-26 09:31 | 52.98712 | -131.26635 | 30063 ft | 512 kts | 36° |
| 2026-04-26 09:31 | 53.04432 | -131.19684 | 30050 ft | 514 kts | 37° |
| 2026-04-26 09:32 | 53.10214 | -131.12636 | 30050 ft | 517 kts | 37° |
| 2026-04-26 09:32 | 53.16021 | -131.05532 | 30061 ft | 518 kts | 36° |
| 2026-04-26 09:33 | 53.21749 | -130.98499 | 30036 ft | 517 kts | 36° |
| 2026-04-26 09:33 | 53.27466 | -130.91456 | 30025 ft | 512 kts | 36° |
| 2026-04-26 09:34 | 53.33179 | -130.84395 | 30011 ft | 510 kts | 37° |
| 2026-04-26 09:34 | 53.38875 | -130.77333 | 30011 ft | 509 kts | 36° |
| 2026-04-26 09:35 | 53.44553 | -130.70269 | 30006 ft | 508 kts | 36° |
| 2026-04-26 09:35 | 53.50181 | -130.63240 | 30001 ft | 507 kts | 36° |
| 2026-04-26 09:36 | 53.55834 | -130.56155 | 29995 ft | 507 kts | 36° |
| 2026-04-26 09:36 | 53.61480 | -130.49057 | 30011 ft | 506 kts | 36° |
| 2026-04-26 09:37 | 53.67115 | -130.41951 | 30014 ft | 506 kts | 36° |
| 2026-04-26 09:37 | 53.72721 | -130.34854 | 30024 ft | 508 kts | 36° |
| 2026-04-26 09:38 | 53.78396 | -130.27647 | 30036 ft | 511 kts | 37° |
| 2026-04-26 09:38 | 53.84083 | -130.20403 | 30043 ft | 512 kts | 37° |
| 2026-04-26 09:39 | 53.89757 | -130.13148 | 30033 ft | 510 kts | 37° |
| 2026-04-26 09:39 | 53.95413 | -130.05895 | 30042 ft | 509 kts | 37° |
| 2026-04-26 09:40 | 54.00935 | -129.98797 | 30048 ft | 507 kts | 36° |
| 2026-04-26 09:40 | 54.06636 | -129.91784 | 30048 ft | 505 kts | 34° |
| 2026-04-26 09:41 | 54.12361 | -129.84895 | 30039 ft | 502 kts | 34° |
| 2026-04-26 09:41 | 54.18049 | -129.78009 | 30050 ft | 500 kts | 35° |
| 2026-04-26 09:42 | 54.23667 | -129.71145 | 30039 ft | 499 kts | 35° |
| 2026-04-26 09:42 | 54.29304 | -129.64216 | 30037 ft | 499 kts | 35° |
| 2026-04-26 09:43 | 54.34952 | -129.57247 | 30036 ft | 503 kts | 35° |
| 2026-04-26 09:43 | 54.40645 | -129.50202 | 30042 ft | 507 kts | 35° |
| 2026-04-26 09:44 | 54.46337 | -129.43135 | 30037 ft | 509 kts | 35° |
| 2026-04-26 09:44 | 54.52079 | -129.35976 | 30034 ft | 510 kts | 35° |
| 2026-04-26 09:45 | 54.57817 | -129.28800 | 30022 ft | 509 kts | 35° |
| 2026-04-26 09:45 | 54.63533 | -129.21626 | 30020 ft | 508 kts | 35° |
| 2026-04-26 09:46 | 54.69195 | -129.14497 | 30019 ft | 506 kts | 36° |
| 2026-04-26 09:46 | 54.74872 | -129.07323 | 30032 ft | 504 kts | 35° |
| 2026-04-26 09:47 | 54.80526 | -129.00151 | 30017 ft | 502 kts | 35° |
| 2026-04-26 09:47 | 54.86074 | -128.93088 | 30020 ft | 500 kts | 35° |
| 2026-04-26 09:48 | 54.91636 | -128.85982 | 30018 ft | 499 kts | 36° |
| 2026-04-26 09:48 | 54.97225 | -128.78820 | 30026 ft | 500 kts | 36° |
| 2026-04-26 09:49 | 55.02842 | -128.71596 | 30023 ft | 504 kts | 36° |
| 2026-04-26 09:49 | 55.08488 | -128.64307 | 30020 ft | 506 kts | 36° |
| 2026-04-26 09:50 | 55.14102 | -128.57033 | 30011 ft | 506 kts | 36° |
| 2026-04-26 09:50 | 55.19748 | -128.49691 | 30022 ft | 505 kts | 36° |
| 2026-04-26 09:51 | 55.25374 | -128.42345 | 30004 ft | 503 kts | 36° |
| 2026-04-26 09:51 | 55.30941 | -128.35055 | 29996 ft | 501 kts | 36° |
| 2026-04-26 09:52 | 55.36513 | -128.27730 | 30011 ft | 500 kts | 36° |
| 2026-04-26 09:52 | 55.44842 | -128.16733 | 29994 ft | 498 kts | 36° |
| 2026-04-26 09:53 | 55.50360 | -128.09415 | 30004 ft | 496 kts | 36° |
| 2026-04-26 09:53 | 55.55823 | -128.02145 | 30020 ft | 494 kts | 36° |
| 2026-04-26 09:54 | 55.61234 | -127.94917 | 30000 ft | 494 kts | 36° |
| 2026-04-26 09:54 | 55.66707 | -127.87579 | 30002 ft | 493 kts | 36° |
| 2026-04-26 09:55 | 55.72172 | -127.80224 | 30018 ft | 492 kts | 36° |
| 2026-04-26 09:55 | 55.77583 | -127.72919 | 30011 ft | 491 kts | 36° |
| 2026-04-26 09:56 | 55.83015 | -127.65558 | 30004 ft | 491 kts | 36° |
| 2026-04-26 09:56 | 55.88444 | -127.58176 | 30014 ft | 491 kts | 36° |
| 2026-04-26 09:57 | 55.93865 | -127.50779 | 30003 ft | 490 kts | 36° |
| 2026-04-26 09:57 | 55.99235 | -127.43416 | 30016 ft | 490 kts | 36° |
| 2026-04-26 09:58 | 56.04629 | -127.36001 | 30014 ft | 489 kts | 36° |
| 2026-04-26 09:58 | 56.10023 | -127.28562 | 30032 ft | 489 kts | 36° |
| 2026-04-26 09:59 | 56.14492 | -127.22372 | 30039 ft | 488 kts | 36° |
| 2026-04-26 09:59 | 56.20725 | -127.13713 | 30051 ft | 487 kts | 36° |
| 2026-04-26 10:00 | 56.26078 | -127.06249 | 30054 ft | 487 kts | 36° |
| 2026-04-26 10:00 | 56.31363 | -126.98849 | 30057 ft | 489 kts | 36° |
| 2026-04-26 10:01 | 56.36737 | -126.91300 | 30081 ft | 490 kts | 36° |
| 2026-04-26 10:01 | 56.42071 | -126.83776 | 30070 ft | 490 kts | 36° |
| 2026-04-26 10:02 | 56.47435 | -126.76185 | 30064 ft | 489 kts | 36° |
| 2026-04-26 10:02 | 56.52786 | -126.68584 | 30066 ft | 489 kts | 36° |
| 2026-04-26 10:03 | 56.58129 | -126.60966 | 30071 ft | 489 kts | 36° |
| 2026-04-26 10:03 | 56.63432 | -126.53379 | 30073 ft | 489 kts | 36° |
| 2026-04-26 10:04 | 56.68765 | -126.45716 | 30068 ft | 488 kts | 36° |
| 2026-04-26 10:04 | 56.74089 | -126.38037 | 30059 ft | 488 kts | 36° |
| 2026-04-26 10:05 | 56.79412 | -126.30336 | 30057 ft | 488 kts | 36° |
| 2026-04-26 10:05 | 56.84686 | -126.22675 | 30073 ft | 488 kts | 36° |
| 2026-04-26 10:06 | 56.89980 | -126.14957 | 30059 ft | 486 kts | 36° |
| 2026-04-26 10:06 | 56.95259 | -126.07233 | 30050 ft | 486 kts | 36° |
| 2026-04-26 10:07 | 57.00455 | -125.99600 | 30057 ft | 486 kts | 36° |
| 2026-04-26 10:07 | 57.05731 | -125.91822 | 30058 ft | 486 kts | 37° |
| 2026-04-26 10:08 | 57.10962 | -125.84082 | 30080 ft | 486 kts | 36° |
| 2026-04-26 10:08 | 57.16230 | -125.76256 | 30083 ft | 486 kts | 36° |
| 2026-04-26 10:09 | 57.21490 | -125.68415 | 30071 ft | 486 kts | 36° |
| 2026-04-26 10:09 | 57.26733 | -125.60567 | 30089 ft | 485 kts | 37° |
| 2026-04-26 10:10 | 57.31933 | -125.52756 | 30114 ft | 484 kts | 36° |
| 2026-04-26 10:10 | 57.37149 | -125.44888 | 30107 ft | 483 kts | 36° |
| 2026-04-26 10:11 | 57.42348 | -125.37021 | 30106 ft | 481 kts | 37° |
| 2026-04-26 10:11 | 57.47517 | -125.29165 | 30119 ft | 480 kts | 37° |
| 2026-04-26 10:12 | 57.52675 | -125.21298 | 30100 ft | 479 kts | 37° |
| 2026-04-26 10:12 | 57.57810 | -125.13438 | 30138 ft | 482 kts | 37° |
| 2026-04-26 10:13 | 57.62994 | -125.05472 | 30136 ft | 483 kts | 37° |
| 2026-04-26 10:13 | 57.68110 | -124.97579 | 30143 ft | 484 kts | 37° |
| 2026-04-26 10:14 | 57.73258 | -124.89607 | 30152 ft | 484 kts | 37° |
| 2026-04-26 10:14 | 57.78433 | -124.81564 | 30186 ft | 483 kts | 37° |
| 2026-04-26 10:15 | 57.83588 | -124.73521 | 30158 ft | 481 kts | 37° |
| 2026-04-26 10:15 | 57.88710 | -124.65496 | 30182 ft | 478 kts | 37° |
| 2026-04-26 10:16 | 57.93802 | -124.57493 | 30182 ft | 476 kts | 37° |
| 2026-04-26 10:16 | 57.98828 | -124.49556 | 30197 ft | 474 kts | 37° |
| 2026-04-26 10:17 | 58.03857 | -124.41590 | 30226 ft | 472 kts | 37° |
| 2026-04-26 10:17 | 58.08882 | -124.33602 | 30202 ft | 471 kts | 37° |
| 2026-04-26 10:18 | 58.13889 | -124.25611 | 30199 ft | 471 kts | 37° |
| 2026-04-26 10:18 | 58.18884 | -124.17602 | 30198 ft | 471 kts | 37° |
| 2026-04-26 10:19 | 58.23871 | -124.09575 | 30219 ft | 475 kts | 37° |
| 2026-04-26 10:19 | 58.28924 | -124.01417 | 30247 ft | 476 kts | 37° |
| 2026-04-26 10:20 | 58.33033 | -123.94758 | 30231 ft | 473 kts | 37° |
| 2026-04-26 10:20 | 58.38835 | -123.85316 | 30251 ft | 471 kts | 37° |
| 2026-04-26 10:21 | 58.43801 | -123.77208 | 30252 ft | 469 kts | 37° |
| 2026-04-26 10:21 | 58.48754 | -123.69090 | 30247 ft | 469 kts | 37° |
| 2026-04-26 10:22 | 58.53703 | -123.60943 | 30275 ft | 469 kts | 37° |
| 2026-04-26 10:22 | 58.58649 | -123.52768 | 30259 ft | 469 kts | 37° |
| 2026-04-26 10:23 | 58.63549 | -123.44643 | 30265 ft | 469 kts | 38° |
| 2026-04-26 10:23 | 58.68483 | -123.36428 | 30262 ft | 469 kts | 38° |
| 2026-04-26 10:24 | 58.73407 | -123.28196 | 30278 ft | 469 kts | 38° |
| 2026-04-26 10:24 | 58.78318 | -123.19956 | 30286 ft | 467 kts | 37° |
| 2026-04-26 10:25 | 58.83177 | -123.11774 | 30243 ft | 466 kts | 38° |
| 2026-04-26 10:25 | 58.88061 | -123.03522 | 30266 ft | 467 kts | 38° |
| 2026-04-26 10:26 | 58.92883 | -122.95309 | 30273 ft | 469 kts | 38° |
| 2026-04-26 10:26 | 58.97775 | -122.86913 | 30286 ft | 470 kts | 38° |
| 2026-04-26 10:27 | 59.02639 | -122.78542 | 30266 ft | 472 kts | 38° |
| 2026-04-26 10:27 | 59.07551 | -122.70062 | 30296 ft | 472 kts | 38° |
| 2026-04-26 10:28 | 59.12460 | -122.61559 | 30292 ft | 473 kts | 38° |
| 2026-04-26 10:28 | 59.17365 | -122.53026 | 30296 ft | 473 kts | 38° |
| 2026-04-26 10:29 | 59.22235 | -122.44523 | 30314 ft | 472 kts | 38° |
| 2026-04-26 10:29 | 59.27119 | -122.35959 | 30300 ft | 471 kts | 38° |
| 2026-04-26 10:30 | 59.31976 | -122.27406 | 30307 ft | 469 kts | 38° |
| 2026-04-26 10:30 | 59.36811 | -122.18859 | 30307 ft | 467 kts | 39° |
| 2026-04-26 10:31 | 59.41597 | -122.10368 | 30314 ft | 466 kts | 39° |
| 2026-04-26 10:31 | 59.46400 | -122.01815 | 30327 ft | 466 kts | 39° |
| 2026-04-26 10:32 | 59.51136 | -121.93349 | 30320 ft | 467 kts | 39° |
| 2026-04-26 10:32 | 59.55960 | -121.84689 | 30323 ft | 470 kts | 39° |
| 2026-04-26 10:33 | 59.60766 | -121.76021 | 30326 ft | 472 kts | 39° |
| 2026-04-26 10:33 | 59.65609 | -121.67251 | 30326 ft | 473 kts | 39° |
| 2026-04-26 10:34 | 59.70449 | -121.58450 | 30338 ft | 472 kts | 39° |
| 2026-04-26 10:34 | 59.75280 | -121.49629 | 30327 ft | 471 kts | 39° |
| 2026-04-26 10:35 | 59.80051 | -121.40885 | 30333 ft | 470 kts | 39° |
| 2026-04-26 10:35 | 59.84840 | -121.32069 | 30333 ft | 468 kts | 39° |
| 2026-04-26 10:36 | 59.89608 | -121.23259 | 30340 ft | 467 kts | 39° |
| 2026-04-26 10:36 | 59.94364 | -121.14441 | 30345 ft | 467 kts | 39° |
| 2026-04-26 10:37 | 59.99074 | -121.05663 | 30348 ft | 466 kts | 39° |
| 2026-04-26 10:37 | 60.03738 | -120.96936 | 30347 ft | 465 kts | 39° |
| 2026-04-26 10:38 | 60.08450 | -120.88085 | 30354 ft | 464 kts | 40° |
| 2026-04-26 10:38 | 60.13156 | -120.79209 | 30334 ft | 464 kts | 40° |
| 2026-04-26 10:39 | 60.17833 | -120.70352 | 30364 ft | 467 kts | 40° |
| 2026-04-26 10:39 | 60.22557 | -120.61371 | 30361 ft | 468 kts | 40° |
| 2026-04-26 10:40 | 60.27290 | -120.52329 | 30364 ft | 470 kts | 40° |
| 2026-04-26 10:40 | 60.32035 | -120.43231 | 30364 ft | 471 kts | 40° |
| 2026-04-26 10:41 | 60.36744 | -120.34160 | 30372 ft | 471 kts | 40° |
| 2026-04-26 10:41 | 60.41484 | -120.24995 | 30380 ft | 472 kts | 40° |
| 2026-04-26 10:42 | 60.45415 | -120.17361 | 30378 ft | 471 kts | 41° |
| 2026-04-26 10:42 | 60.50929 | -120.06610 | 30372 ft | 470 kts | 41° |
| 2026-04-26 10:43 | 60.55555 | -119.97549 | 30382 ft | 469 kts | 41° |
| 2026-04-26 10:43 | 60.60205 | -119.88403 | 30384 ft | 467 kts | 41° |
| 2026-04-26 10:44 | 60.64874 | -119.79184 | 30388 ft | 467 kts | 41° |
| 2026-04-26 10:44 | 60.69529 | -119.69946 | 30393 ft | 467 kts | 41° |
| 2026-04-26 10:45 | 60.73392 | -119.62251 | 30390 ft | 466 kts | 41° |
| 2026-04-26 10:45 | 60.78777 | -119.51484 | 30353 ft | 466 kts | 41° |
| 2026-04-26 10:46 | 60.83429 | -119.42140 | 30397 ft | 470 kts | 41° |
| 2026-04-26 10:46 | 60.88106 | -119.32703 | 30402 ft | 472 kts | 42° |
| 2026-04-26 10:47 | 60.91992 | -119.24827 | 30397 ft | 472 kts | 42° |
| 2026-04-26 10:47 | 60.97423 | -119.13773 | 30394 ft | 472 kts | 42° |
| 2026-04-26 10:48 | 61.02070 | -119.04270 | 30397 ft | 471 kts | 42° |
| 2026-04-26 10:48 | 61.05869 | -118.96473 | 30401 ft | 470 kts | 42° |
| 2026-04-26 10:49 | 61.10494 | -118.86943 | 30431 ft | 469 kts | 43° |
| 2026-04-26 10:49 | 61.15845 | -118.75862 | 30408 ft | 467 kts | 43° |
| 2026-04-26 10:50 | 61.19679 | -118.67889 | 30399 ft | 465 kts | 43° |
| 2026-04-26 10:50 | 61.24201 | -118.58445 | 30404 ft | 464 kts | 43° |
| 2026-04-26 10:51 | 61.30998 | -118.44178 | 30407 ft | 462 kts | 43° |
| 2026-04-26 10:52 | 61.35514 | -118.34646 | 30412 ft | 462 kts | 43° |
| 2026-04-26 10:52 | 61.40031 | -118.25072 | 30409 ft | 463 kts | 43° |
| 2026-04-26 10:53 | 61.44513 | -118.15532 | 30399 ft | 465 kts | 43° |
| 2026-04-26 10:53 | 61.49058 | -118.05811 | 30422 ft | 469 kts | 43° |
| 2026-04-26 10:54 | 61.55860 | -117.91181 | 30415 ft | 474 kts | 44° |
| 2026-04-26 10:54 | 61.60434 | -117.81288 | 30419 ft | 468 kts | 44° |
| 2026-04-26 10:55 | 61.64912 | -117.71558 | 30421 ft | 465 kts | 44° |
| 2026-04-26 10:55 | 61.69404 | -117.61756 | 30423 ft | 465 kts | 44° |
| 2026-04-26 10:56 | 61.73882 | -117.51940 | 30429 ft | 465 kts | 44° |
| 2026-04-26 10:56 | 61.78362 | -117.42076 | 30429 ft | 465 kts | 44° |
| 2026-04-26 10:57 | 61.82805 | -117.32256 | 30433 ft | 465 kts | 44° |
| 2026-04-26 10:57 | 61.87268 | -117.22339 | 30429 ft | 464 kts | 44° |
| 2026-04-26 10:58 | 61.91707 | -117.12431 | 30429 ft | 463 kts | 45° |
| 2026-04-26 10:58 | 61.96128 | -117.02522 | 30430 ft | 462 kts | 45° |
| 2026-04-26 10:59 | 62.00440 | -116.92815 | 30430 ft | 461 kts | 45° |
| 2026-04-26 10:59 | 62.04834 | -116.82883 | 30452 ft | 460 kts | 45° |
| 2026-04-26 11:00 | 62.09203 | -116.72955 | 30438 ft | 458 kts | 45° |
| 2026-04-26 11:00 | 62.13547 | -116.63041 | 30437 ft | 456 kts | 45° |
| 2026-04-26 11:01 | 62.17838 | -116.53210 | 30435 ft | 454 kts | 45° |
| 2026-04-26 11:01 | 62.22138 | -116.43314 | 30442 ft | 453 kts | 45° |
| 2026-04-26 11:02 | 62.26427 | -116.33402 | 30466 ft | 453 kts | 45° |
| 2026-04-26 11:02 | 62.30739 | -116.23393 | 30451 ft | 458 kts | 46° |
| 2026-04-26 11:03 | 62.35156 | -116.13588 | 30444 ft | 461 kts | 43° |
| 2026-04-26 11:03 | 62.39750 | -116.03934 | 30446 ft | 462 kts | 43° |
| 2026-04-26 11:04 | 62.44302 | -115.94373 | 30446 ft | 462 kts | 43° |
| 2026-04-26 11:04 | 62.48892 | -115.84643 | 30442 ft | 462 kts | 43° |
| 2026-04-26 11:05 | 62.53443 | -115.74931 | 30449 ft | 464 kts | 44° |
| 2026-04-26 11:05 | 62.58035 | -115.65066 | 30451 ft | 466 kts | 44° |
| 2026-04-26 11:06 | 62.62644 | -115.55122 | 30454 ft | 468 kts | 44° |
| 2026-04-26 11:06 | 62.67253 | -115.45129 | 30411 ft | 467 kts | 44° |
| 2026-04-26 11:07 | 62.71764 | -115.35305 | 30449 ft | 459 kts | 44° |
| 2026-04-26 11:07 | 62.76273 | -115.25451 | 30473 ft | 458 kts | 45° |
| 2026-04-26 11:08 | 62.80773 | -115.15567 | 30463 ft | 459 kts | 45° |
| 2026-04-26 11:08 | 62.85277 | -115.05623 | 30461 ft | 461 kts | 45° |
| 2026-04-26 11:09 | 62.89735 | -114.95738 | 30471 ft | 462 kts | 45° |
| 2026-04-26 11:09 | 62.94220 | -114.85744 | 30476 ft | 464 kts | 45° |
| 2026-04-26 11:10 | 62.98746 | -114.75613 | 30472 ft | 464 kts | 45° |
| 2026-04-26 11:10 | 63.03276 | -114.65430 | 30480 ft | 468 kts | 45° |
| 2026-04-26 11:11 | 63.07844 | -114.55107 | 30480 ft | 472 kts | 46° |
| 2026-04-26 11:11 | 63.12407 | -114.44747 | 30483 ft | 475 kts | 46° |
| 2026-04-26 11:12 | 63.17009 | -114.34252 | 30485 ft | 476 kts | 46° |
| 2026-04-26 11:12 | 63.21611 | -114.23706 | 30491 ft | 476 kts | 46° |
| 2026-04-26 11:13 | 63.26200 | -114.13134 | 30488 ft | 475 kts | 46° |
| 2026-04-26 11:13 | 63.30742 | -114.02621 | 30503 ft | 474 kts | 46° |
| 2026-04-26 11:14 | 63.35235 | -113.92171 | 30505 ft | 473 kts | 46° |
| 2026-04-26 11:14 | 63.39777 | -113.81554 | 30513 ft | 472 kts | 46° |
| 2026-04-26 11:15 | 63.44299 | -113.70933 | 30515 ft | 472 kts | 46° |
| 2026-04-26 11:15 | 63.48779 | -113.60361 | 30517 ft | 472 kts | 47° |
| 2026-04-26 11:16 | 63.53311 | -113.49617 | 30533 ft | 477 kts | 47° |
| 2026-04-26 11:16 | 63.57881 | -113.38723 | 30532 ft | 481 kts | 47° |
| 2026-04-26 11:17 | 63.62479 | -113.27711 | 30525 ft | 484 kts | 47° |
| 2026-04-26 11:17 | 63.67082 | -113.16643 | 30526 ft | 485 kts | 47° |
| 2026-04-26 11:18 | 63.71650 | -113.05604 | 30536 ft | 485 kts | 46° |
| 2026-04-26 11:18 | 63.76667 | -112.95786 | 30540 ft | 484 kts | 37° |
| 2026-04-26 11:19 | 63.82376 | -112.87824 | 30543 ft | 476 kts | 28° |
| 2026-04-26 11:19 | 63.88239 | -112.81046 | 30547 ft | 472 kts | 28° |
| 2026-04-26 11:20 | 63.93117 | -112.75452 | 30553 ft | 472 kts | 28° |
| 2026-04-26 11:20 | 63.99920 | -112.67534 | 30555 ft | 473 kts | 28° |
| 2026-04-26 11:21 | 64.05758 | -112.60654 | 30553 ft | 473 kts | 28° |
| 2026-04-26 11:21 | 64.11569 | -112.53759 | 30565 ft | 475 kts | 28° |
| 2026-04-26 11:22 | 64.17439 | -112.46759 | 30566 ft | 477 kts | 28° |
| 2026-04-26 11:22 | 64.23329 | -112.39701 | 30559 ft | 479 kts | 28° |
| 2026-04-26 11:23 | 64.29244 | -112.32582 | 30577 ft | 480 kts | 28° |
| 2026-04-26 11:23 | 64.35129 | -112.25466 | 30577 ft | 482 kts | 28° |
| 2026-04-26 11:24 | 64.41062 | -112.18257 | 30586 ft | 482 kts | 28° |
| 2026-04-26 11:24 | 64.47000 | -112.11006 | 30597 ft | 483 kts | 28° |
| 2026-04-26 11:25 | 64.52935 | -112.03721 | 30588 ft | 483 kts | 29° |
| 2026-04-26 11:25 | 64.58780 | -111.96512 | 30594 ft | 482 kts | 29° |
| 2026-04-26 11:26 | 64.64661 | -111.89221 | 30574 ft | 483 kts | 28° |
| 2026-04-26 11:26 | 64.70613 | -111.81805 | 30601 ft | 486 kts | 28° |
| 2026-04-26 11:27 | 64.76600 | -111.74309 | 30606 ft | 490 kts | 28° |
| 2026-04-26 11:27 | 64.82620 | -111.66735 | 30603 ft | 492 kts | 28° |
| 2026-04-26 11:28 | 64.88619 | -111.59150 | 30609 ft | 493 kts | 28° |
| 2026-04-26 11:28 | 64.94653 | -111.51479 | 30604 ft | 492 kts | 28° |
| 2026-04-26 11:29 | 65.00656 | -111.43806 | 30613 ft | 491 kts | 28° |
| 2026-04-26 11:29 | 65.06611 | -111.36157 | 30601 ft | 490 kts | 28° |
| 2026-04-26 11:30 | 65.11634 | -111.29678 | 30617 ft | 491 kts | 28° |
| 2026-04-26 11:30 | 65.18611 | -111.20628 | 30627 ft | 492 kts | 28° |
| 2026-04-26 11:31 | 65.24626 | -111.12781 | 30632 ft | 493 kts | 28° |
| 2026-04-26 11:31 | 65.30605 | -111.04938 | 30629 ft | 494 kts | 28° |
| 2026-04-26 11:32 | 65.36543 | -110.97111 | 30632 ft | 494 kts | 28° |
| 2026-04-26 11:32 | 65.42551 | -110.89150 | 30630 ft | 493 kts | 28° |
| 2026-04-26 11:33 | 65.48559 | -110.81148 | 30629 ft | 494 kts | 28° |
| 2026-04-26 11:33 | 65.54568 | -110.73100 | 30635 ft | 494 kts | 28° |
| 2026-04-26 11:34 | 65.60543 | -110.65055 | 30648 ft | 495 kts | 28° |
| 2026-04-26 11:34 | 65.66559 | -110.56910 | 30634 ft | 495 kts | 28° |
| 2026-04-26 11:35 | 65.72570 | -110.48733 | 30632 ft | 495 kts | 28° |
| 2026-04-26 11:35 | 65.78573 | -110.40518 | 30633 ft | 495 kts | 28° |
| 2026-04-26 11:36 | 65.84529 | -110.32324 | 30631 ft | 495 kts | 28° |
| 2026-04-26 11:36 | 65.90516 | -110.24045 | 30625 ft | 495 kts | 28° |
| 2026-04-26 11:37 | 65.96509 | -110.15712 | 30634 ft | 495 kts | 28° |
| 2026-04-26 11:37 | 66.02489 | -110.07350 | 30640 ft | 495 kts | 28° |
| 2026-04-26 11:38 | 66.08356 | -109.99103 | 30628 ft | 495 kts | 28° |
| 2026-04-26 11:38 | 66.14334 | -109.90655 | 30627 ft | 494 kts | 28° |
| 2026-04-26 11:39 | 66.20295 | -109.82182 | 30627 ft | 494 kts | 28° |
| 2026-04-26 11:39 | 66.26249 | -109.73675 | 30623 ft | 494 kts | 28° |
| 2026-04-26 11:40 | 66.32195 | -109.65131 | 30626 ft | 494 kts | 28° |
| 2026-04-26 11:40 | 66.38099 | -109.56604 | 30640 ft | 494 kts | 28° |
| 2026-04-26 11:42 | 66.61717 | -109.22004 | 30610 ft | 490 kts | 28° |
| 2026-04-26 11:43 | 66.67593 | -109.13278 | 30602 ft | 490 kts | 28° |
| 2026-04-26 11:43 | 66.73461 | -109.04515 | 30608 ft | 490 kts | 28° |
| 2026-04-26 11:44 | 66.79238 | -108.95835 | 30602 ft | 489 kts | 28° |
| 2026-04-26 11:44 | 66.85034 | -108.87078 | 30596 ft | 487 kts | 28° |
| 2026-04-26 11:45 | 66.90842 | -108.78260 | 30610 ft | 485 kts | 28° |
| 2026-04-26 11:45 | 66.96627 | -108.69424 | 30590 ft | 484 kts | 28° |
| 2026-04-26 11:46 | 67.02355 | -108.60629 | 30591 ft | 484 kts | 28° |
| 2026-04-26 11:46 | 67.08121 | -108.51724 | 30589 ft | 483 kts | 29° |
| 2026-04-26 11:47 | 67.13874 | -108.42787 | 30605 ft | 484 kts | 29° |
| 2026-04-26 11:47 | 67.19625 | -108.33804 | 30601 ft | 483 kts | 28° |
| 2026-04-26 11:48 | 67.25321 | -108.24856 | 30592 ft | 482 kts | 28° |
| 2026-04-26 11:48 | 67.31039 | -108.15823 | 30589 ft | 481 kts | 28° |
| 2026-04-26 11:49 | 67.36746 | -108.06758 | 30585 ft | 480 kts | 28° |
| 2026-04-26 11:49 | 67.42359 | -107.97791 | 30592 ft | 480 kts | 28° |
| 2026-04-26 11:50 | 67.48002 | -107.88726 | 30588 ft | 480 kts | 28° |
| 2026-04-26 11:50 | 67.53676 | -107.79557 | 30589 ft | 480 kts | 29° |
| 2026-04-26 11:51 | 67.59351 | -107.70339 | 30591 ft | 481 kts | 28° |
| 2026-04-26 11:51 | 67.65034 | -107.61052 | 30597 ft | 482 kts | 29° |
| 2026-04-26 11:52 | 67.69771 | -107.53270 | 30594 ft | 483 kts | 29° |
| 2026-04-26 11:52 | 67.76401 | -107.42311 | 30599 ft | 484 kts | 29° |
| 2026-04-26 11:53 | 67.82107 | -107.32822 | 30596 ft | 485 kts | 29° |
| 2026-04-26 11:54 | 67.90666 | -107.18486 | 30636 ft | 485 kts | 29° |
| 2026-04-26 11:54 | 67.96265 | -107.09029 | 30616 ft | 476 kts | 29° |
| 2026-04-26 11:55 | 68.01778 | -106.99676 | 30596 ft | 476 kts | 28° |
| 2026-04-26 11:55 | 68.07348 | -106.90173 | 30613 ft | 476 kts | 28° |
| 2026-04-26 11:56 | 68.12930 | -106.80589 | 30614 ft | 477 kts | 29° |
| 2026-04-26 11:56 | 68.18482 | -106.71003 | 30601 ft | 478 kts | 29° |
| 2026-04-26 11:57 | 68.24076 | -106.61287 | 30608 ft | 479 kts | 29° |
| 2026-04-26 11:57 | 68.29671 | -106.51510 | 30630 ft | 479 kts | 29° |
| 2026-04-26 11:58 | 68.35254 | -106.41697 | 30604 ft | 477 kts | 29° |
| 2026-04-26 11:58 | 68.40798 | -106.31888 | 30621 ft | 475 kts | 28° |
| 2026-04-26 11:59 | 68.46285 | -106.22130 | 30612 ft | 474 kts | 29° |
| 2026-04-26 11:59 | 68.51793 | -106.12273 | 30617 ft | 473 kts | 29° |
| 2026-04-26 12:00 | 68.57286 | -106.02391 | 30616 ft | 473 kts | 29° |
| 2026-04-26 12:00 | 68.62653 | -105.92676 | 30621 ft | 473 kts | 29° |
| 2026-04-26 12:01 | 68.68135 | -105.82694 | 30660 ft | 473 kts | 29° |
| 2026-04-26 12:01 | 68.73614 | -105.72656 | 30629 ft | 473 kts | 29° |
| 2026-04-26 12:02 | 68.79084 | -105.62572 | 30623 ft | 472 kts | 29° |
| 2026-04-26 12:02 | 68.84506 | -105.52521 | 30637 ft | 472 kts | 29° |
| 2026-04-26 12:03 | 68.89955 | -105.42360 | 30632 ft | 472 kts | 29° |
| 2026-04-26 12:03 | 68.95404 | -105.32141 | 30627 ft | 472 kts | 29° |
| 2026-04-26 12:04 | 69.00835 | -105.21899 | 30624 ft | 473 kts | 30° |
| 2026-04-26 12:04 | 69.06239 | -105.11644 | 30660 ft | 473 kts | 30° |
| 2026-04-26 12:04 | 69.08798 | -105.05867 | 30620 ft | 479 kts | 41° |
| 2026-04-26 12:05 | 69.10789 | -104.98604 | 30655 ft | 488 kts | 53° |
| 2026-04-26 12:05 | 69.12317 | -104.90031 | 30648 ft | 497 kts | 64° |
| 2026-04-26 12:05 | 69.13200 | -104.80599 | 30656 ft | 501 kts | 74° |
| 2026-04-26 12:06 | 69.14436 | -104.61271 | 30654 ft | 505 kts | 75° |
| 2026-04-26 12:06 | 69.15655 | -104.41904 | 30668 ft | 508 kts | 75° |
| 2026-04-26 12:07 | 69.16933 | -104.22362 | 30663 ft | 510 kts | 74° |
| 2026-04-26 12:07 | 69.18229 | -104.02759 | 30674 ft | 511 kts | 75° |
| 2026-04-26 12:08 | 69.19494 | -103.83365 | 30663 ft | 510 kts | 75° |
| 2026-04-26 12:08 | 69.20739 | -103.63879 | 30675 ft | 509 kts | 75° |
| 2026-04-26 12:09 | 69.21964 | -103.44292 | 30682 ft | 508 kts | 75° |
| 2026-04-26 12:09 | 69.23164 | -103.24700 | 30684 ft | 507 kts | 75° |
| 2026-04-26 12:10 | 69.24340 | -103.05121 | 30686 ft | 507 kts | 77° |
| 2026-04-26 12:10 | 69.25474 | -102.85890 | 30700 ft | 507 kts | 77° |
| 2026-04-26 12:11 | 69.26608 | -102.66263 | 30690 ft | 507 kts | 77° |
| 2026-04-26 12:11 | 69.27720 | -102.46613 | 30693 ft | 507 kts | 77° |
| 2026-04-26 12:12 | 69.28810 | -102.26936 | 30698 ft | 508 kts | 77° |
| 2026-04-26 12:12 | 69.29878 | -102.07211 | 30708 ft | 509 kts | 78° |
| 2026-04-26 12:13 | 69.30905 | -101.87819 | 30702 ft | 509 kts | 78° |
| 2026-04-26 12:13 | 69.31930 | -101.68023 | 30709 ft | 509 kts | 79° |
| 2026-04-26 12:14 | 69.32933 | -101.48190 | 30708 ft | 509 kts | 79° |
| 2026-04-26 12:14 | 69.33913 | -101.28351 | 30712 ft | 509 kts | 79° |
| 2026-04-26 12:15 | 69.34866 | -101.08619 | 30716 ft | 509 kts | 79° |
| 2026-04-26 12:15 | 69.35790 | -100.88987 | 30724 ft | 509 kts | 80° |
| 2026-04-26 12:16 | 69.36703 | -100.69069 | 30716 ft | 509 kts | 80° |
| 2026-04-26 12:16 | 69.37594 | -100.49152 | 30725 ft | 509 kts | 80° |
| 2026-04-26 12:17 | 69.38454 | -100.29376 | 30720 ft | 509 kts | 80° |
| 2026-04-26 12:17 | 69.39300 | -100.09440 | 30731 ft | 509 kts | 81° |
| 2026-04-26 12:18 | 69.40112 | -99.89723 | 30742 ft | 509 kts | 81° |
| 2026-04-26 12:18 | 69.40910 | -99.69769 | 30725 ft | 509 kts | 81° |
| 2026-04-26 12:19 | 69.41680 | -99.49934 | 30730 ft | 509 kts | 81° |
| 2026-04-26 12:19 | 69.42432 | -99.29934 | 30733 ft | 508 kts | 81° |
| 2026-04-26 12:20 | 69.43162 | -99.09948 | 30729 ft | 508 kts | 82° |
| 2026-04-26 12:20 | 69.43860 | -98.90197 | 30736 ft | 509 kts | 82° |
| 2026-04-26 12:21 | 69.44545 | -98.70175 | 30728 ft | 509 kts | 82° |
| 2026-04-26 12:21 | 69.45201 | -98.50259 | 30735 ft | 509 kts | 82° |
| 2026-04-26 12:22 | 69.45840 | -98.30183 | 30738 ft | 509 kts | 82° |
| 2026-04-26 12:22 | 69.46456 | -98.10099 | 30753 ft | 510 kts | 83° |
| 2026-04-26 12:23 | 69.47038 | -97.90372 | 30739 ft | 510 kts | 83° |
| 2026-04-26 12:23 | 69.47609 | -97.70227 | 30741 ft | 510 kts | 83° |
| 2026-04-26 12:24 | 69.48156 | -97.50083 | 30741 ft | 510 kts | 83° |
| 2026-04-26 12:24 | 69.48680 | -97.29937 | 30751 ft | 510 kts | 83° |
| 2026-04-26 12:25 | 69.49421 | -96.99841 | 30754 ft | 511 kts | 84° |
| 2026-04-26 12:25 | 69.49883 | -96.79825 | 30753 ft | 511 kts | 84° |
| 2026-04-26 12:26 | 69.50326 | -96.59580 | 30757 ft | 512 kts | 85° |
| 2026-04-26 12:26 | 69.50747 | -96.39310 | 30759 ft | 512 kts | 85° |
| 2026-04-26 12:27 | 69.51142 | -96.19154 | 30761 ft | 512 kts | 85° |
| 2026-04-26 12:27 | 69.51512 | -95.99115 | 30761 ft | 513 kts | 85° |
| 2026-04-26 12:28 | 69.51866 | -95.78754 | 30758 ft | 514 kts | 86° |
| 2026-04-26 12:28 | 69.52195 | -95.58367 | 30766 ft | 514 kts | 86° |
| 2026-04-26 12:29 | 69.52498 | -95.38083 | 30763 ft | 515 kts | 86° |
| 2026-04-26 12:30 | 69.52911 | -95.07443 | 30787 ft | 515 kts | 87° |
| 2026-04-26 12:30 | 69.53156 | -94.87223 | 30782 ft | 516 kts | 87° |
| 2026-04-26 12:31 | 69.53482 | -94.56576 | 30778 ft | 517 kts | 87° |
| 2026-04-26 12:31 | 69.53670 | -94.36028 | 30795 ft | 518 kts | 88° |
| 2026-04-26 12:32 | 69.53836 | -94.15450 | 30793 ft | 518 kts | 88° |
| 2026-04-26 12:33 | 69.54043 | -93.84958 | 30804 ft | 520 kts | 88° |
| 2026-04-26 12:33 | 69.54270 | -93.64362 | 30786 ft | 516 kts | 81° |
| 2026-04-26 12:33 | 69.55087 | -93.54413 | 30797 ft | 514 kts | 69° |
| 2026-04-26 12:34 | 69.56501 | -93.45052 | 30806 ft | 512 kts | 59° |
| 2026-04-26 12:34 | 69.60694 | -93.28744 | 30810 ft | 508 kts | 48° |
| 2026-04-26 12:35 | 69.65224 | -93.13079 | 30816 ft | 511 kts | 48° |
| 2026-04-26 12:35 | 69.69643 | -92.97506 | 30818 ft | 514 kts | 49° |
| 2026-04-26 12:36 | 69.74124 | -92.81382 | 30818 ft | 516 kts | 49° |
| 2026-04-26 12:36 | 69.78593 | -92.65109 | 30817 ft | 518 kts | 50° |
| 2026-04-26 12:37 | 69.83022 | -92.48852 | 30815 ft | 518 kts | 50° |
| 2026-04-26 12:37 | 69.87434 | -92.32545 | 30814 ft | 505 kts | 50° |
| 2026-04-26 12:38 | 69.91745 | -92.16501 | 30820 ft | 503 kts | 50° |
| 2026-04-26 12:38 | 69.96048 | -92.00380 | 30820 ft | 505 kts | 50° |
| 2026-04-26 12:39 | 70.00264 | -91.84467 | 30817 ft | 507 kts | 50° |
| 2026-04-26 12:39 | 70.04568 | -91.68086 | 30810 ft | 509 kts | 50° |
| 2026-04-26 12:40 | 70.08868 | -91.51598 | 30805 ft | 510 kts | 50° |
| 2026-04-26 12:40 | 70.13161 | -91.35009 | 30808 ft | 510 kts | 50° |
| 2026-04-26 12:41 | 70.17410 | -91.18459 | 30807 ft | 510 kts | 51° |
| 2026-04-26 12:41 | 70.21668 | -91.01747 | 30822 ft | 508 kts | 50° |
| 2026-04-26 12:42 | 70.25815 | -90.85341 | 30805 ft | 504 kts | 50° |
| 2026-04-26 12:42 | 70.29990 | -90.68699 | 30803 ft | 503 kts | 50° |
| 2026-04-26 12:43 | 70.34118 | -90.52130 | 30802 ft | 503 kts | 51° |
| 2026-04-26 12:43 | 70.38260 | -90.35366 | 30803 ft | 503 kts | 51° |
| 2026-04-26 12:44 | 70.42389 | -90.18527 | 30802 ft | 504 kts | 51° |
| 2026-04-26 12:44 | 70.46510 | -90.01583 | 30807 ft | 505 kts | 51° |
| 2026-04-26 12:45 | 70.50546 | -89.84859 | 30810 ft | 507 kts | 51° |
| 2026-04-26 12:45 | 70.54662 | -89.67666 | 30834 ft | 508 kts | 51° |
| 2026-04-26 12:46 | 70.58762 | -89.50399 | 30810 ft | 507 kts | 51° |
| 2026-04-26 12:46 | 70.62840 | -89.33092 | 30797 ft | 506 kts | 51° |
| 2026-04-26 12:47 | 70.66863 | -89.15874 | 30793 ft | 505 kts | 51° |
| 2026-04-26 12:47 | 70.70833 | -88.98752 | 30796 ft | 504 kts | 52° |
| 2026-04-26 12:48 | 70.74839 | -88.81339 | 30792 ft | 503 kts | 52° |
| 2026-04-26 12:48 | 70.78821 | -88.63887 | 30794 ft | 503 kts | 52° |
| 2026-04-26 12:49 | 70.82787 | -88.46360 | 30791 ft | 503 kts | 52° |
| 2026-04-26 12:49 | 70.86711 | -88.28878 | 30795 ft | 503 kts | 52° |
| 2026-04-26 12:50 | 70.90646 | -88.11203 | 30795 ft | 504 kts | 52° |
| 2026-04-26 12:50 | 70.94519 | -87.93663 | 30769 ft | 504 kts | 52° |
| 2026-04-26 12:51 | 70.98396 | -87.75954 | 30817 ft | 504 kts | 52° |
| 2026-04-26 12:51 | 71.02280 | -87.58073 | 30779 ft | 504 kts | 53° |
| 2026-04-26 12:52 | 71.06150 | -87.40103 | 30781 ft | 504 kts | 53° |
| 2026-04-26 12:52 | 71.10005 | -87.22049 | 30777 ft | 504 kts | 53° |
| 2026-04-26 12:53 | 71.13815 | -87.04060 | 30765 ft | 504 kts | 53° |
| 2026-04-26 12:53 | 71.17583 | -86.86116 | 30767 ft | 504 kts | 53° |
| 2026-04-26 12:54 | 71.21383 | -86.67859 | 30764 ft | 504 kts | 53° |
| 2026-04-26 12:54 | 71.25172 | -86.49515 | 30771 ft | 505 kts | 53° |
| 2026-04-26 12:55 | 71.28949 | -86.31060 | 30736 ft | 505 kts | 53° |
| 2026-04-26 12:55 | 71.32677 | -86.12677 | 30746 ft | 505 kts | 54° |
| 2026-04-26 12:56 | 71.36362 | -85.94350 | 30748 ft | 505 kts | 54° |
| 2026-04-26 12:56 | 71.40080 | -85.75705 | 30733 ft | 505 kts | 54° |
| 2026-04-26 12:57 | 71.43756 | -85.57109 | 30732 ft | 505 kts | 54° |
| 2026-04-26 12:57 | 71.47437 | -85.38320 | 30745 ft | 505 kts | 54° |
| 2026-04-26 12:58 | 71.52934 | -85.09955 | 30724 ft | 505 kts | 54° |
| 2026-04-26 12:58 | 71.56498 | -84.91348 | 30713 ft | 505 kts | 55° |
| 2026-04-26 12:59 | 71.60106 | -84.72342 | 30717 ft | 504 kts | 55° |
| 2026-04-26 12:59 | 71.63690 | -84.53292 | 30713 ft | 503 kts | 55° |
| 2026-04-26 13:00 | 71.67257 | -84.34176 | 30720 ft | 503 kts | 55° |
| 2026-04-26 13:00 | 71.70800 | -84.15001 | 30742 ft | 503 kts | 55° |
| 2026-04-26 13:01 | 71.74264 | -83.96090 | 30704 ft | 504 kts | 56° |
| 2026-04-26 13:01 | 71.77780 | -83.76715 | 30709 ft | 504 kts | 56° |
| 2026-04-26 13:02 | 71.81277 | -83.57260 | 30712 ft | 505 kts | 56° |
| 2026-04-26 13:02 | 71.84756 | -83.37716 | 30681 ft | 504 kts | 56° |
| 2026-04-26 13:03 | 71.88184 | -83.18294 | 30681 ft | 503 kts | 56° |
| 2026-04-26 13:03 | 71.91569 | -82.98934 | 30686 ft | 503 kts | 57° |
| 2026-04-26 13:04 | 71.94979 | -82.79244 | 30668 ft | 503 kts | 56° |
| 2026-04-26 13:04 | 71.98366 | -82.59498 | 30671 ft | 503 kts | 57° |
| 2026-04-26 13:05 | 72.01704 | -82.39842 | 30665 ft | 503 kts | 57° |
| 2026-04-26 13:05 | 72.05049 | -82.19972 | 30655 ft | 503 kts | 57° |
| 2026-04-26 13:06 | 72.08378 | -81.99997 | 30652 ft | 503 kts | 57° |
| 2026-04-26 13:06 | 72.11618 | -81.80367 | 30646 ft | 503 kts | 57° |
| 2026-04-26 13:07 | 72.14902 | -81.60283 | 30671 ft | 503 kts | 57° |
| 2026-04-26 13:07 | 72.18163 | -81.40139 | 30649 ft | 502 kts | 57° |
| 2026-04-26 13:08 | 72.21402 | -81.19924 | 30639 ft | 501 kts | 57° |
| 2026-04-26 13:08 | 72.24601 | -80.99767 | 30632 ft | 501 kts | 58° |
| 2026-04-26 13:09 | 72.27747 | -80.79752 | 30646 ft | 501 kts | 58° |
| 2026-04-26 13:09 | 72.30917 | -80.59375 | 30650 ft | 501 kts | 58° |
| 2026-04-26 13:10 | 72.34068 | -80.38912 | 30637 ft | 502 kts | 58° |
| 2026-04-26 13:10 | 72.37184 | -80.18474 | 30683 ft | 503 kts | 59° |
| 2026-04-26 13:11 | 72.40259 | -79.98089 | 30648 ft | 502 kts | 59° |
| 2026-04-26 13:11 | 72.43344 | -79.77438 | 30652 ft | 500 kts | 59° |
| 2026-04-26 13:12 | 72.46400 | -79.56772 | 30656 ft | 499 kts | 59° |
| 2026-04-26 13:12 | 72.49427 | -79.36082 | 30645 ft | 498 kts | 59° |
| 2026-04-26 13:13 | 72.52410 | -79.15486 | 30656 ft | 497 kts | 59° |
| 2026-04-26 13:13 | 72.55351 | -78.94971 | 30697 ft | 498 kts | 60° |
| 2026-04-26 13:14 | 72.58316 | -78.74065 | 30644 ft | 499 kts | 60° |
| 2026-04-26 13:14 | 72.61264 | -78.53069 | 30626 ft | 500 kts | 60° |
| 2026-04-26 13:15 | 72.64175 | -78.32132 | 30615 ft | 499 kts | 60° |
| 2026-04-26 13:15 | 72.66590 | -78.14572 | 30603 ft | 498 kts | 61° |
| 2026-04-26 13:16 | 72.68976 | -77.88747 | 30610 ft | 507 kts | 75° |
| 2026-04-26 13:16 | 72.69676 | -77.65058 | 30658 ft | 511 kts | 83° |
| 2026-04-26 13:17 | 72.70164 | -77.29385 | 30590 ft | 512 kts | 83° |
| 2026-04-26 13:18 | 72.70664 | -76.93856 | 30608 ft | 512 kts | 83° |
| 2026-04-26 13:19 | 72.71149 | -76.58138 | 30580 ft | 512 kts | 83° |
| 2026-04-26 13:19 | 72.71439 | -76.34200 | 30580 ft | 513 kts | 84° |
| 2026-04-26 13:20 | 72.71698 | -76.10209 | 30546 ft | 513 kts | 84° |
| 2026-04-26 13:20 | 72.71924 | -75.86533 | 30549 ft | 514 kts | 84° |
| 2026-04-26 13:21 | 72.72124 | -75.62693 | 30542 ft | 514 kts | 84° |
| 2026-04-26 13:21 | 72.72296 | -75.38668 | 30539 ft | 514 kts | 85° |
| 2026-04-26 13:22 | 72.72441 | -75.14605 | 30538 ft | 514 kts | 85° |
| 2026-04-26 13:22 | 72.72556 | -74.90849 | 30542 ft | 515 kts | 85° |
| 2026-04-26 13:23 | 72.72643 | -74.66890 | 30558 ft | 515 kts | 85° |
| 2026-04-26 13:23 | 72.72701 | -74.42820 | 30526 ft | 514 kts | 85° |
| 2026-04-26 13:24 | 72.72732 | -74.18802 | 30631 ft | 514 kts | 86° |
| 2026-04-26 13:24 | 72.72738 | -74.06781 | 30814 ft | 514 kts | 86° |
| 2026-04-26 13:24 | 72.72737 | -73.95061 | 31017 ft | 513 kts | 86° |
| 2026-04-26 13:24 | 72.72729 | -73.83068 | 31215 ft | 513 kts | 86° |
| 2026-04-26 13:25 | 72.72713 | -73.71059 | 31400 ft | 514 kts | 86° |
| 2026-04-26 13:25 | 72.72689 | -73.59208 | 31540 ft | 515 kts | 86° |
| 2026-04-26 13:25 | 72.72657 | -73.47152 | 31702 ft | 515 kts | 87° |
| 2026-04-26 13:25 | 72.72617 | -73.35102 | 31890 ft | 515 kts | 87° |
| 2026-04-26 13:26 | 72.72571 | -73.23057 | 32065 ft | 516 kts | 87° |
| 2026-04-26 13:26 | 72.72518 | -73.10962 | 32219 ft | 517 kts | 87° |
| 2026-04-26 13:26 | 72.72460 | -72.99166 | 32393 ft | 517 kts | 88° |
| 2026-04-26 13:26 | 72.72392 | -72.87099 | 32574 ft | 517 kts | 88° |
| 2026-04-26 13:27 | 72.72319 | -72.75159 | 32748 ft | 518 kts | 88° |
| 2026-04-26 13:27 | 72.72238 | -72.63067 | 32937 ft | 518 kts | 88° |
| 2026-04-26 13:27 | 72.72149 | -72.50932 | 33134 ft | 519 kts | 88° |
| 2026-04-26 13:27 | 72.72053 | -72.38801 | 33291 ft | 519 kts | 88° |
| 2026-04-26 13:28 | 72.71950 | -72.26656 | 33471 ft | 520 kts | 88° |
| 2026-04-26 13:28 | 72.71840 | -72.14506 | 33658 ft | 520 kts | 88° |
| 2026-04-26 13:28 | 72.71722 | -72.02354 | 33831 ft | 520 kts | 88° |
| 2026-04-26 13:28 | 72.71599 | -71.90504 | 34004 ft | 521 kts | 89° |
| 2026-04-26 13:29 | 72.71468 | -71.78491 | 34187 ft | 521 kts | 89° |
| 2026-04-26 13:29 | 72.71373 | -71.70250 | 34295 ft | 522 kts | 89° |
| 2026-04-26 13:29 | 72.71179 | -71.54119 | 34524 ft | 522 kts | 89° |
| 2026-04-26 13:29 | 72.71023 | -71.41916 | 34667 ft | 522 kts | 89° |
| 2026-04-26 13:30 | 72.70860 | -71.29733 | 34858 ft | 522 kts | 89° |
| 2026-04-26 13:30 | 72.70690 | -71.17534 | 35051 ft | 522 kts | 89° |
| 2026-04-26 13:30 | 72.70513 | -71.05372 | 35234 ft | 521 kts | 89° |
| 2026-04-26 13:30 | 72.70334 | -70.93522 | 35381 ft | 521 kts | 90° |
| 2026-04-26 13:31 | 72.70145 | -70.81524 | 35536 ft | 521 kts | 90° |
| 2026-04-26 13:31 | 72.69946 | -70.69365 | 35697 ft | 521 kts | 90° |
| 2026-04-26 13:31 | 72.69740 | -70.57219 | 35867 ft | 521 kts | 90° |
| 2026-04-26 13:31 | 72.69526 | -70.45045 | 36009 ft | 521 kts | 90° |
| 2026-04-26 13:32 | 72.69306 | -70.32902 | 36170 ft | 521 kts | 90° |
| 2026-04-26 13:32 | 72.69078 | -70.20767 | 36362 ft | 520 kts | 91° |
| 2026-04-26 13:32 | 72.68843 | -70.08699 | 36655 ft | 517 kts | 91° |
| 2026-04-26 13:32 | 72.68612 | -69.97150 | 36851 ft | 516 kts | 91° |
| 2026-04-26 13:33 | 72.68365 | -69.85129 | 36961 ft | 517 kts | 91° |
| 2026-04-26 13:33 | 72.68111 | -69.73092 | 37065 ft | 517 kts | 91° |
| 2026-04-26 13:33 | 72.67849 | -69.61051 | 37192 ft | 518 kts | 91° |
| 2026-04-26 13:33 | 72.67580 | -69.49016 | 37334 ft | 517 kts | 91° |
| 2026-04-26 13:34 | 72.67303 | -69.36987 | 37444 ft | 517 kts | 91° |
| 2026-04-26 13:34 | 72.67020 | -69.24963 | 37588 ft | 517 kts | 91° |
| 2026-04-26 13:34 | 72.66730 | -69.12939 | 37693 ft | 518 kts | 91° |
| 2026-04-26 13:35 | 72.66139 | -68.89369 | 37927 ft | 517 kts | 92° |
| 2026-04-26 13:35 | 72.65827 | -68.77356 | 38040 ft | 518 kts | 92° |
| 2026-04-26 13:35 | 72.65507 | -68.65326 | 38196 ft | 517 kts | 92° |
| 2026-04-26 13:35 | 72.65180 | -68.53335 | 38338 ft | 517 kts | 92° |
| 2026-04-26 13:36 | 72.64847 | -68.41359 | 38419 ft | 517 kts | 92° |
| 2026-04-26 13:36 | 72.64161 | -68.17428 | 38665 ft | 516 kts | 92° |
| 2026-04-26 13:36 | 72.63812 | -68.05663 | 38898 ft | 513 kts | 93° |
| 2026-04-26 13:37 | 72.63464 | -67.94152 | 39190 ft | 508 kts | 93° |
| 2026-04-26 13:37 | 72.63104 | -67.82467 | 39366 ft | 503 kts | 93° |
| 2026-04-26 13:37 | 72.62740 | -67.70898 | 39337 ft | 496 kts | 93° |
| 2026-04-26 13:38 | 72.62005 | -67.48150 | 39342 ft | 490 kts | 93° |
| 2026-04-26 13:38 | 72.61251 | -67.25473 | 39348 ft | 492 kts | 94° |
| 2026-04-26 13:39 | 72.60472 | -67.02890 | 39347 ft | 493 kts | 94° |
| 2026-04-26 13:39 | 72.59670 | -66.80418 | 39328 ft | 494 kts | 94° |
| 2026-04-26 13:40 | 72.58829 | -66.57636 | 39316 ft | 495 kts | 94° |
| 2026-04-26 13:40 | 72.57960 | -66.34828 | 39310 ft | 495 kts | 94° |
| 2026-04-26 13:41 | 72.57073 | -66.12218 | 39322 ft | 495 kts | 95° |
| 2026-04-26 13:41 | 72.56169 | -65.89819 | 39301 ft | 495 kts | 95° |
| 2026-04-26 13:42 | 72.55227 | -65.67132 | 39307 ft | 494 kts | 95° |
| 2026-04-26 13:42 | 72.54260 | -65.44516 | 39291 ft | 493 kts | 95° |
| 2026-04-26 13:43 | 72.53277 | -65.22130 | 39292 ft | 491 kts | 96° |
| 2026-04-26 13:43 | 72.52269 | -64.99755 | 39293 ft | 490 kts | 96° |
| 2026-04-26 13:44 | 72.51244 | -64.77579 | 39280 ft | 489 kts | 96° |
| 2026-04-26 13:44 | 72.50186 | -64.55256 | 39273 ft | 489 kts | 96° |
| 2026-04-26 13:45 | 72.49111 | -64.33123 | 39273 ft | 488 kts | 97° |
| 2026-04-26 13:45 | 72.48004 | -64.10880 | 39272 ft | 489 kts | 97° |
| 2026-04-26 13:46 | 72.46888 | -63.88942 | 39268 ft | 489 kts | 97° |
| 2026-04-26 13:46 | 72.45729 | -63.66688 | 39266 ft | 490 kts | 97° |
| 2026-04-26 13:47 | 72.44554 | -63.44602 | 39262 ft | 491 kts | 97° |
| 2026-04-26 13:47 | 72.43343 | -63.22363 | 39252 ft | 491 kts | 98° |
| 2026-04-26 13:48 | 72.42105 | -63.00124 | 39248 ft | 492 kts | 98° |
| 2026-04-26 13:48 | 72.40859 | -62.78180 | 39243 ft | 492 kts | 98° |
| 2026-04-26 13:49 | 72.39579 | -62.56111 | 39244 ft | 492 kts | 98° |
| 2026-04-26 13:49 | 72.38264 | -62.33910 | 39243 ft | 493 kts | 99° |
| 2026-04-26 13:50 | 72.36926 | -62.11755 | 39237 ft | 492 kts | 99° |
| 2026-04-26 13:50 | 72.35581 | -61.89936 | 39227 ft | 492 kts | 99° |
| 2026-04-26 13:51 | 72.34206 | -61.68029 | 39228 ft | 491 kts | 99° |
| 2026-04-26 13:51 | 72.32798 | -61.46016 | 39232 ft | 491 kts | 99° |
| 2026-04-26 13:52 | 72.31368 | -61.24087 | 39235 ft | 490 kts | 100° |
| 2026-04-26 13:52 | 72.29914 | -61.02224 | 39211 ft | 489 kts | 100° |
| 2026-04-26 13:53 | 72.28470 | -60.80865 | 39210 ft | 488 kts | 101° |
| 2026-04-26 13:53 | 72.26977 | -60.59160 | 39205 ft | 487 kts | 101° |
| 2026-04-26 13:54 | 72.25461 | -60.37514 | 39213 ft | 487 kts | 101° |
| 2026-04-26 13:54 | 72.23924 | -60.15932 | 39209 ft | 486 kts | 101° |
| 2026-04-26 13:55 | 72.21860 | -59.87525 | 39214 ft | 487 kts | 102° |
| 2026-04-26 13:56 | 72.19195 | -59.51733 | 39198 ft | 488 kts | 102° |
| 2026-04-26 13:56 | 72.17560 | -59.30241 | 39196 ft | 488 kts | 102° |
| 2026-04-26 13:57 | 72.15908 | -59.08874 | 39185 ft | 489 kts | 102° |
| 2026-04-26 13:57 | 72.14245 | -58.87696 | 39186 ft | 489 kts | 103° |
| 2026-04-26 13:58 | 72.12535 | -58.66250 | 39193 ft | 490 kts | 103° |
| 2026-04-26 13:58 | 72.10799 | -58.44824 | 39187 ft | 490 kts | 103° |
| 2026-04-26 13:59 | 72.09051 | -58.23560 | 39186 ft | 490 kts | 103° |
| 2026-04-26 13:59 | 72.07267 | -58.02192 | 39172 ft | 490 kts | 104° |
| 2026-04-26 14:00 | 72.03655 | -57.59839 | 39171 ft | 491 kts | 104° |
| 2026-04-26 14:01 | 72.01818 | -57.38700 | 39180 ft | 491 kts | 105° |
| 2026-04-26 14:01 | 71.99926 | -57.17443 | 39156 ft | 493 kts | 106° |
| 2026-04-26 14:02 | 71.97619 | -56.96879 | 39159 ft | 494 kts | 110° |
| 2026-04-26 14:02 | 71.95167 | -56.76202 | 39157 ft | 494 kts | 109° |
| 2026-04-26 14:03 | 71.92727 | -56.55695 | 39144 ft | 494 kts | 109° |
| 2026-04-26 14:03 | 71.90265 | -56.35059 | 39150 ft | 494 kts | 110° |
| 2026-04-26 14:04 | 71.87795 | -56.14491 | 39133 ft | 493 kts | 110° |
| 2026-04-26 14:04 | 71.85337 | -55.94249 | 39130 ft | 494 kts | 110° |
| 2026-04-26 14:05 | 71.82834 | -55.73891 | 39120 ft | 494 kts | 111° |
| 2026-04-26 14:05 | 71.80288 | -55.53431 | 39121 ft | 495 kts | 111° |
| 2026-04-26 14:06 | 71.77721 | -55.33030 | 39134 ft | 494 kts | 112° |
| 2026-04-26 14:06 | 71.75137 | -55.12706 | 39118 ft | 494 kts | 112° |
| 2026-04-26 14:07 | 71.72589 | -54.92871 | 39108 ft | 492 kts | 112° |
| 2026-04-26 14:07 | 71.69975 | -54.72755 | 39108 ft | 491 kts | 112° |
| 2026-04-26 14:08 | 71.67346 | -54.52743 | 39096 ft | 490 kts | 112° |
| 2026-04-26 14:08 | 71.64700 | -54.32817 | 39102 ft | 490 kts | 113° |
| 2026-04-26 14:09 | 71.62054 | -54.13092 | 39088 ft | 489 kts | 113° |
| 2026-04-26 14:09 | 71.59403 | -53.93534 | 39093 ft | 489 kts | 114° |
| 2026-04-26 14:10 | 71.56695 | -53.73771 | 39097 ft | 490 kts | 114° |
| 2026-04-26 14:10 | 71.53963 | -53.54035 | 39088 ft | 491 kts | 114° |
| 2026-04-26 14:11 | 71.49837 | -53.24604 | 39090 ft | 492 kts | 114° |
| 2026-04-26 14:11 | 71.47044 | -53.04928 | 39092 ft | 493 kts | 115° |
| 2026-04-26 14:12 | 71.44262 | -52.85534 | 39092 ft | 494 kts | 115° |
| 2026-04-26 14:12 | 71.41439 | -52.66045 | 39085 ft | 494 kts | 115° |
| 2026-04-26 14:13 | 71.37131 | -52.36684 | 39085 ft | 495 kts | 115° |
| 2026-04-26 14:14 | 71.34235 | -52.17190 | 39087 ft | 494 kts | 115° |
| 2026-04-26 14:14 | 71.31380 | -51.98157 | 39079 ft | 494 kts | 116° |
| 2026-04-26 14:15 | 71.28453 | -51.78823 | 39080 ft | 493 kts | 116° |
| 2026-04-26 14:15 | 71.25509 | -51.59582 | 39078 ft | 492 kts | 116° |
| 2026-04-26 14:16 | 71.22550 | -51.40420 | 39080 ft | 492 kts | 116° |
| 2026-04-26 14:16 | 71.20075 | -51.24529 | 39081 ft | 492 kts | 116° |
| 2026-04-26 14:17 | 71.16594 | -51.02398 | 39073 ft | 492 kts | 117° |
| 2026-04-26 14:17 | 71.13614 | -50.83638 | 39079 ft | 492 kts | 117° |
| 2026-04-26 14:18 | 71.11091 | -50.67887 | 39074 ft | 493 kts | 117° |
| 2026-04-26 14:18 | 71.08028 | -50.48937 | 39073 ft | 494 kts | 117° |
| 2026-04-26 14:19 | 71.04449 | -50.26994 | 39070 ft | 494 kts | 118° |
| 2026-04-26 14:19 | 71.01872 | -50.11315 | 39052 ft | 494 kts | 118° |
| 2026-04-26 14:20 | 70.98812 | -49.92754 | 39040 ft | 495 kts | 117° |
| 2026-04-26 14:20 | 70.95813 | -49.73779 | 39045 ft | 495 kts | 117° |
| 2026-04-26 14:21 | 70.92345 | -49.51690 | 39036 ft | 496 kts | 117° |
| 2026-04-26 14:21 | 70.89840 | -49.35957 | 39034 ft | 496 kts | 117° |
| 2026-04-26 14:22 | 70.86796 | -49.17080 | 39007 ft | 496 kts | 118° |
| 2026-04-26 14:22 | 70.83767 | -48.98508 | 39016 ft | 495 kts | 118° |
| 2026-04-26 14:23 | 70.80683 | -48.79765 | 39027 ft | 495 kts | 118° |
| 2026-04-26 14:23 | 70.77583 | -48.61091 | 39020 ft | 496 kts | 118° |
| 2026-04-26 14:24 | 70.74479 | -48.42573 | 39005 ft | 496 kts | 119° |
| 2026-04-26 14:24 | 70.71337 | -48.23990 | 39001 ft | 496 kts | 119° |
| 2026-04-26 14:25 | 70.68177 | -48.05459 | 39005 ft | 496 kts | 120° |
| 2026-04-26 14:25 | 70.65032 | -47.87198 | 38987 ft | 496 kts | 120° |
| 2026-04-26 14:26 | 70.61852 | -47.68898 | 39001 ft | 497 kts | 120° |
| 2026-04-26 14:26 | 70.58630 | -47.50514 | 38991 ft | 497 kts | 120° |
| 2026-04-26 14:27 | 70.55391 | -47.32191 | 38978 ft | 497 kts | 120° |
| 2026-04-26 14:27 | 70.52134 | -47.13928 | 38963 ft | 496 kts | 121° |
| 2026-04-26 14:28 | 70.48905 | -46.95988 | 38975 ft | 496 kts | 121° |
| 2026-04-26 14:28 | 70.45642 | -46.78020 | 38965 ft | 495 kts | 121° |
| 2026-04-26 14:29 | 70.42339 | -46.59983 | 38943 ft | 495 kts | 121° |
| 2026-04-26 14:29 | 70.39014 | -46.41983 | 38925 ft | 496 kts | 122° |
| 2026-04-26 14:30 | 70.35697 | -46.24174 | 38905 ft | 496 kts | 122° |
| 2026-04-26 14:30 | 70.32339 | -46.06308 | 38911 ft | 495 kts | 122° |
| 2026-04-26 14:31 | 70.29007 | -45.88724 | 38918 ft | 496 kts | 123° |
| 2026-04-26 14:31 | 70.25609 | -45.70941 | 38914 ft | 496 kts | 123° |
| 2026-04-26 14:32 | 70.22220 | -45.53355 | 38901 ft | 496 kts | 123° |
| 2026-04-26 14:32 | 70.18785 | -45.35674 | 38902 ft | 496 kts | 123° |
| 2026-04-26 14:33 | 70.15335 | -45.18074 | 38883 ft | 496 kts | 123° |
| 2026-04-26 14:33 | 70.11869 | -45.00534 | 38874 ft | 496 kts | 124° |
| 2026-04-26 14:34 | 70.08453 | -44.83387 | 38864 ft | 496 kts | 124° |
| 2026-04-26 14:34 | 70.04952 | -44.65957 | 38865 ft | 496 kts | 124° |
| 2026-04-26 14:35 | 70.01432 | -44.48578 | 38854 ft | 497 kts | 124° |
| 2026-04-26 14:35 | 69.97897 | -44.31261 | 38860 ft | 496 kts | 125° |
| 2026-04-26 14:36 | 69.94348 | -44.14019 | 38844 ft | 496 kts | 125° |
| 2026-04-26 14:36 | 69.90853 | -43.97178 | 38853 ft | 496 kts | 125° |
| 2026-04-26 14:37 | 69.87274 | -43.80061 | 38845 ft | 496 kts | 125° |
| 2026-04-26 14:37 | 69.83676 | -43.62998 | 38847 ft | 496 kts | 125° |
| 2026-04-26 14:38 | 69.80089 | -43.46117 | 38804 ft | 495 kts | 126° |
| 2026-04-26 14:38 | 69.76471 | -43.29223 | 38837 ft | 494 kts | 126° |
| 2026-04-26 14:39 | 69.72838 | -43.12396 | 38843 ft | 494 kts | 126° |
| 2026-04-26 14:39 | 69.69235 | -42.95845 | 38846 ft | 494 kts | 126° |
| 2026-04-26 14:40 | 69.65566 | -42.79110 | 38844 ft | 494 kts | 127° |
| 2026-04-26 14:40 | 69.61907 | -42.62551 | 38847 ft | 494 kts | 127° |
| 2026-04-26 14:41 | 69.58207 | -42.45935 | 38849 ft | 495 kts | 127° |
| 2026-04-26 14:41 | 69.54489 | -42.29366 | 38846 ft | 495 kts | 127° |
| 2026-04-26 14:42 | 69.50753 | -42.12846 | 38847 ft | 495 kts | 127° |
| 2026-04-26 14:42 | 69.47073 | -41.96699 | 38858 ft | 495 kts | 127° |
| 2026-04-26 14:43 | 69.43308 | -41.80297 | 38858 ft | 495 kts | 127° |
| 2026-04-26 14:43 | 69.39527 | -41.63949 | 38859 ft | 494 kts | 128° |
| 2026-04-26 14:44 | 69.35734 | -41.47682 | 38858 ft | 494 kts | 128° |
| 2026-04-26 14:44 | 69.31928 | -41.31472 | 38869 ft | 494 kts | 128° |
| 2026-04-26 14:45 | 69.28131 | -41.15421 | 38869 ft | 495 kts | 128° |
| 2026-04-26 14:45 | 69.24334 | -40.99491 | 38874 ft | 495 kts | 128° |
| 2026-04-26 14:46 | 69.20488 | -40.83470 | 38861 ft | 494 kts | 129° |
| 2026-04-26 14:46 | 69.16625 | -40.67497 | 38871 ft | 494 kts | 129° |
| 2026-04-26 14:47 | 69.12769 | -40.51667 | 38882 ft | 494 kts | 129° |
| 2026-04-26 14:47 | 69.08876 | -40.35802 | 38884 ft | 494 kts | 129° |
| 2026-04-26 14:48 | 69.04969 | -40.19985 | 38873 ft | 494 kts | 129° |
| 2026-04-26 14:48 | 69.01075 | -40.04317 | 38852 ft | 494 kts | 130° |
| 2026-04-26 14:49 | 68.97248 | -39.88751 | 38875 ft | 494 kts | 129° |
| 2026-04-26 14:49 | 68.93461 | -39.72824 | 38887 ft | 493 kts | 128° |
| 2026-04-26 14:50 | 68.89679 | -39.56938 | 38889 ft | 493 kts | 129° |
| 2026-04-26 14:50 | 68.85873 | -39.41146 | 38902 ft | 492 kts | 129° |
| 2026-04-26 14:51 | 68.82071 | -39.25536 | 38873 ft | 492 kts | 129° |
| 2026-04-26 14:51 | 68.78232 | -39.09895 | 38912 ft | 491 kts | 130° |
| 2026-04-26 14:52 | 68.74426 | -38.94508 | 38921 ft | 492 kts | 130° |
| 2026-04-26 14:52 | 68.70556 | -38.78965 | 38921 ft | 492 kts | 130° |
| 2026-04-26 14:53 | 68.66698 | -38.63579 | 38934 ft | 493 kts | 130° |
| 2026-04-26 14:53 | 68.62793 | -38.48116 | 38931 ft | 493 kts | 130° |
| 2026-04-26 14:54 | 68.58878 | -38.32716 | 38943 ft | 492 kts | 130° |
| 2026-04-26 14:54 | 68.54948 | -38.17374 | 38945 ft | 493 kts | 131° |
| 2026-04-26 14:55 | 68.51030 | -38.02182 | 38964 ft | 493 kts | 130° |
| 2026-04-26 14:55 | 68.47120 | -37.87121 | 38968 ft | 493 kts | 131° |
| 2026-04-26 14:56 | 68.43141 | -37.71908 | 38976 ft | 494 kts | 131° |
| 2026-04-26 14:56 | 68.39149 | -37.56749 | 38955 ft | 493 kts | 131° |
| 2026-04-26 14:57 | 68.35175 | -37.41767 | 38982 ft | 493 kts | 132° |
| 2026-04-26 14:57 | 68.31164 | -37.26746 | 38984 ft | 493 kts | 131° |
| 2026-04-26 14:58 | 68.27138 | -37.11772 | 38999 ft | 493 kts | 133° |
| 2026-04-26 14:58 | 68.23153 | -36.97047 | 38990 ft | 493 kts | 132° |
| 2026-04-26 14:59 | 68.19128 | -36.82280 | 38993 ft | 492 kts | 132° |
| 2026-04-26 14:59 | 68.15071 | -36.67494 | 39022 ft | 492 kts | 132° |
| 2026-04-26 15:00 | 68.10994 | -36.52740 | 39059 ft | 492 kts | 132° |
| 2026-04-26 15:00 | 68.06902 | -36.38027 | 39061 ft | 493 kts | 132° |
| 2026-04-26 15:01 | 68.02791 | -36.23344 | 39089 ft | 494 kts | 132° |
| 2026-04-26 15:01 | 67.98691 | -36.08798 | 39038 ft | 494 kts | 132° |
| 2026-04-26 15:02 | 67.94603 | -35.94393 | 39072 ft | 494 kts | 132° |
| 2026-04-26 15:02 | 67.90443 | -35.79834 | 39119 ft | 495 kts | 132° |
| 2026-04-26 15:03 | 67.86265 | -35.65305 | 39143 ft | 496 kts | 133° |
| 2026-04-26 15:03 | 67.82089 | -35.50879 | 39181 ft | 496 kts | 133° |
| 2026-04-26 15:04 | 67.77874 | -35.36408 | 39174 ft | 497 kts | 133° |
| 2026-04-26 15:04 | 67.73646 | -35.21987 | 39188 ft | 496 kts | 132° |
| 2026-04-26 15:05 | 67.69418 | -35.07633 | 39194 ft | 496 kts | 132° |
| 2026-04-26 15:05 | 67.65226 | -34.93490 | 39201 ft | 497 kts | 133° |
| 2026-04-26 15:06 | 67.60987 | -34.79321 | 39200 ft | 497 kts | 133° |
| 2026-04-26 15:06 | 67.56701 | -34.65097 | 39206 ft | 497 kts | 133° |
| 2026-04-26 15:07 | 67.50250 | -34.43853 | 39191 ft | 497 kts | 133° |
| 2026-04-26 15:07 | 67.45941 | -34.29773 | 39186 ft | 497 kts | 133° |
| 2026-04-26 15:08 | 67.41645 | -34.15825 | 39175 ft | 497 kts | 133° |
| 2026-04-26 15:08 | 67.37314 | -34.01854 | 39169 ft | 496 kts | 133° |
| 2026-04-26 15:09 | 67.33017 | -33.88082 | 39136 ft | 496 kts | 133° |
| 2026-04-26 15:09 | 67.28697 | -33.74323 | 39149 ft | 496 kts | 133° |
| 2026-04-26 15:10 | 67.25045 | -33.62761 | 39157 ft | 496 kts | 133° |
| 2026-04-26 15:10 | 67.19957 | -33.46752 | 39140 ft | 497 kts | 134° |
| 2026-04-26 15:11 | 67.15562 | -33.33018 | 39142 ft | 497 kts | 134° |
| 2026-04-26 15:11 | 67.11144 | -33.19301 | 39123 ft | 498 kts | 134° |
| 2026-04-26 15:12 | 67.06742 | -33.05714 | 39108 ft | 498 kts | 134° |
| 2026-04-26 15:12 | 67.02354 | -32.92258 | 39084 ft | 498 kts | 134° |
| 2026-04-26 15:13 | 66.97908 | -32.78707 | 39087 ft | 499 kts | 134° |
| 2026-04-26 15:13 | 66.93437 | -32.65165 | 39048 ft | 499 kts | 134° |
| 2026-04-26 15:14 | 66.88983 | -32.51760 | 39046 ft | 499 kts | 135° |
| 2026-04-26 15:14 | 66.84498 | -32.38336 | 39001 ft | 497 kts | 135° |
| 2026-04-26 15:15 | 66.80007 | -32.25001 | 39005 ft | 496 kts | 135° |
| 2026-04-26 15:15 | 66.75517 | -32.11734 | 38979 ft | 496 kts | 135° |
| 2026-04-26 15:16 | 66.71098 | -31.98745 | 38978 ft | 495 kts | 135° |
| 2026-04-26 15:16 | 66.66594 | -31.85603 | 38956 ft | 495 kts | 135° |
| 2026-04-26 15:17 | 66.62844 | -31.74728 | 38946 ft | 494 kts | 135° |
| 2026-04-26 15:17 | 66.57565 | -31.59521 | 38931 ft | 493 kts | 136° |
| 2026-04-26 15:18 | 66.53040 | -31.46584 | 38924 ft | 493 kts | 136° |
| 2026-04-26 15:18 | 66.48548 | -31.33756 | 38916 ft | 493 kts | 136° |
| 2026-04-26 15:19 | 66.44004 | -31.20921 | 38928 ft | 493 kts | 136° |
| 2026-04-26 15:19 | 66.39451 | -31.08074 | 38889 ft | 494 kts | 136° |
| 2026-04-26 15:20 | 66.34950 | -30.95432 | 38895 ft | 494 kts | 136° |
| 2026-04-26 15:20 | 66.30397 | -30.82746 | 38888 ft | 496 kts | 136° |
| 2026-04-26 15:21 | 66.25793 | -30.70012 | 39115 ft | 494 kts | 136° |
| 2026-04-26 15:21 | 66.23502 | -30.63714 | 39332 ft | 490 kts | 136° |
| 2026-04-26 15:21 | 66.21238 | -30.57482 | 39742 ft | 482 kts | 137° |
| 2026-04-26 15:22 | 66.19027 | -30.51365 | 40249 ft | 472 kts | 136° |
| 2026-04-26 15:22 | 66.16836 | -30.45345 | 40497 ft | 471 kts | 136° |
| 2026-04-26 15:22 | 66.12429 | -30.33419 | 40524 ft | 476 kts | 137° |
| 2026-04-26 15:23 | 66.07936 | -30.21330 | 40577 ft | 480 kts | 136° |
| 2026-04-26 15:23 | 66.03425 | -30.09176 | 40768 ft | 480 kts | 136° |
| 2026-04-26 15:24 | 65.99015 | -29.97384 | 40815 ft | 470 kts | 137° |
| 2026-04-26 15:24 | 65.94560 | -29.85918 | 40810 ft | 467 kts | 138° |
| 2026-04-26 15:25 | 65.90784 | -29.76372 | 40828 ft | 471 kts | 138° |
| 2026-04-26 15:25 | 65.85426 | -29.62857 | 40825 ft | 476 kts | 138° |
| 2026-04-26 15:26 | 65.80797 | -29.51198 | 40834 ft | 480 kts | 138° |
| 2026-04-26 15:26 | 65.76158 | -29.39560 | 40827 ft | 483 kts | 138° |
| 2026-04-26 15:27 | 65.71451 | -29.27816 | 40794 ft | 486 kts | 138° |
| 2026-04-26 15:27 | 65.66715 | -29.16064 | 40816 ft | 488 kts | 138° |
| 2026-04-26 15:28 | 65.61941 | -29.04290 | 40822 ft | 490 kts | 138° |
| 2026-04-26 15:28 | 65.57237 | -28.92752 | 40818 ft | 492 kts | 138° |
| 2026-04-26 15:29 | 65.52408 | -28.80972 | 40820 ft | 494 kts | 139° |
| 2026-04-26 15:30 | 65.42684 | -28.57448 | 40815 ft | 497 kts | 139° |
| 2026-04-26 15:30 | 65.37827 | -28.45797 | 40829 ft | 498 kts | 139° |
| 2026-04-26 15:31 | 65.30449 | -28.28222 | 40828 ft | 499 kts | 139° |
| 2026-04-26 15:32 | 65.23872 | -28.12678 | 40830 ft | 500 kts | 139° |
| 2026-04-26 15:32 | 65.18126 | -27.99190 | 40827 ft | 501 kts | 139° |
| 2026-04-26 15:33 | 65.13186 | -27.87665 | 40826 ft | 501 kts | 139° |
| 2026-04-26 15:33 | 65.08203 | -27.76102 | 40833 ft | 501 kts | 139° |
| 2026-04-26 15:34 | 65.03208 | -27.64576 | 40831 ft | 501 kts | 139° |
| 2026-04-26 15:34 | 64.98201 | -27.53088 | 40825 ft | 501 kts | 139° |
| 2026-04-26 15:35 | 64.93228 | -27.41739 | 40839 ft | 501 kts | 140° |
| 2026-04-26 15:35 | 64.88205 | -27.30338 | 40848 ft | 501 kts | 140° |
| 2026-04-26 15:36 | 64.83181 | -27.18997 | 40844 ft | 501 kts | 140° |
| 2026-04-26 15:36 | 64.78146 | -27.07692 | 40847 ft | 500 kts | 140° |
| 2026-04-26 15:37 | 64.73212 | -26.96673 | 40838 ft | 500 kts | 140° |
| 2026-04-26 15:37 | 64.68173 | -26.85481 | 40853 ft | 499 kts | 140° |
| 2026-04-26 15:38 | 64.63127 | -26.74334 | 40847 ft | 500 kts | 140° |
| 2026-04-26 15:38 | 64.58071 | -26.63226 | 40861 ft | 499 kts | 140° |
| 2026-04-26 15:39 | 64.53014 | -26.52173 | 40863 ft | 499 kts | 140° |
| 2026-04-26 15:39 | 64.48806 | -26.43021 | 40853 ft | 499 kts | 140° |
| 2026-04-26 15:40 | 64.42911 | -26.30267 | 40865 ft | 499 kts | 140° |
| 2026-04-26 15:40 | 64.37830 | -26.19337 | 40870 ft | 499 kts | 140° |
| 2026-04-26 15:41 | 64.32736 | -26.08439 | 40869 ft | 499 kts | 141° |
| 2026-04-26 15:41 | 64.27724 | -25.97770 | 40875 ft | 500 kts | 141° |
| 2026-04-26 15:42 | 64.22611 | -25.86944 | 40868 ft | 500 kts | 141° |
| 2026-04-26 15:42 | 64.17486 | -25.76148 | 40886 ft | 500 kts | 141° |
| 2026-04-26 15:43 | 64.12352 | -25.65392 | 40886 ft | 501 kts | 141° |
| 2026-04-26 15:44 | 64.04658 | -25.49375 | 40886 ft | 501 kts | 141° |
| 2026-04-26 15:44 | 63.96921 | -25.33396 | 40889 ft | 501 kts | 141° |
| 2026-04-26 15:45 | 63.89146 | -25.17461 | 40892 ft | 502 kts | 141° |
| 2026-04-26 15:46 | 63.81375 | -25.01658 | 40898 ft | 503 kts | 141° |
| 2026-04-26 15:46 | 63.77110 | -24.93037 | 40871 ft | 503 kts | 141° |
| 2026-04-26 15:47 | 63.68385 | -24.75514 | 40892 ft | 503 kts | 142° |
| 2026-04-26 15:48 | 63.63179 | -24.65129 | 40897 ft | 504 kts | 142° |
| 2026-04-26 15:48 | 63.57924 | -24.54700 | 40897 ft | 504 kts | 142° |
| 2026-04-26 15:49 | 63.52662 | -24.44311 | 40872 ft | 504 kts | 142° |
| 2026-04-26 15:49 | 63.47389 | -24.33953 | 40892 ft | 504 kts | 142° |
| 2026-04-26 15:50 | 63.42107 | -24.23629 | 40895 ft | 505 kts | 142° |
| 2026-04-26 15:50 | 63.36847 | -24.13402 | 40899 ft | 505 kts | 142° |
| 2026-04-26 15:51 | 63.31542 | -24.03139 | 40896 ft | 505 kts | 142° |
| 2026-04-26 15:51 | 63.26283 | -23.93017 | 40877 ft | 506 kts | 142° |
| 2026-04-26 15:52 | 63.20958 | -23.82817 | 40894 ft | 506 kts | 142° |
| 2026-04-26 15:52 | 63.15655 | -23.72713 | 40897 ft | 506 kts | 142° |
| 2026-04-26 15:53 | 63.10304 | -23.62567 | 40885 ft | 507 kts | 143° |
| 2026-04-26 15:53 | 63.04942 | -23.52452 | 40885 ft | 507 kts | 143° |
| 2026-04-26 15:54 | 62.99582 | -23.42391 | 40880 ft | 507 kts | 143° |
| 2026-04-26 15:54 | 62.94238 | -23.32409 | 40886 ft | 508 kts | 143° |
| 2026-04-26 15:55 | 62.88846 | -23.22389 | 40891 ft | 508 kts | 143° |
| 2026-04-26 15:55 | 62.83440 | -23.12393 | 40887 ft | 509 kts | 143° |
| 2026-04-26 15:56 | 62.78025 | -23.02428 | 40884 ft | 509 kts | 143° |
| 2026-04-26 15:56 | 62.72693 | -22.92666 | 40886 ft | 509 kts | 143° |
| 2026-04-26 15:57 | 62.67260 | -22.82768 | 40892 ft | 510 kts | 143° |
| 2026-04-26 15:57 | 62.61812 | -22.72891 | 40886 ft | 510 kts | 143° |
| 2026-04-26 15:58 | 62.56360 | -22.63056 | 40883 ft | 509 kts | 143° |
| 2026-04-26 15:58 | 62.50942 | -22.53328 | 40869 ft | 509 kts | 143° |
| 2026-04-26 15:59 | 62.45487 | -22.43584 | 40884 ft | 509 kts | 143° |
| 2026-04-26 15:59 | 62.40019 | -22.33864 | 40887 ft | 509 kts | 143° |
| 2026-04-26 16:00 | 62.34546 | -22.24182 | 40884 ft | 509 kts | 143° |
| 2026-04-26 16:00 | 62.29067 | -22.14537 | 40893 ft | 509 kts | 144° |
| 2026-04-26 16:01 | 62.23618 | -22.04991 | 40885 ft | 509 kts | 144° |
| 2026-04-26 16:01 | 62.18175 | -21.95501 | 40913 ft | 509 kts | 144° |
| 2026-04-26 16:02 | 62.12670 | -21.85950 | 40905 ft | 510 kts | 144° |
| 2026-04-26 16:02 | 62.07150 | -21.76418 | 40906 ft | 510 kts | 144° |
| 2026-04-26 16:03 | 62.01623 | -21.66920 | 40905 ft | 511 kts | 144° |
| 2026-04-26 16:03 | 61.96137 | -21.57537 | 40913 ft | 511 kts | 144° |
| 2026-04-26 16:04 | 61.90588 | -21.48092 | 40916 ft | 511 kts | 144° |
| 2026-04-26 16:04 | 61.85032 | -21.38680 | 40921 ft | 511 kts | 144° |
| 2026-04-26 16:05 | 61.79504 | -21.29360 | 40933 ft | 512 kts | 144° |
| 2026-04-26 16:05 | 61.73917 | -21.19987 | 40917 ft | 514 kts | 144° |
| 2026-04-26 16:06 | 61.68316 | -21.10633 | 40932 ft | 514 kts | 144° |
| 2026-04-26 16:06 | 61.62709 | -21.01313 | 40936 ft | 513 kts | 144° |
| 2026-04-26 16:07 | 61.57192 | -20.92187 | 40946 ft | 513 kts | 144° |
| 2026-04-26 16:07 | 61.51575 | -20.82937 | 40950 ft | 514 kts | 144° |
| 2026-04-26 16:08 | 61.45926 | -20.73685 | 40949 ft | 517 kts | 144° |
| 2026-04-26 16:08 | 61.40262 | -20.64445 | 40948 ft | 516 kts | 144° |
| 2026-04-26 16:09 | 61.34648 | -20.55329 | 40954 ft | 514 kts | 145° |
| 2026-04-26 16:09 | 61.29001 | -20.46205 | 40966 ft | 513 kts | 145° |
| 2026-04-26 16:10 | 61.23351 | -20.37119 | 40946 ft | 513 kts | 145° |
| 2026-04-26 16:10 | 61.17705 | -20.28081 | 40967 ft | 512 kts | 145° |
| 2026-04-26 16:11 | 61.12093 | -20.19138 | 40972 ft | 513 kts | 145° |
| 2026-04-26 16:11 | 61.06434 | -20.10160 | 40977 ft | 513 kts | 145° |
| 2026-04-26 16:12 | 61.00768 | -20.01208 | 40963 ft | 513 kts | 144° |
| 2026-04-26 16:12 | 60.92738 | -19.86802 | 40992 ft | 515 kts | 140° |
| 2026-04-26 16:13 | 60.87439 | -19.77008 | 40991 ft | 516 kts | 141° |
| 2026-04-26 16:13 | 60.82077 | -19.67193 | 40999 ft | 517 kts | 141° |
| 2026-04-26 16:14 | 60.76693 | -19.57427 | 40981 ft | 517 kts | 141° |
| 2026-04-26 16:15 | 60.68628 | -19.42899 | 40994 ft | 518 kts | 141° |
| 2026-04-26 16:15 | 60.63209 | -19.33192 | 41004 ft | 519 kts | 141° |
| 2026-04-26 16:16 | 60.55060 | -19.18676 | 40997 ft | 519 kts | 141° |
| 2026-04-26 16:16 | 60.49649 | -19.09092 | 41018 ft | 520 kts | 141° |
| 2026-04-26 16:17 | 60.44247 | -18.99567 | 41013 ft | 520 kts | 141° |
| 2026-04-26 16:17 | 60.38781 | -18.89974 | 41014 ft | 520 kts | 141° |
| 2026-04-26 16:18 | 60.30569 | -18.75646 | 41021 ft | 520 kts | 142° |
| 2026-04-26 16:19 | 60.22384 | -18.61461 | 41028 ft | 520 kts | 142° |
| 2026-04-26 16:20 | 60.14143 | -18.47280 | 41035 ft | 520 kts | 142° |
| 2026-04-26 16:20 | 60.05931 | -18.33242 | 41021 ft | 519 kts | 142° |
| 2026-04-26 16:21 | 60.00429 | -18.23890 | 41034 ft | 519 kts | 142° |
| 2026-04-26 16:21 | 59.94934 | -18.14593 | 41045 ft | 519 kts | 142° |
| 2026-04-26 16:22 | 59.89418 | -18.05301 | 41049 ft | 519 kts | 142° |
| 2026-04-26 16:22 | 59.84002 | -17.96220 | 41048 ft | 519 kts | 142° |
| 2026-04-26 16:23 | 59.78472 | -17.86988 | 41039 ft | 519 kts | 142° |
| 2026-04-26 16:23 | 59.72933 | -17.77782 | 41053 ft | 519 kts | 142° |
| 2026-04-26 16:24 | 59.67387 | -17.68606 | 41052 ft | 520 kts | 142° |
| 2026-04-26 16:24 | 59.61862 | -17.59506 | 41061 ft | 520 kts | 142° |
| 2026-04-26 16:25 | 59.56296 | -17.50378 | 41042 ft | 521 kts | 143° |
| 2026-04-26 16:25 | 59.50719 | -17.41272 | 41067 ft | 521 kts | 143° |
| 2026-04-26 16:26 | 59.46078 | -17.33725 | 41070 ft | 521 kts | 143° |
| 2026-04-26 16:26 | 59.39539 | -17.23140 | 41075 ft | 521 kts | 143° |
| 2026-04-26 16:27 | 59.33964 | -17.14159 | 41081 ft | 523 kts | 143° |
| 2026-04-26 16:27 | 59.28342 | -17.05141 | 41073 ft | 522 kts | 143° |
| 2026-04-26 16:28 | 59.22780 | -16.96257 | 41081 ft | 522 kts | 143° |
| 2026-04-26 16:28 | 59.17159 | -16.87318 | 41104 ft | 522 kts | 143° |
| 2026-04-26 16:29 | 59.11561 | -16.78456 | 41086 ft | 522 kts | 143° |
| 2026-04-26 16:29 | 59.05927 | -16.69576 | 41084 ft | 521 kts | 143° |
| 2026-04-26 16:30 | 59.00291 | -16.60731 | 41094 ft | 521 kts | 143° |
| 2026-04-26 16:30 | 58.94663 | -16.51936 | 41107 ft | 521 kts | 143° |
| 2026-04-26 16:31 | 58.89051 | -16.43206 | 41104 ft | 522 kts | 143° |
| 2026-04-26 16:31 | 58.83388 | -16.34433 | 41088 ft | 521 kts | 144° |
| 2026-04-26 16:32 | 58.78682 | -16.27170 | 41108 ft | 521 kts | 144° |
| 2026-04-26 16:32 | 58.72064 | -16.17002 | 41112 ft | 521 kts | 144° |
| 2026-04-26 16:33 | 58.66437 | -16.08396 | 41114 ft | 521 kts | 144° |
| 2026-04-26 16:33 | 58.60805 | -15.99819 | 41114 ft | 520 kts | 144° |
| 2026-04-26 16:34 | 58.55163 | -15.91263 | 41121 ft | 520 kts | 144° |
| 2026-04-26 16:34 | 58.49479 | -15.82680 | 41124 ft | 520 kts | 144° |
| 2026-04-26 16:35 | 58.43793 | -15.74130 | 41132 ft | 520 kts | 144° |
| 2026-04-26 16:35 | 58.38139 | -15.65665 | 41124 ft | 520 kts | 144° |
| 2026-04-26 16:36 | 58.32438 | -15.57165 | 41123 ft | 520 kts | 144° |
| 2026-04-26 16:36 | 58.26735 | -15.48696 | 41143 ft | 520 kts | 144° |
| 2026-04-26 16:37 | 58.21031 | -15.40262 | 41147 ft | 520 kts | 144° |
| 2026-04-26 16:37 | 58.16273 | -15.33255 | 41144 ft | 521 kts | 144° |
| 2026-04-26 16:38 | 58.09625 | -15.23503 | 41127 ft | 521 kts | 145° |
| 2026-04-26 16:38 | 58.03894 | -15.15136 | 41163 ft | 521 kts | 145° |
| 2026-04-26 16:39 | 57.98156 | -15.06792 | 41140 ft | 522 kts | 145° |
| 2026-04-26 16:39 | 57.92465 | -14.98552 | 41147 ft | 523 kts | 145° |
| 2026-04-26 16:40 | 57.86733 | -14.90284 | 41162 ft | 523 kts | 145° |
| 2026-04-26 16:40 | 57.80949 | -14.81978 | 41165 ft | 523 kts | 145° |
| 2026-04-26 16:41 | 57.75164 | -14.73702 | 41152 ft | 524 kts | 145° |
| 2026-04-26 16:41 | 57.69367 | -14.65446 | 41166 ft | 524 kts | 145° |
| 2026-04-26 16:42 | 57.63605 | -14.57272 | 41147 ft | 523 kts | 145° |
| 2026-04-26 16:42 | 57.57804 | -14.49077 | 41171 ft | 523 kts | 146° |
| 2026-04-26 16:43 | 57.52006 | -14.40919 | 41175 ft | 523 kts | 146° |
| 2026-04-26 16:43 | 57.46194 | -14.32776 | 41172 ft | 522 kts | 146° |
| 2026-04-26 16:44 | 57.40427 | -14.24727 | 41182 ft | 522 kts | 146° |
| 2026-04-26 16:44 | 57.34617 | -14.16652 | 41173 ft | 522 kts | 146° |
| 2026-04-26 16:45 | 57.28805 | -14.08607 | 41183 ft | 522 kts | 146° |
| 2026-04-26 16:45 | 57.22991 | -14.00592 | 41186 ft | 522 kts | 146° |
| 2026-04-26 16:46 | 57.17282 | -13.92753 | 41189 ft | 522 kts | 146° |
| 2026-04-26 16:46 | 57.11455 | -13.84782 | 41183 ft | 522 kts | 146° |
| 2026-04-26 16:47 | 57.05621 | -13.76835 | 41198 ft | 522 kts | 146° |
| 2026-04-26 16:47 | 56.99794 | -13.68929 | 41199 ft | 522 kts | 146° |
| 2026-04-26 16:48 | 56.93983 | -13.61076 | 41217 ft | 523 kts | 146° |
| 2026-04-26 16:48 | 56.88122 | -13.53186 | 41192 ft | 523 kts | 146° |
| 2026-04-26 16:49 | 56.82252 | -13.45317 | 41203 ft | 523 kts | 146° |
| 2026-04-26 16:49 | 56.76389 | -13.37486 | 41209 ft | 523 kts | 147° |
| 2026-04-26 16:50 | 56.70550 | -13.29720 | 41210 ft | 523 kts | 147° |
| 2026-04-26 16:50 | 56.64673 | -13.21934 | 41206 ft | 523 kts | 147° |
| 2026-04-26 16:51 | 56.58794 | -13.14175 | 41213 ft | 522 kts | 147° |
| 2026-04-26 16:51 | 56.52907 | -13.06437 | 41217 ft | 522 kts | 147° |
| 2026-04-26 16:52 | 56.49009 | -13.01329 | 41227 ft | 522 kts | 147° |
| 2026-04-26 16:52 | 56.41240 | -12.91190 | 41222 ft | 522 kts | 147° |
| 2026-04-26 16:53 | 56.35344 | -12.83529 | 41227 ft | 522 kts | 147° |
| 2026-04-26 16:53 | 56.29444 | -12.75893 | 41230 ft | 522 kts | 147° |
| 2026-04-26 16:54 | 56.23538 | -12.68278 | 41236 ft | 522 kts | 147° |
| 2026-04-26 16:54 | 56.18625 | -12.61968 | 41224 ft | 522 kts | 147° |
| 2026-04-26 16:55 | 56.11760 | -12.53182 | 41237 ft | 521 kts | 147° |
| 2026-04-26 16:55 | 56.05851 | -12.45651 | 41241 ft | 521 kts | 147° |
| 2026-04-26 16:56 | 55.96990 | -12.34414 | 41246 ft | 521 kts | 147° |
| 2026-04-26 16:57 | 55.91079 | -12.26952 | 41236 ft | 520 kts | 147° |
| 2026-04-26 16:57 | 55.82256 | -12.15867 | 41249 ft | 520 kts | 147° |
| 2026-04-26 16:58 | 55.78304 | -12.10923 | 41251 ft | 520 kts | 147° |
| 2026-04-26 16:59 | 55.67552 | -11.97534 | 41253 ft | 519 kts | 147° |
| 2026-04-26 17:00 | 55.55759 | -11.82953 | 41252 ft | 519 kts | 147° |
| 2026-04-26 17:00 | 55.46871 | -11.72036 | 41266 ft | 519 kts | 148° |
| 2026-04-26 17:01 | 55.40934 | -11.64778 | 41266 ft | 519 kts | 148° |
| 2026-04-26 17:01 | 55.34996 | -11.57545 | 41263 ft | 519 kts | 148° |
| 2026-04-26 17:02 | 55.29095 | -11.50384 | 41267 ft | 519 kts | 148° |
| 2026-04-26 17:02 | 55.23149 | -11.43195 | 41257 ft | 519 kts | 148° |
| 2026-04-26 17:03 | 55.17203 | -11.36032 | 41269 ft | 519 kts | 148° |
| 2026-04-26 17:03 | 55.11264 | -11.28904 | 41275 ft | 518 kts | 148° |
| 2026-04-26 17:04 | 55.05348 | -11.21830 | 41277 ft | 518 kts | 148° |
| 2026-04-26 17:04 | 54.99409 | -11.14754 | 41264 ft | 518 kts | 148° |
| 2026-04-26 17:05 | 54.93461 | -11.07692 | 41278 ft | 517 kts | 148° |
| 2026-04-26 17:05 | 54.87508 | -11.00651 | 41280 ft | 517 kts | 148° |
| 2026-04-26 17:06 | 54.81626 | -10.93720 | 41279 ft | 517 kts | 148° |
| 2026-04-26 17:06 | 54.75716 | -10.86780 | 41279 ft | 516 kts | 148° |
| 2026-04-26 17:07 | 54.69772 | -10.79824 | 41285 ft | 516 kts | 148° |
| 2026-04-26 17:07 | 54.63827 | -10.72894 | 41284 ft | 515 kts | 148° |
| 2026-04-26 17:08 | 54.57890 | -10.65996 | 41285 ft | 514 kts | 148° |
| 2026-04-26 17:08 | 54.51990 | -10.59166 | 41274 ft | 514 kts | 148° |
| 2026-04-26 17:09 | 54.48023 | -10.54588 | 41286 ft | 513 kts | 148° |
| 2026-04-26 17:09 | 54.40134 | -10.45515 | 41291 ft | 512 kts | 148° |
| 2026-04-26 17:10 | 54.34206 | -10.38725 | 41293 ft | 512 kts | 148° |
| 2026-04-26 17:10 | 54.28316 | -10.32003 | 41292 ft | 512 kts | 148° |
| 2026-04-26 17:11 | 54.22391 | -10.25263 | 41294 ft | 512 kts | 148° |
| 2026-04-26 17:11 | 54.16463 | -10.18544 | 41293 ft | 511 kts | 148° |
| 2026-04-26 17:12 | 54.07556 | -10.08491 | 41292 ft | 512 kts | 148° |
| 2026-04-26 17:13 | 53.98807 | -9.98551 | 41298 ft | 512 kts | 145° |
| 2026-04-26 17:14 | 53.90282 | -9.87603 | 41303 ft | 512 kts | 144° |
| 2026-04-26 17:14 | 53.82728 | -9.77867 | 41285 ft | 512 kts | 144° |
| 2026-04-26 17:15 | 53.73277 | -9.65830 | 41289 ft | 512 kts | 145° |
| 2026-04-26 17:16 | 53.67576 | -9.58616 | 41289 ft | 512 kts | 145° |
| 2026-04-26 17:16 | 53.62837 | -9.52637 | 41282 ft | 512 kts | 145° |
| 2026-04-26 17:17 | 53.57138 | -9.45466 | 41295 ft | 511 kts | 145° |
| 2026-04-26 17:17 | 53.50517 | -9.37166 | 41275 ft | 511 kts | 145° |
| 2026-04-26 17:18 | 53.45784 | -9.31253 | 41295 ft | 510 kts | 145° |
| 2026-04-26 17:18 | 53.40092 | -9.24163 | 41273 ft | 509 kts | 145° |
| 2026-04-26 17:19 | 53.30643 | -9.12448 | 41280 ft | 508 kts | 145° |
| 2026-04-26 17:19 | 53.25886 | -9.06576 | 41279 ft | 507 kts | 145° |
| 2026-04-26 17:20 | 53.21167 | -9.00766 | 41279 ft | 507 kts | 145° |
| 2026-04-26 17:20 | 53.14650 | -8.92770 | 41288 ft | 506 kts | 146° |
| 2026-04-26 17:21 | 53.08974 | -8.85830 | 41286 ft | 506 kts | 146° |
| 2026-04-26 17:21 | 53.03328 | -8.78951 | 41285 ft | 506 kts | 146° |
| 2026-04-26 17:22 | 52.97652 | -8.72058 | 41283 ft | 507 kts | 146° |
| 2026-04-26 17:22 | 52.91956 | -8.65164 | 41273 ft | 507 kts | 146° |
| 2026-04-26 17:23 | 52.86260 | -8.58292 | 41286 ft | 506 kts | 146° |
| 2026-04-26 17:23 | 52.80563 | -8.51443 | 41278 ft | 506 kts | 146° |
| 2026-04-26 17:24 | 52.74863 | -8.44612 | 41276 ft | 506 kts | 146° |
| 2026-04-26 17:24 | 52.69195 | -8.37842 | 41269 ft | 506 kts | 146° |
| 2026-04-26 17:25 | 52.63494 | -8.31054 | 41275 ft | 505 kts | 146° |
| 2026-04-26 17:25 | 52.57789 | -8.24284 | 41273 ft | 505 kts | 146° |
| 2026-04-26 17:26 | 52.52092 | -8.17550 | 41270 ft | 505 kts | 146° |
| 2026-04-26 17:26 | 52.46425 | -8.10878 | 41260 ft | 504 kts | 146° |
| 2026-04-26 17:27 | 52.40726 | -8.04183 | 41266 ft | 504 kts | 146° |
| 2026-04-26 17:27 | 52.35093 | -7.97584 | 41265 ft | 503 kts | 146° |
| 2026-04-26 17:28 | 52.29395 | -7.90932 | 41276 ft | 503 kts | 146° |
| 2026-04-26 17:28 | 52.23703 | -7.84306 | 41257 ft | 502 kts | 146° |
| 2026-04-26 17:29 | 52.18977 | -7.78822 | 41266 ft | 501 kts | 146° |
| 2026-04-26 17:29 | 52.12374 | -7.71184 | 41266 ft | 501 kts | 146° |
| 2026-04-26 17:30 | 52.06694 | -7.64637 | 41270 ft | 500 kts | 146° |
| 2026-04-26 17:30 | 52.01013 | -7.58109 | 41260 ft | 500 kts | 146° |
| 2026-04-26 17:31 | 51.95390 | -7.51669 | 41268 ft | 499 kts | 146° |
| 2026-04-26 17:31 | 51.89714 | -7.45188 | 41268 ft | 499 kts | 146° |
| 2026-04-26 17:32 | 51.84041 | -7.38731 | 41273 ft | 499 kts | 147° |
| 2026-04-26 17:32 | 51.78364 | -7.32289 | 41267 ft | 498 kts | 147° |
| 2026-04-26 17:33 | 51.72688 | -7.25868 | 41277 ft | 498 kts | 147° |
| 2026-04-26 17:34 | 51.64220 | -7.16327 | 41279 ft | 497 kts | 147° |
| 2026-04-26 17:34 | 51.58544 | -7.09958 | 41266 ft | 497 kts | 147° |
| 2026-04-26 17:35 | 51.52878 | -7.03617 | 41275 ft | 496 kts | 147° |
| 2026-04-26 17:35 | 51.47310 | -6.97406 | 41278 ft | 496 kts | 147° |
| 2026-04-26 17:36 | 51.41642 | -6.91104 | 41275 ft | 496 kts | 147° |
| 2026-04-26 17:36 | 51.35971 | -6.84816 | 41272 ft | 496 kts | 147° |
| 2026-04-26 17:37 | 51.30300 | -6.78549 | 41279 ft | 495 kts | 147° |
| 2026-04-26 17:37 | 51.24629 | -6.72300 | 41280 ft | 495 kts | 147° |
| 2026-04-26 17:38 | 51.16157 | -6.63000 | 41277 ft | 495 kts | 147° |
| 2026-04-26 17:38 | 51.10484 | -6.56797 | 41287 ft | 494 kts | 147° |
| 2026-04-26 17:39 | 51.04811 | -6.50612 | 41268 ft | 494 kts | 147° |
| 2026-04-26 17:39 | 50.99190 | -6.44502 | 41266 ft | 494 kts | 147° |
| 2026-04-26 17:40 | 50.94444 | -6.39357 | 41278 ft | 493 kts | 148° |
| 2026-04-26 17:40 | 50.87856 | -6.32238 | 41278 ft | 493 kts | 148° |
| 2026-04-26 17:41 | 50.82190 | -6.26135 | 41282 ft | 493 kts | 148° |
| 2026-04-26 17:41 | 50.76515 | -6.20039 | 41280 ft | 493 kts | 148° |
| 2026-04-26 17:42 | 50.70881 | -6.14006 | 41256 ft | 493 kts | 148° |
| 2026-04-26 17:42 | 50.65206 | -6.07948 | 41276 ft | 493 kts | 148° |
| 2026-04-26 17:43 | 50.59526 | -6.01902 | 41268 ft | 492 kts | 148° |
| 2026-04-26 17:43 | 50.53907 | -5.95938 | 41266 ft | 492 kts | 148° |
| 2026-04-26 17:44 | 50.48231 | -5.89931 | 41256 ft | 492 kts | 148° |
| 2026-04-26 17:44 | 50.42595 | -5.83984 | 41265 ft | 491 kts | 148° |
| 2026-04-26 17:45 | 50.36919 | -5.78013 | 41264 ft | 491 kts | 148° |
| 2026-04-26 17:45 | 50.31244 | -5.72060 | 41261 ft | 491 kts | 148° |
| 2026-04-26 17:46 | 50.25563 | -5.66118 | 41251 ft | 491 kts | 148° |
| 2026-04-26 17:46 | 50.19889 | -5.60201 | 41247 ft | 491 kts | 148° |
| 2026-04-26 17:47 | 50.15168 | -5.55292 | 41245 ft | 491 kts | 148° |
| 2026-04-26 17:47 | 50.08562 | -5.48441 | 41236 ft | 491 kts | 148° |
| 2026-04-26 17:48 | 50.02875 | -5.42560 | 41235 ft | 491 kts | 148° |
| 2026-04-26 17:48 | 49.97197 | -5.36707 | 41242 ft | 491 kts | 148° |
| 2026-04-26 17:49 | 49.91541 | -5.30894 | 41242 ft | 491 kts | 148° |
| 2026-04-26 17:49 | 49.85846 | -5.25056 | 41243 ft | 491 kts | 148° |
| 2026-04-26 17:50 | 49.80151 | -5.19236 | 41236 ft | 491 kts | 148° |
| 2026-04-26 17:50 | 49.74486 | -5.13463 | 41240 ft | 491 kts | 148° |
| 2026-04-26 17:51 | 49.68787 | -5.07671 | 41237 ft | 491 kts | 149° |
| 2026-04-26 17:51 | 49.63079 | -5.01887 | 41224 ft | 491 kts | 149° |
| 2026-04-26 17:52 | 49.57439 | -4.96188 | 41239 ft | 491 kts | 149° |
| 2026-04-26 17:52 | 49.51725 | -4.90431 | 41236 ft | 491 kts | 149° |
| 2026-04-26 17:53 | 49.46043 | -4.84722 | 41231 ft | 491 kts | 149° |
| 2026-04-26 17:54 | 49.37462 | -4.76130 | 41227 ft | 491 kts | 149° |
| 2026-04-26 17:54 | 49.31733 | -4.70414 | 41226 ft | 491 kts | 149° |
| 2026-04-26 17:55 | 49.26000 | -4.64711 | 41226 ft | 491 kts | 149° |
| 2026-04-26 17:55 | 49.20308 | -4.59064 | 41209 ft | 491 kts | 149° |
| 2026-04-26 17:56 | 49.14572 | -4.53389 | 41222 ft | 491 kts | 149° |
| 2026-04-26 17:57 | 49.03092 | -4.42079 | 41221 ft | 491 kts | 149° |
| 2026-04-26 17:57 | 48.97401 | -4.36496 | 41206 ft | 491 kts | 149° |
| 2026-04-26 17:58 | 48.85903 | -4.25261 | 41217 ft | 491 kts | 149° |
| 2026-04-26 17:59 | 48.77271 | -4.16869 | 41212 ft | 491 kts | 149° |
| 2026-04-26 17:59 | 48.71545 | -4.11321 | 41211 ft | 492 kts | 150° |
| 2026-04-26 18:00 | 48.65781 | -4.05751 | 41211 ft | 491 kts | 150° |
| 2026-04-26 18:00 | 48.60017 | -4.00196 | 41211 ft | 492 kts | 150° |
| 2026-04-26 18:01 | 48.54306 | -3.94708 | 41178 ft | 492 kts | 150° |
| 2026-04-26 18:01 | 48.48574 | -3.89215 | 41197 ft | 492 kts | 150° |
| 2026-04-26 18:02 | 48.43736 | -3.84590 | 41192 ft | 492 kts | 150° |
| 2026-04-26 18:02 | 48.37011 | -3.78178 | 41187 ft | 493 kts | 150° |
| 2026-04-26 18:03 | 48.31215 | -3.72668 | 41193 ft | 493 kts | 150° |
| 2026-04-26 18:03 | 48.25451 | -3.67204 | 41193 ft | 494 kts | 150° |
| 2026-04-26 18:04 | 48.19640 | -3.61710 | 41197 ft | 494 kts | 150° |
| 2026-04-26 18:05 | 48.10913 | -3.53487 | 41191 ft | 494 kts | 150° |
| 2026-04-26 18:05 | 48.05083 | -3.48013 | 41203 ft | 496 kts | 150° |
| 2026-04-26 18:06 | 47.99267 | -3.42568 | 41181 ft | 498 kts | 150° |
| 2026-04-26 18:06 | 47.93404 | -3.37092 | 41177 ft | 496 kts | 150° |
| 2026-04-26 18:07 | 47.87556 | -3.31643 | 41187 ft | 495 kts | 150° |
| 2026-04-26 18:07 | 47.81717 | -3.26219 | 41184 ft | 495 kts | 150° |
| 2026-04-26 18:08 | 47.75915 | -3.20844 | 41197 ft | 495 kts | 150° |
| 2026-04-26 18:08 | 47.70064 | -3.15438 | 41191 ft | 495 kts | 150° |
| 2026-04-26 18:09 | 47.64215 | -3.10048 | 41191 ft | 495 kts | 150° |
| 2026-04-26 18:09 | 47.58373 | -3.04678 | 41195 ft | 495 kts | 150° |
| 2026-04-26 18:10 | 47.52633 | -2.99417 | 41187 ft | 495 kts | 151° |
| 2026-04-26 18:10 | 47.46774 | -2.94061 | 41195 ft | 495 kts | 151° |
| 2026-04-26 18:11 | 47.41066 | -2.88856 | 41189 ft | 495 kts | 150° |
| 2026-04-26 18:11 | 47.35191 | -2.83514 | 41192 ft | 496 kts | 150° |
| 2026-04-26 18:12 | 47.29356 | -2.78221 | 41184 ft | 496 kts | 150° |
| 2026-04-26 18:12 | 47.23476 | -2.72901 | 41187 ft | 497 kts | 150° |
| 2026-04-26 18:13 | 47.17577 | -2.67579 | 41184 ft | 497 kts | 151° |
| 2026-04-26 18:13 | 47.11678 | -2.62270 | 41182 ft | 498 kts | 151° |
| 2026-04-26 18:14 | 47.05767 | -2.56965 | 41187 ft | 498 kts | 151° |
| 2026-04-26 18:14 | 46.99903 | -2.51715 | 41185 ft | 498 kts | 151° |
| 2026-04-26 18:15 | 46.93986 | -2.46432 | 41176 ft | 498 kts | 151° |
| 2026-04-26 18:15 | 46.88065 | -2.41159 | 41182 ft | 499 kts | 150° |
| 2026-04-26 18:16 | 46.82134 | -2.35891 | 41190 ft | 499 kts | 151° |
| 2026-04-26 18:16 | 46.73264 | -2.28039 | 41185 ft | 500 kts | 151° |
| 2026-04-26 18:17 | 46.67314 | -2.22788 | 41185 ft | 500 kts | 151° |
| 2026-04-26 18:17 | 46.61361 | -2.17549 | 41191 ft | 500 kts | 151° |
| 2026-04-26 18:18 | 46.55406 | -2.12322 | 41185 ft | 500 kts | 151° |
| 2026-04-26 18:18 | 46.49489 | -2.07141 | 41180 ft | 500 kts | 151° |
| 2026-04-26 18:19 | 46.43532 | -2.01939 | 41183 ft | 500 kts | 151° |
| 2026-04-26 18:19 | 46.37655 | -1.96818 | 41180 ft | 500 kts | 151° |
| 2026-04-26 18:20 | 46.31691 | -1.91637 | 41178 ft | 500 kts | 151° |
| 2026-04-26 18:20 | 46.26731 | -1.87338 | 41181 ft | 500 kts | 151° |
| 2026-04-26 18:21 | 46.19789 | -1.81336 | 41182 ft | 500 kts | 151° |
| 2026-04-26 18:21 | 46.13814 | -1.76184 | 41175 ft | 501 kts | 151° |
| 2026-04-26 18:22 | 46.07836 | -1.71043 | 41182 ft | 501 kts | 151° |
| 2026-04-26 18:22 | 46.01851 | -1.65909 | 41183 ft | 501 kts | 151° |
| 2026-04-26 18:23 | 45.95872 | -1.60793 | 41174 ft | 501 kts | 151° |
| 2026-04-26 18:23 | 45.89920 | -1.55714 | 41176 ft | 501 kts | 151° |
| 2026-04-26 18:24 | 45.83922 | -1.50608 | 41181 ft | 501 kts | 151° |
| 2026-04-26 18:24 | 45.77918 | -1.45510 | 41180 ft | 502 kts | 151° |
| 2026-04-26 18:25 | 45.71903 | -1.40415 | 41178 ft | 502 kts | 151° |
| 2026-04-26 18:25 | 45.65924 | -1.35363 | 41177 ft | 503 kts | 151° |
| 2026-04-26 18:26 | 45.59904 | -1.30290 | 41177 ft | 503 kts | 151° |
| 2026-04-26 18:26 | 45.53878 | -1.25224 | 41170 ft | 503 kts | 151° |
| 2026-04-26 18:27 | 45.47851 | -1.20170 | 41176 ft | 503 kts | 151° |
| 2026-04-26 18:27 | 45.41856 | -1.15156 | 41176 ft | 503 kts | 151° |
| 2026-04-26 18:28 | 45.35822 | -1.10121 | 41166 ft | 503 kts | 151° |
| 2026-04-26 18:28 | 45.29787 | -1.05099 | 41161 ft | 503 kts | 151° |
| 2026-04-26 18:29 | 45.23749 | -1.00086 | 41174 ft | 503 kts | 151° |
| 2026-04-26 18:29 | 45.17825 | -0.95180 | 41155 ft | 503 kts | 151° |
| 2026-04-26 18:30 | 45.11786 | -0.90191 | 41164 ft | 503 kts | 151° |
| 2026-04-26 18:30 | 45.05745 | -0.85213 | 41169 ft | 502 kts | 151° |
| 2026-04-26 18:31 | 44.99714 | -0.80256 | 41167 ft | 502 kts | 151° |
| 2026-04-26 18:31 | 44.93674 | -0.75303 | 41153 ft | 502 kts | 151° |
| 2026-04-26 18:32 | 44.87675 | -0.70395 | 41158 ft | 502 kts | 151° |
| 2026-04-26 18:32 | 44.81632 | -0.65464 | 41161 ft | 502 kts | 151° |
| 2026-04-26 18:33 | 44.75592 | -0.60547 | 41160 ft | 502 kts | 151° |
| 2026-04-26 18:33 | 44.69589 | -0.55673 | 41154 ft | 502 kts | 151° |
| 2026-04-26 18:34 | 44.63544 | -0.50776 | 41151 ft | 501 kts | 151° |
| 2026-04-26 18:34 | 44.57498 | -0.45889 | 41150 ft | 501 kts | 151° |
| 2026-04-26 18:35 | 44.51453 | -0.41017 | 41148 ft | 501 kts | 151° |
| 2026-04-26 18:35 | 44.45405 | -0.36153 | 41147 ft | 501 kts | 151° |
| 2026-04-26 18:36 | 44.39396 | -0.31332 | 41143 ft | 501 kts | 151° |
| 2026-04-26 18:36 | 44.33347 | -0.26490 | 41143 ft | 501 kts | 151° |
| 2026-04-26 18:37 | 44.27300 | -0.21661 | 41149 ft | 501 kts | 151° |
| 2026-04-26 18:37 | 44.21254 | -0.16845 | 41146 ft | 501 kts | 151° |
| 2026-04-26 18:38 | 44.15246 | -0.12070 | 41147 ft | 500 kts | 151° |
| 2026-04-26 18:38 | 44.09197 | -0.07272 | 41148 ft | 500 kts | 151° |
| 2026-04-26 18:39 | 44.03145 | -0.02491 | 41141 ft | 500 kts | 153° |
| 2026-04-26 18:39 | 43.96890 | 0.01343 | 41145 ft | 498 kts | 163° |
| 2026-04-26 18:40 | 43.90234 | 0.03972 | 41150 ft | 497 kts | 166° |
| 2026-04-26 18:40 | 43.83595 | 0.06498 | 41149 ft | 498 kts | 166° |
| 2026-04-26 18:41 | 43.76919 | 0.09079 | 41144 ft | 499 kts | 165° |
| 2026-04-26 18:41 | 43.70241 | 0.11691 | 41145 ft | 499 kts | 165° |
| 2026-04-26 18:42 | 43.63555 | 0.14309 | 41152 ft | 499 kts | 165° |
| 2026-04-26 18:42 | 43.56912 | 0.16904 | 41145 ft | 500 kts | 165° |
| 2026-04-26 18:43 | 43.50216 | 0.19511 | 41149 ft | 500 kts | 165° |
| 2026-04-26 18:43 | 43.43516 | 0.22112 | 41152 ft | 500 kts | 165° |
| 2026-04-26 18:44 | 43.36810 | 0.24710 | 41155 ft | 501 kts | 165° |
| 2026-04-26 18:44 | 43.30146 | 0.27286 | 41157 ft | 501 kts | 165° |
| 2026-04-26 18:45 | 43.23428 | 0.29877 | 41165 ft | 501 kts | 165° |
| 2026-04-26 18:45 | 43.16708 | 0.32462 | 41167 ft | 502 kts | 165° |
| 2026-04-26 18:46 | 43.09989 | 0.35041 | 41181 ft | 502 kts | 165° |
| 2026-04-26 18:46 | 43.03312 | 0.37599 | 41175 ft | 502 kts | 165° |
| 2026-04-26 18:47 | 42.96591 | 0.40167 | 41187 ft | 503 kts | 165° |
| 2026-04-26 18:47 | 42.89849 | 0.42737 | 41186 ft | 504 kts | 165° |
| 2026-04-26 18:48 | 42.83135 | 0.45291 | 41191 ft | 504 kts | 165° |
| 2026-04-26 18:48 | 42.76383 | 0.47855 | 41190 ft | 504 kts | 165° |
| 2026-04-26 18:49 | 42.69624 | 0.50414 | 41194 ft | 504 kts | 165° |
| 2026-04-26 18:49 | 42.62859 | 0.52970 | 41193 ft | 504 kts | 165° |
| 2026-04-26 18:50 | 42.56091 | 0.55521 | 41187 ft | 505 kts | 165° |
| 2026-04-26 18:50 | 42.49373 | 0.58048 | 41173 ft | 504 kts | 165° |
| 2026-04-26 18:51 | 42.42617 | 0.60584 | 41164 ft | 503 kts | 165° |
| 2026-04-26 18:51 | 42.35875 | 0.63109 | 41156 ft | 502 kts | 165° |
| 2026-04-26 18:52 | 42.29143 | 0.65624 | 41151 ft | 502 kts | 165° |
| 2026-04-26 18:52 | 42.22422 | 0.68129 | 41144 ft | 501 kts | 165° |
| 2026-04-26 18:53 | 42.15755 | 0.70609 | 41133 ft | 500 kts | 166° |
| 2026-04-26 18:53 | 42.09042 | 0.73101 | 41123 ft | 500 kts | 166° |
| 2026-04-26 18:54 | 42.02340 | 0.75583 | 41109 ft | 500 kts | 166° |
| 2026-04-26 18:54 | 41.95641 | 0.78058 | 41118 ft | 499 kts | 166° |
| 2026-04-26 18:55 | 41.88945 | 0.80527 | 41110 ft | 499 kts | 166° |
| 2026-04-26 18:55 | 41.82290 | 0.82977 | 41106 ft | 499 kts | 166° |
| 2026-04-26 18:56 | 41.75595 | 0.85434 | 41101 ft | 499 kts | 166° |
| 2026-04-26 18:56 | 41.68900 | 0.87887 | 41107 ft | 498 kts | 166° |
| 2026-04-26 18:57 | 41.63347 | 0.89917 | 41107 ft | 498 kts | 166° |
| 2026-04-26 18:57 | 41.55580 | 0.92751 | 41115 ft | 498 kts | 166° |
| 2026-04-26 18:58 | 41.48900 | 0.95183 | 41124 ft | 498 kts | 166° |
| 2026-04-26 18:58 | 41.42213 | 0.97612 | 41125 ft | 498 kts | 166° |
| 2026-04-26 18:59 | 41.35566 | 1.00021 | 41132 ft | 498 kts | 166° |
| 2026-04-26 18:59 | 41.28995 | 1.02397 | 41125 ft | 498 kts | 166° |
| 2026-04-26 19:00 | 41.22307 | 1.04811 | 41132 ft | 498 kts | 166° |
| 2026-04-26 19:00 | 41.15613 | 1.07222 | 41128 ft | 499 kts | 166° |
| 2026-04-26 19:01 | 41.08913 | 1.09630 | 41128 ft | 499 kts | 166° |
| 2026-04-26 19:01 | 41.02258 | 1.12017 | 41134 ft | 499 kts | 166° |
| 2026-04-26 19:02 | 40.95563 | 1.14413 | 41136 ft | 499 kts | 166° |
| 2026-04-26 19:02 | 40.89983 | 1.16407 | 41135 ft | 499 kts | 166° |
| 2026-04-26 19:03 | 40.82143 | 1.19202 | 41143 ft | 500 kts | 166° |
| 2026-04-26 19:03 | 40.75424 | 1.21593 | 41144 ft | 500 kts | 166° |
| 2026-04-26 19:04 | 40.68709 | 1.23682 | 41145 ft | 498 kts | 173° |
| 2026-04-26 19:04 | 40.61836 | 1.24844 | 41151 ft | 498 kts | 174° |
| 2026-04-26 19:05 | 40.51506 | 1.26485 | 41144 ft | 499 kts | 174° |
| 2026-04-26 19:06 | 40.44619 | 1.27627 | 41138 ft | 499 kts | 174° |
| 2026-04-26 19:06 | 40.37772 | 1.28780 | 41145 ft | 499 kts | 174° |
| 2026-04-26 19:07 | 40.30877 | 1.29940 | 41137 ft | 500 kts | 174° |
| 2026-04-26 19:07 | 40.23983 | 1.31095 | 41130 ft | 500 kts | 174° |
| 2026-04-26 19:08 | 40.17078 | 1.32249 | 41139 ft | 500 kts | 174° |
| 2026-04-26 19:08 | 40.10228 | 1.33390 | 41144 ft | 500 kts | 174° |
| 2026-04-26 19:09 | 40.03319 | 1.34539 | 41143 ft | 500 kts | 174° |
| 2026-04-26 19:09 | 39.96410 | 1.35686 | 41135 ft | 501 kts | 174° |
| 2026-04-26 19:10 | 39.89496 | 1.36831 | 41139 ft | 501 kts | 174° |
| 2026-04-26 19:10 | 39.82622 | 1.37968 | 41139 ft | 501 kts | 174° |
| 2026-04-26 19:11 | 39.75703 | 1.39109 | 41133 ft | 502 kts | 174° |
| 2026-04-26 19:11 | 39.68774 | 1.40250 | 41139 ft | 502 kts | 174° |
| 2026-04-26 19:12 | 39.61847 | 1.41389 | 41142 ft | 502 kts | 174° |
| 2026-04-26 19:12 | 39.54968 | 1.42517 | 41134 ft | 502 kts | 174° |
| 2026-04-26 19:13 | 39.48038 | 1.43651 | 41139 ft | 502 kts | 174° |
| 2026-04-26 19:13 | 39.41117 | 1.44781 | 41137 ft | 501 kts | 174° |
| 2026-04-26 19:14 | 39.34193 | 1.45910 | 41134 ft | 501 kts | 174° |
| 2026-04-26 19:14 | 39.27321 | 1.47028 | 41141 ft | 501 kts | 174° |
| 2026-04-26 19:15 | 39.20406 | 1.48151 | 41141 ft | 501 kts | 174° |
| 2026-04-26 19:15 | 39.13489 | 1.49272 | 41139 ft | 501 kts | 174° |
| 2026-04-26 19:16 | 39.06576 | 1.50390 | 41137 ft | 501 kts | 174° |
| 2026-04-26 19:16 | 38.99727 | 1.51496 | 41131 ft | 501 kts | 174° |
| 2026-04-26 19:17 | 38.92808 | 1.52611 | 41135 ft | 501 kts | 174° |
| 2026-04-26 19:17 | 38.85905 | 1.53853 | 41126 ft | 502 kts | 169° |
| 2026-04-26 19:18 | 38.79287 | 1.56742 | 41133 ft | 505 kts | 157° |
| 2026-04-26 19:18 | 38.73230 | 1.61215 | 41135 ft | 507 kts | 149° |
| 2026-04-26 19:19 | 38.67265 | 1.66025 | 41133 ft | 507 kts | 150° |
| 2026-04-26 19:19 | 38.61256 | 1.70751 | 41125 ft | 507 kts | 150° |
| 2026-04-26 19:20 | 38.55232 | 1.75429 | 41141 ft | 507 kts | 150° |
| 2026-04-26 19:20 | 38.49195 | 1.80108 | 41141 ft | 507 kts | 150° |
| 2026-04-26 19:21 | 38.43199 | 1.84748 | 41132 ft | 508 kts | 150° |
| 2026-04-26 19:21 | 38.37156 | 1.89418 | 41120 ft | 508 kts | 150° |
| 2026-04-26 19:22 | 38.31110 | 1.94080 | 41122 ft | 508 kts | 151° |
| 2026-04-26 19:22 | 38.25070 | 1.98734 | 41132 ft | 508 kts | 151° |
| 2026-04-26 19:23 | 38.19152 | 2.03288 | 41117 ft | 507 kts | 151° |
| 2026-04-26 19:23 | 38.16191 | 2.05567 | 40741 ft | 485 kts | 151° |
| 2026-04-26 19:23 | 38.13351 | 2.07752 | 39778 ft | 473 kts | 150° |
| 2026-04-26 19:23 | 38.10540 | 2.09908 | 38348 ft | 471 kts | 150° |
| 2026-04-26 19:24 | 38.07740 | 2.12051 | 36606 ft | 470 kts | 150° |
| 2026-04-26 19:24 | 38.04955 | 2.14181 | 35007 ft | 464 kts | 149° |
| 2026-04-26 19:24 | 37.99558 | 2.18303 | 31365 ft | 452 kts | 148° |
| 2026-04-26 19:25 | 37.96882 | 2.20346 | 29526 ft | 446 kts | 147° |
| 2026-04-26 19:25 | 37.95986 | 2.21029 | 28925 ft | 443 kts | 147° |
| 2026-04-26 19:25 | 37.91768 | 2.24244 | 27507 ft | 400 kts | 147° |
| 2026-04-26 19:25 | 37.89456 | 2.26005 | 26950 ft | 377 kts | 147° |
| 2026-04-26 19:26 | 37.87257 | 2.27681 | 26434 ft | 363 kts | 147° |
| 2026-04-26 19:26 | 37.85095 | 2.29329 | 25935 ft | 366 kts | 147° |
| 2026-04-26 19:26 | 37.82870 | 2.31023 | 25428 ft | 379 kts | 147° |
| 2026-04-26 19:26 | 37.80521 | 2.32662 | 24894 ft | 392 kts | 153° |
| 2026-04-26 19:27 | 37.77998 | 2.33974 | 24332 ft | 404 kts | 160° |
| 2026-04-26 19:27 | 37.75289 | 2.35085 | 23735 ft | 413 kts | 161° |
| 2026-04-26 19:27 | 37.72530 | 2.36195 | 23052 ft | 415 kts | 160° |
| 2026-04-26 19:27 | 37.69842 | 2.37274 | 22426 ft | 394 kts | 161° |
| 2026-04-26 19:28 | 37.67316 | 2.38290 | 21895 ft | 370 kts | 162° |
| 2026-04-26 19:28 | 37.64910 | 2.39263 | 21391 ft | 358 kts | 161° |
| 2026-04-26 19:28 | 37.62517 | 2.40236 | 20925 ft | 367 kts | 161° |
| 2026-04-26 19:28 | 37.60048 | 2.41244 | 20424 ft | 380 kts | 162° |
| 2026-04-26 19:29 | 37.57533 | 2.42270 | 19902 ft | 390 kts | 161° |
| 2026-04-26 19:29 | 37.54966 | 2.43318 | 19392 ft | 385 kts | 161° |
| 2026-04-26 19:29 | 37.52459 | 2.44341 | 18843 ft | 371 kts | 161° |
| 2026-04-26 19:29 | 37.50049 | 2.45323 | 18333 ft | 358 kts | 161° |
| 2026-04-26 19:30 | 37.47714 | 2.46275 | 17794 ft | 348 kts | 162° |
| 2026-04-26 19:30 | 37.45417 | 2.47212 | 17323 ft | 348 kts | 162° |
| 2026-04-26 19:30 | 37.43070 | 2.48169 | 16857 ft | 365 kts | 163° |
| 2026-04-26 19:30 | 37.41451 | 2.48825 | 16526 ft | 374 kts | 163° |
| 2026-04-26 19:31 | 37.38206 | 2.50146 | 15840 ft | 362 kts | 163° |
| 2026-04-26 19:31 | 37.35861 | 2.51100 | 15355 ft | 347 kts | 163° |
| 2026-04-26 19:31 | 37.33606 | 2.52017 | 14901 ft | 335 kts | 163° |
| 2026-04-26 19:31 | 37.31409 | 2.52911 | 14459 ft | 330 kts | 164° |
| 2026-04-26 19:32 | 37.29197 | 2.53806 | 14010 ft | 342 kts | 164° |
| 2026-04-26 19:32 | 37.26864 | 2.54746 | 13478 ft | 359 kts | 164° |
| 2026-04-26 19:32 | 37.24504 | 2.55700 | 12938 ft | 351 kts | 164° |
| 2026-04-26 19:32 | 37.22226 | 2.56626 | 12449 ft | 336 kts | 164° |
| 2026-04-26 19:33 | 37.20086 | 2.57495 | 11982 ft | 321 kts | 164° |
| 2026-04-26 19:33 | 37.17992 | 2.58343 | 11550 ft | 314 kts | 164° |
| 2026-04-26 19:33 | 37.15866 | 2.59198 | 11130 ft | 330 kts | 163° |
| 2026-04-26 19:33 | 37.13638 | 2.60095 | 10841 ft | 337 kts | 163° |
| 2026-04-26 19:34 | 37.11432 | 2.60985 | 10675 ft | 328 kts | 163° |
| 2026-04-26 19:34 | 37.09303 | 2.61846 | 10525 ft | 316 kts | 164° |
| 2026-04-26 19:34 | 37.07248 | 2.62676 | 10388 ft | 304 kts | 164° |
| 2026-04-26 19:34 | 37.05268 | 2.63473 | 10240 ft | 294 kts | 163° |
| 2026-04-26 19:35 | 37.03382 | 2.64233 | 10132 ft | 284 kts | 163° |
| 2026-04-26 19:35 | 37.01522 | 2.64982 | 9866 ft | 280 kts | 163° |
| 2026-04-26 19:35 | 36.99687 | 2.65719 | 9556 ft | 276 kts | 163° |
| 2026-04-26 19:35 | 36.97867 | 2.66452 | 9275 ft | 273 kts | 164° |
| 2026-04-26 19:36 | 36.96064 | 2.67175 | 8983 ft | 271 kts | 164° |
| 2026-04-26 19:36 | 36.95461 | 2.67417 | 8893 ft | 270 kts | 163° |
| 2026-04-26 19:36 | 36.92517 | 2.68598 | 8417 ft | 265 kts | 163° |
| 2026-04-26 19:36 | 36.90768 | 2.69300 | 8119 ft | 263 kts | 163° |
| 2026-04-26 19:37 | 36.89036 | 2.69995 | 7857 ft | 261 kts | 163° |
| 2026-04-26 19:37 | 36.87337 | 2.70676 | 7584 ft | 259 kts | 163° |
| 2026-04-26 19:37 | 36.85629 | 2.71359 | 7312 ft | 257 kts | 163° |
| 2026-04-26 19:37 | 36.83929 | 2.72040 | 7043 ft | 256 kts | 163° |
| 2026-04-26 19:38 | 36.82238 | 2.72717 | 6769 ft | 255 kts | 163° |
| 2026-04-26 19:38 | 36.80555 | 2.73392 | 6510 ft | 254 kts | 163° |
| 2026-04-26 19:38 | 36.78876 | 2.74063 | 6218 ft | 253 kts | 163° |
| 2026-04-26 19:38 | 36.77208 | 2.74729 | 5943 ft | 251 kts | 163° |
| 2026-04-26 19:39 | 36.75531 | 2.75399 | 5676 ft | 256 kts | 163° |
| 2026-04-26 19:39 | 36.73843 | 2.76073 | 5412 ft | 261 kts | 163° |
| 2026-04-26 19:39 | 36.72116 | 2.76762 | 5235 ft | 258 kts | 162° |
| 2026-04-26 19:39 | 36.70544 | 2.77655 | 5088 ft | 238 kts | 137° |
| 2026-04-26 19:40 | 36.69669 | 2.79215 | 4942 ft | 210 kts | 102° |
| 2026-04-26 19:40 | 36.69640 | 2.80915 | 4853 ft | 187 kts | 81° |
| 2026-04-26 19:40 | 36.69796 | 2.82549 | 4766 ft | 191 kts | 83° |
| 2026-04-26 19:40 | 36.69881 | 2.84102 | 4573 ft | 166 kts | 86° |
| 2026-04-26 19:41 | 36.69899 | 2.85440 | 4343 ft | 143 kts | 88° |
| 2026-04-26 19:41 | 36.69893 | 2.86623 | 4233 ft | 136 kts | 89° |
| 2026-04-26 19:41 | 36.69879 | 2.87795 | 4142 ft | 136 kts | 89° |
| 2026-04-26 19:41 | 36.69873 | 2.88190 | 4104 ft | 135 kts | 90° |
| 2026-04-26 19:42 | 36.69835 | 2.90143 | 4035 ft | 135 kts | 89° |
| 2026-04-26 19:42 | 36.69810 | 2.91300 | 4009 ft | 132 kts | 89° |
| 2026-04-26 19:42 | 36.69783 | 2.92481 | 3880 ft | 137 kts | 90° |
| 2026-04-26 19:42 | 36.69756 | 2.93654 | 3724 ft | 135 kts | 91° |
| 2026-04-26 19:43 | 36.69729 | 2.94825 | 3545 ft | 135 kts | 90° |
| 2026-04-26 19:43 | 36.69701 | 2.95987 | 3387 ft | 137 kts | 91° |
| 2026-04-26 19:43 | 36.69673 | 2.97172 | 3211 ft | 136 kts | 90° |
| 2026-04-26 19:43 | 36.69646 | 2.98353 | 3026 ft | 136 kts | 91° |
| 2026-04-26 19:44 | 36.69618 | 2.99536 | 2841 ft | 137 kts | 91° |
| 2026-04-26 19:44 | 36.69591 | 3.00685 | 2665 ft | 138 kts | 91° |
| 2026-04-26 19:44 | 36.69563 | 3.01877 | 2484 ft | 138 kts | 91° |
| 2026-04-26 19:44 | 36.69534 | 3.03072 | 2300 ft | 138 kts | 91° |
| 2026-04-26 19:45 | 36.69506 | 3.04257 | 2119 ft | 137 kts | 91° |
| 2026-04-26 19:45 | 36.69479 | 3.05420 | 1923 ft | 135 kts | 91° |
| 2026-04-26 19:45 | 36.69452 | 3.06584 | 1762 ft | 135 kts | 91° |
| 2026-04-26 19:45 | 36.69424 | 3.07756 | 1589 ft | 135 kts | 91° |
| 2026-04-26 19:46 | 36.69396 | 3.08930 | 1408 ft | 136 kts | 91° |
| 2026-04-26 19:46 | 36.69369 | 3.10108 | 1232 ft | 136 kts | 91° |
| 2026-04-26 19:46 | 36.69341 | 3.11281 | 1050 ft | 136 kts | 91° |
| 2026-04-26 19:46 | 36.69316 | 3.12451 | 872 ft | 135 kts | 90° |
| 2026-04-26 19:47 | 36.69293 | 3.13623 | 670 ft | 135 kts | 90° |
| 2026-04-26 19:47 | 36.69286 | 3.13999 | 631 ft | 133 kts | 90° |
| 2026-04-26 19:47 | 36.69233 | 3.15904 | 320 ft | 134 kts | 91° |
| 2026-04-26 19:47 | 36.69201 | 3.17060 | 125 ft | 131 kts | 90° |
| 2026-04-26 19:48 | 36.69181 | 3.18091 | 83 ft | 105 kts | 91° |
| 2026-04-26 19:48 | 36.69164 | 3.18841 | 83 ft | 62 kts | 91° |
| 2026-04-26 19:48 | 36.69152 | 3.19339 | 82 ft | 42 kts | 91° |
| 2026-04-26 19:48 | 36.69147 | 3.19631 | 69 ft | 26 kts | 88° |
| 2026-04-26 19:49 | 36.69176 | 3.19803 | 74 ft | 14 kts | 66° |
| 2026-04-26 19:49 | 36.69211 | 3.19891 | 65 ft | 9 kts | 62° |
| 2026-04-26 19:49 | 36.69244 | 3.19968 | 66 ft | 12 kts | 62° |
| 2026-04-26 19:49 | 36.69281 | 3.20067 | 66 ft | 13 kts | 69° |
| 2026-04-26 19:50 | 36.69300 | 3.20181 | 72 ft | 11 kts | 88° |
| 2026-04-26 19:50 | 36.69317 | 3.20269 | 64 ft | 11 kts | 45° |
| 2026-04-26 19:50 | 36.69390 | 3.20290 | 68 ft | 12 kts | 3° |
| 2026-04-26 19:50 | 36.69447 | 3.20228 | 66 ft | 13 kts | 281° |
| 2026-04-26 19:51 | 36.69451 | 3.20151 | 67 ft | 10 kts | 272° |
| 2026-04-26 19:51 | 36.69454 | 3.20055 | 74 ft | 11 kts | 271° |
| 2026-04-26 19:51 | 36.69488 | 3.19991 | 68 ft | 7 kts | 340° |
| 2026-04-26 19:51 | 36.69536 | 3.19985 | 60 ft | 8 kts | 359° |
| 2026-04-26 19:52 | 36.69590 | 3.19986 | 68 ft | 6 kts | 1° |
| 2026-04-26 19:52 | 36.69620 | 3.19999 | 65 ft | 4 kts | 40° |
| 2026-04-26 19:52 | 36.69626 | 3.20025 | 63 ft | 4 kts | 78° |
| 2026-04-26 19:52 | 36.69628 | 3.20064 | 72 ft | 3 kts | 91° |
| 2026-04-26 19:53 | 36.69627 | 3.20087 | 74 ft | 2 kts | 92° |
| 2026-04-26 19:53 | 36.69627 | 3.20096 | 74 ft | 0 kts | 92° |